<?xml version='1.0' encoding='UTF-8'?>
<gpx version="1.1" creator="https://www.komoot.de" xmlns="http://www.topografix.com/GPX/1/1" xmlns:xsi="http://www.w3.org/2001/XMLSchema-instance" xsi:schemaLocation="http://www.topografix.com/GPX/1/1 http://www.topografix.com/GPX/1/1/gpx.xsd">
  <metadata>
    <name>47_670WehrBergalingen</name>
    <author>
      <link href="https://www.komoot.de">
        <text>komoot</text>
        <type>text/html</type>
      </link>
    </author>
  </metadata>
  <trk>
    <name>47_670WehrBergalingen</name>
    <trkseg>
      <trkpt lat="47.542329" lon="7.869820">
        <ele>337.927106</ele>
        <time>2021-11-08T20:10:43.232Z</time>
      </trkpt>
      <trkpt lat="47.542329" lon="7.869820">
        <ele>337.927106</ele>
        <time>2021-11-08T20:10:43.267Z</time>
      </trkpt>
      <trkpt lat="47.542372" lon="7.869746">
        <ele>337.927106</ele>
        <time>2021-11-08T20:10:44.088Z</time>
      </trkpt>
      <trkpt lat="47.542544" lon="7.869509">
        <ele>337.927106</ele>
        <time>2021-11-08T20:10:47.238Z</time>
      </trkpt>
      <trkpt lat="47.542657" lon="7.869354">
        <ele>337.927106</ele>
        <time>2021-11-08T20:10:49.099Z</time>
      </trkpt>
      <trkpt lat="47.542696" lon="7.869257">
        <ele>337.927106</ele>
        <time>2021-11-08T20:10:50.048Z</time>
      </trkpt>
      <trkpt lat="47.542722" lon="7.869201">
        <ele>337.927106</ele>
        <time>2021-11-08T20:10:50.694Z</time>
      </trkpt>
      <trkpt lat="47.543049" lon="7.868759">
        <ele>337.757796</ele>
        <time>2021-11-08T20:10:55.722Z</time>
      </trkpt>
      <trkpt lat="47.543105" lon="7.868711">
        <ele>337.666704</ele>
        <time>2021-11-08T20:10:56.485Z</time>
      </trkpt>
      <trkpt lat="47.543201" lon="7.868657">
        <ele>337.522126</ele>
        <time>2021-11-08T20:10:57.571Z</time>
      </trkpt>
      <trkpt lat="47.543657" lon="7.868359">
        <ele>336.820408</ele>
        <time>2021-11-08T20:11:03.357Z</time>
      </trkpt>
      <trkpt lat="47.543801" lon="7.868269">
        <ele>336.600358</ele>
        <time>2021-11-08T20:11:05.837Z</time>
      </trkpt>
      <trkpt lat="47.544214" lon="7.867988">
        <ele>335.960481</ele>
        <time>2021-11-08T20:11:13.454Z</time>
      </trkpt>
      <trkpt lat="47.544246" lon="7.867967">
        <ele>335.911204</ele>
        <time>2021-11-08T20:11:14.051Z</time>
      </trkpt>
      <trkpt lat="47.544410" lon="7.867825">
        <ele>335.643755</ele>
        <time>2021-11-08T20:11:17.304Z</time>
      </trkpt>
      <trkpt lat="47.544469" lon="7.867776">
        <ele>335.548523</ele>
        <time>2021-11-08T20:11:18.326Z</time>
      </trkpt>
      <trkpt lat="47.544568" lon="7.867693">
        <ele>335.395710</ele>
        <time>2021-11-08T20:11:20.253Z</time>
      </trkpt>
      <trkpt lat="47.545003" lon="7.867278">
        <ele>335.509902</ele>
        <time>2021-11-08T20:11:29.101Z</time>
      </trkpt>
      <trkpt lat="47.545160" lon="7.866985">
        <ele>335.565634</ele>
        <time>2021-11-08T20:11:33.751Z</time>
      </trkpt>
      <trkpt lat="47.545240" lon="7.866887">
        <ele>335.588545</ele>
        <time>2021-11-08T20:11:36.025Z</time>
      </trkpt>
      <trkpt lat="47.546096" lon="7.866147">
        <ele>335.826661</ele>
        <time>2021-11-08T20:12:01.095Z</time>
      </trkpt>
      <trkpt lat="47.546327" lon="7.865959">
        <ele>335.957108</ele>
        <time>2021-11-08T20:12:07.516Z</time>
      </trkpt>
      <trkpt lat="47.546510" lon="7.865766">
        <ele>336.068288</ele>
        <time>2021-11-08T20:12:13.902Z</time>
      </trkpt>
      <trkpt lat="47.546819" lon="7.865489">
        <ele>336.247042</ele>
        <time>2021-11-08T20:12:22.055Z</time>
      </trkpt>
      <trkpt lat="47.546889" lon="7.865225">
        <ele>336.341799</ele>
        <time>2021-11-08T20:12:25.842Z</time>
      </trkpt>
      <trkpt lat="47.546894" lon="7.864837">
        <ele>336.471444</ele>
        <time>2021-11-08T20:12:31.019Z</time>
      </trkpt>
      <trkpt lat="47.546885" lon="7.864500">
        <ele>336.584116</ele>
        <time>2021-11-08T20:12:36.658Z</time>
      </trkpt>
      <trkpt lat="47.546974" lon="7.864423">
        <ele>336.635127</ele>
        <time>2021-11-08T20:12:38.246Z</time>
      </trkpt>
      <trkpt lat="47.547320" lon="7.863864">
        <ele>336.127876</ele>
        <time>2021-11-08T20:12:48.171Z</time>
      </trkpt>
      <trkpt lat="47.547568" lon="7.863151">
        <ele>335.409311</ele>
        <time>2021-11-08T20:12:57.184Z</time>
      </trkpt>
      <trkpt lat="47.547930" lon="7.861711">
        <ele>334.010580</ele>
        <time>2021-11-08T20:13:13.558Z</time>
      </trkpt>
      <trkpt lat="47.548049" lon="7.860929">
        <ele>333.231748</ele>
        <time>2021-11-08T20:13:22.257Z</time>
      </trkpt>
      <trkpt lat="47.548334" lon="7.859801">
        <ele>332.061566</ele>
        <time>2021-11-08T20:13:35.739Z</time>
      </trkpt>
      <trkpt lat="47.548611" lon="7.858381">
        <ele>331.418021</ele>
        <time>2021-11-08T20:13:53.695Z</time>
      </trkpt>
      <trkpt lat="47.548686" lon="7.857973">
        <ele>331.308608</ele>
        <time>2021-11-08T20:13:59.084Z</time>
      </trkpt>
      <trkpt lat="47.548701" lon="7.857893">
        <ele>331.287125</ele>
        <time>2021-11-08T20:14:00.205Z</time>
      </trkpt>
      <trkpt lat="47.548743" lon="7.857692">
        <ele>331.232683</ele>
        <time>2021-11-08T20:14:02.979Z</time>
      </trkpt>
      <trkpt lat="47.548887" lon="7.857308">
        <ele>331.119021</ele>
        <time>2021-11-08T20:14:09.012Z</time>
      </trkpt>
      <trkpt lat="47.549362" lon="7.855774">
        <ele>330.908392</ele>
        <time>2021-11-08T20:14:33.057Z</time>
      </trkpt>
      <trkpt lat="47.549566" lon="7.855225">
        <ele>330.856031</ele>
        <time>2021-11-08T20:14:41.675Z</time>
      </trkpt>
      <trkpt lat="47.549883" lon="7.854434">
        <ele>330.550558</ele>
        <time>2021-11-08T20:14:53.128Z</time>
      </trkpt>
      <trkpt lat="47.550221" lon="7.853833">
        <ele>329.446219</ele>
        <time>2021-11-08T20:14:59.522Z</time>
      </trkpt>
      <trkpt lat="47.551516" lon="7.851950">
        <ele>324.882273</ele>
        <time>2021-11-08T20:15:18.319Z</time>
      </trkpt>
      <trkpt lat="47.551660" lon="7.851725">
        <ele>324.200728</ele>
        <time>2021-11-08T20:15:20.350Z</time>
      </trkpt>
      <trkpt lat="47.551830" lon="7.851603">
        <ele>323.585572</ele>
        <time>2021-11-08T20:15:22.271Z</time>
      </trkpt>
      <trkpt lat="47.551925" lon="7.851845">
        <ele>322.970226</ele>
        <time>2021-11-08T20:15:24.115Z</time>
      </trkpt>
      <trkpt lat="47.552042" lon="7.852007">
        <ele>322.448717</ele>
        <time>2021-11-08T20:15:25.761Z</time>
      </trkpt>
      <trkpt lat="47.552097" lon="7.852063">
        <ele>322.231385</ele>
        <time>2021-11-08T20:15:26.392Z</time>
      </trkpt>
      <trkpt lat="47.552272" lon="7.852167">
        <ele>321.617335</ele>
        <time>2021-11-08T20:15:28.298Z</time>
      </trkpt>
      <trkpt lat="47.552449" lon="7.852231">
        <ele>321.063604</ele>
        <time>2021-11-08T20:15:30.098Z</time>
      </trkpt>
      <trkpt lat="47.552678" lon="7.851709">
        <ele>320.056393</ele>
        <time>2021-11-08T20:15:34.401Z</time>
      </trkpt>
      <trkpt lat="47.552876" lon="7.851300">
        <ele>319.242102</ele>
        <time>2021-11-08T20:15:37.945Z</time>
      </trkpt>
      <trkpt lat="47.553283" lon="7.850634">
        <ele>317.788604</ele>
        <time>2021-11-08T20:15:44.610Z</time>
      </trkpt>
      <trkpt lat="47.553344" lon="7.850525">
        <ele>317.559530</ele>
        <time>2021-11-08T20:15:45.691Z</time>
      </trkpt>
      <trkpt lat="47.553380" lon="7.850453">
        <ele>317.414568</ele>
        <time>2021-11-08T20:15:46.389Z</time>
      </trkpt>
      <trkpt lat="47.553537" lon="7.849904">
        <ele>316.611776</ele>
        <time>2021-11-08T20:15:50.888Z</time>
      </trkpt>
      <trkpt lat="47.553605" lon="7.849629">
        <ele>316.323739</ele>
        <time>2021-11-08T20:15:53.141Z</time>
      </trkpt>
      <trkpt lat="47.553725" lon="7.849291">
        <ele>315.948136</ele>
        <time>2021-11-08T20:15:56.081Z</time>
      </trkpt>
      <trkpt lat="47.554055" lon="7.848586">
        <ele>315.104350</ele>
        <time>2021-11-08T20:16:02.981Z</time>
      </trkpt>
      <trkpt lat="47.554209" lon="7.848300">
        <ele>314.744525</ele>
        <time>2021-11-08T20:16:05.919Z</time>
      </trkpt>
      <trkpt lat="47.554269" lon="7.848188">
        <ele>314.603894</ele>
        <time>2021-11-08T20:16:07.014Z</time>
      </trkpt>
      <trkpt lat="47.554351" lon="7.848049">
        <ele>314.422330</ele>
        <time>2021-11-08T20:16:08.460Z</time>
      </trkpt>
      <trkpt lat="47.554465" lon="7.847858">
        <ele>314.176383</ele>
        <time>2021-11-08T20:16:10.480Z</time>
      </trkpt>
      <trkpt lat="47.554618" lon="7.847626">
        <ele>313.879287</ele>
        <time>2021-11-08T20:16:12.979Z</time>
      </trkpt>
      <trkpt lat="47.554759" lon="7.847388">
        <ele>313.589230</ele>
        <time>2021-11-08T20:16:15.396Z</time>
      </trkpt>
      <trkpt lat="47.554892" lon="7.847148">
        <ele>313.304804</ele>
        <time>2021-11-08T20:16:17.827Z</time>
      </trkpt>
      <trkpt lat="47.554995" lon="7.846915">
        <ele>313.049695</ele>
        <time>2021-11-08T20:16:19.984Z</time>
      </trkpt>
      <trkpt lat="47.555068" lon="7.846672">
        <ele>312.806079</ele>
        <time>2021-11-08T20:16:22.045Z</time>
      </trkpt>
      <trkpt lat="47.555199" lon="7.846687">
        <ele>312.627767</ele>
        <time>2021-11-08T20:16:23.526Z</time>
      </trkpt>
      <trkpt lat="47.555727" lon="7.846715">
        <ele>311.910749</ele>
        <time>2021-11-08T20:16:29.984Z</time>
      </trkpt>
      <trkpt lat="47.555855" lon="7.846815">
        <ele>311.745752</ele>
        <time>2021-11-08T20:16:31.646Z</time>
      </trkpt>
      <trkpt lat="47.555892" lon="7.846856">
        <ele>311.705850</ele>
        <time>2021-11-08T20:16:32.203Z</time>
      </trkpt>
      <trkpt lat="47.555966" lon="7.846932">
        <ele>311.628090</ele>
        <time>2021-11-08T20:16:33.353Z</time>
      </trkpt>
      <trkpt lat="47.555990" lon="7.846965">
        <ele>311.599813</ele>
        <time>2021-11-08T20:16:33.785Z</time>
      </trkpt>
      <trkpt lat="47.556060" lon="7.846859">
        <ele>311.513373</ele>
        <time>2021-11-08T20:16:34.979Z</time>
      </trkpt>
      <trkpt lat="47.556636" lon="7.845928">
        <ele>310.777225</ele>
        <time>2021-11-08T20:16:45.365Z</time>
      </trkpt>
      <trkpt lat="47.557134" lon="7.845095">
        <ele>310.210443</ele>
        <time>2021-11-08T20:16:55.184Z</time>
      </trkpt>
      <trkpt lat="47.557282" lon="7.844832">
        <ele>310.148490</ele>
        <time>2021-11-08T20:16:58.324Z</time>
      </trkpt>
      <trkpt lat="47.557560" lon="7.844433">
        <ele>310.044735</ele>
        <time>2021-11-08T20:17:03.499Z</time>
      </trkpt>
      <trkpt lat="47.557715" lon="7.843940">
        <ele>309.946339</ele>
        <time>2021-11-08T20:17:08.504Z</time>
      </trkpt>
      <trkpt lat="47.557759" lon="7.843839">
        <ele>309.924590</ele>
        <time>2021-11-08T20:17:09.683Z</time>
      </trkpt>
      <trkpt lat="47.557846" lon="7.843756">
        <ele>309.896851</ele>
        <time>2021-11-08T20:17:11.031Z</time>
      </trkpt>
      <trkpt lat="47.557967" lon="7.843683">
        <ele>309.861827</ele>
        <time>2021-11-08T20:17:13.061Z</time>
      </trkpt>
      <trkpt lat="47.557967" lon="7.843683">
        <ele>309.861827</ele>
        <time>2021-11-08T20:17:13.067Z</time>
      </trkpt>
      <trkpt lat="47.557967" lon="7.843683">
        <ele>309.861827</ele>
        <time>2021-11-08T20:17:13.140Z</time>
      </trkpt>
      <trkpt lat="47.558136" lon="7.843582">
        <ele>309.812975</ele>
        <time>2021-11-08T20:17:15.827Z</time>
      </trkpt>
      <trkpt lat="47.558405" lon="7.843371">
        <ele>309.787711</ele>
        <time>2021-11-08T20:17:20.692Z</time>
      </trkpt>
      <trkpt lat="47.558471" lon="7.843365">
        <ele>309.799606</ele>
        <time>2021-11-08T20:17:21.543Z</time>
      </trkpt>
      <trkpt lat="47.558555" lon="7.843392">
        <ele>309.815068</ele>
        <time>2021-11-08T20:17:22.825Z</time>
      </trkpt>
      <trkpt lat="47.558884" lon="7.843836">
        <ele>309.895118</ele>
        <time>2021-11-08T20:17:30.104Z</time>
      </trkpt>
      <trkpt lat="47.559060" lon="7.844197">
        <ele>309.949183</ele>
        <time>2021-11-08T20:17:34.930Z</time>
      </trkpt>
      <trkpt lat="47.559109" lon="7.844229">
        <ele>309.958816</ele>
        <time>2021-11-08T20:17:35.908Z</time>
      </trkpt>
      <trkpt lat="47.559158" lon="7.844233">
        <ele>309.967644</ele>
        <time>2021-11-08T20:17:36.925Z</time>
      </trkpt>
      <trkpt lat="47.559583" lon="7.843813">
        <ele>310.059539</ele>
        <time>2021-11-08T20:17:44.905Z</time>
      </trkpt>
      <trkpt lat="47.559847" lon="7.843604">
        <ele>309.988634</ele>
        <time>2021-11-08T20:17:49.303Z</time>
      </trkpt>
      <trkpt lat="47.560139" lon="7.843433">
        <ele>309.760218</ele>
        <time>2021-11-08T20:17:53.534Z</time>
      </trkpt>
      <trkpt lat="47.560209" lon="7.843393">
        <ele>309.705638</ele>
        <time>2021-11-08T20:17:54.485Z</time>
      </trkpt>
      <trkpt lat="47.560338" lon="7.843341">
        <ele>309.608380</ele>
        <time>2021-11-08T20:17:56.151Z</time>
      </trkpt>
      <trkpt lat="47.560430" lon="7.843341">
        <ele>309.541450</ele>
        <time>2021-11-08T20:17:57.694Z</time>
      </trkpt>
      <trkpt lat="47.560515" lon="7.843379">
        <ele>309.476860</ele>
        <time>2021-11-08T20:17:58.728Z</time>
      </trkpt>
      <trkpt lat="47.560812" lon="7.843560">
        <ele>309.243234</ele>
        <time>2021-11-08T20:18:02.787Z</time>
      </trkpt>
      <trkpt lat="47.560934" lon="7.843550">
        <ele>309.154343</ele>
        <time>2021-11-08T20:18:04.309Z</time>
      </trkpt>
      <trkpt lat="47.561038" lon="7.843502">
        <ele>309.075099</ele>
        <time>2021-11-08T20:18:05.598Z</time>
      </trkpt>
      <trkpt lat="47.561434" lon="7.843181">
        <ele>308.720115</ele>
        <time>2021-11-08T20:18:11.039Z</time>
      </trkpt>
      <trkpt lat="47.561498" lon="7.843130">
        <ele>308.625148</ele>
        <time>2021-11-08T20:18:11.802Z</time>
      </trkpt>
      <trkpt lat="47.562179" lon="7.842500">
        <ele>307.575964</ele>
        <time>2021-11-08T20:18:21.060Z</time>
      </trkpt>
      <trkpt lat="47.562300" lon="7.842326">
        <ele>307.355616</ele>
        <time>2021-11-08T20:18:23.009Z</time>
      </trkpt>
      <trkpt lat="47.562385" lon="7.842183">
        <ele>307.187557</ele>
        <time>2021-11-08T20:18:24.423Z</time>
      </trkpt>
      <trkpt lat="47.562440" lon="7.842083">
        <ele>307.073785</ele>
        <time>2021-11-08T20:18:25.537Z</time>
      </trkpt>
      <trkpt lat="47.562574" lon="7.841873">
        <ele>306.818901</ele>
        <time>2021-11-08T20:18:27.931Z</time>
      </trkpt>
      <trkpt lat="47.562904" lon="7.841632">
        <ele>306.358366</ele>
        <time>2021-11-08T20:18:32.420Z</time>
      </trkpt>
      <trkpt lat="47.562965" lon="7.841597">
        <ele>306.291839</ele>
        <time>2021-11-08T20:18:33.213Z</time>
      </trkpt>
      <trkpt lat="47.563016" lon="7.841568">
        <ele>306.236283</ele>
        <time>2021-11-08T20:18:33.913Z</time>
      </trkpt>
      <trkpt lat="47.563300" lon="7.841391">
        <ele>305.922941</ele>
        <time>2021-11-08T20:18:37.651Z</time>
      </trkpt>
      <trkpt lat="47.563483" lon="7.841269">
        <ele>305.718857</ele>
        <time>2021-11-08T20:18:40.205Z</time>
      </trkpt>
      <trkpt lat="47.563659" lon="7.841150">
        <ele>305.522109</ele>
        <time>2021-11-08T20:18:42.535Z</time>
      </trkpt>
      <trkpt lat="47.563805" lon="7.841046">
        <ele>305.357358</ele>
        <time>2021-11-08T20:18:44.594Z</time>
      </trkpt>
      <trkpt lat="47.563941" lon="7.840948">
        <ele>305.203557</ele>
        <time>2021-11-08T20:18:46.449Z</time>
      </trkpt>
      <trkpt lat="47.563986" lon="7.840916">
        <ele>305.152794</ele>
        <time>2021-11-08T20:18:47.069Z</time>
      </trkpt>
      <trkpt lat="47.564094" lon="7.840838">
        <ele>305.030605</ele>
        <time>2021-11-08T20:18:48.536Z</time>
      </trkpt>
      <trkpt lat="47.564463" lon="7.840580">
        <ele>304.615647</ele>
        <time>2021-11-08T20:18:53.527Z</time>
      </trkpt>
      <trkpt lat="47.564534" lon="7.840532">
        <ele>304.524568</ele>
        <time>2021-11-08T20:18:54.434Z</time>
      </trkpt>
      <trkpt lat="47.564558" lon="7.840516">
        <ele>304.492898</ele>
        <time>2021-11-08T20:18:54.758Z</time>
      </trkpt>
      <trkpt lat="47.564936" lon="7.840261">
        <ele>303.993100</ele>
        <time>2021-11-08T20:18:59.660Z</time>
      </trkpt>
      <trkpt lat="47.565057" lon="7.840213">
        <ele>303.842362</ele>
        <time>2021-11-08T20:19:01.073Z</time>
      </trkpt>
      <trkpt lat="47.565168" lon="7.840179">
        <ele>303.705960</ele>
        <time>2021-11-08T20:19:02.414Z</time>
      </trkpt>
      <trkpt lat="47.565233" lon="7.840176">
        <ele>303.627701</ele>
        <time>2021-11-08T20:19:03.150Z</time>
      </trkpt>
      <trkpt lat="47.565343" lon="7.840185">
        <ele>303.495124</ele>
        <time>2021-11-08T20:19:04.410Z</time>
      </trkpt>
      <trkpt lat="47.565906" lon="7.840272">
        <ele>302.813932</ele>
        <time>2021-11-08T20:19:11.077Z</time>
      </trkpt>
      <trkpt lat="47.566081" lon="7.840309">
        <ele>302.601203</ele>
        <time>2021-11-08T20:19:13.192Z</time>
      </trkpt>
      <trkpt lat="47.566142" lon="7.840322">
        <ele>302.527040</ele>
        <time>2021-11-08T20:19:13.927Z</time>
      </trkpt>
      <trkpt lat="47.566221" lon="7.840340">
        <ele>302.432421</ele>
        <time>2021-11-08T20:19:15.067Z</time>
      </trkpt>
      <trkpt lat="47.566350" lon="7.840350">
        <ele>302.327383</ele>
        <time>2021-11-08T20:19:16.680Z</time>
      </trkpt>
      <trkpt lat="47.566450" lon="7.840326">
        <ele>302.245011</ele>
        <time>2021-11-08T20:19:17.930Z</time>
      </trkpt>
      <trkpt lat="47.566515" lon="7.840312">
        <ele>302.191602</ele>
        <time>2021-11-08T20:19:18.725Z</time>
      </trkpt>
      <trkpt lat="47.566592" lon="7.840279">
        <ele>302.126426</ele>
        <time>2021-11-08T20:19:19.843Z</time>
      </trkpt>
      <trkpt lat="47.566826" lon="7.840179">
        <ele>301.928401</ele>
        <time>2021-11-08T20:19:22.790Z</time>
      </trkpt>
      <trkpt lat="47.567111" lon="7.839998">
        <ele>301.676279</ele>
        <time>2021-11-08T20:19:26.725Z</time>
      </trkpt>
      <trkpt lat="47.567406" lon="7.839778">
        <ele>301.407750</ele>
        <time>2021-11-08T20:19:30.883Z</time>
      </trkpt>
      <trkpt lat="47.567481" lon="7.839664">
        <ele>301.320394</ele>
        <time>2021-11-08T20:19:32.177Z</time>
      </trkpt>
      <trkpt lat="47.567510" lon="7.839548">
        <ele>301.252524</ele>
        <time>2021-11-08T20:19:33.336Z</time>
      </trkpt>
      <trkpt lat="47.567530" lon="7.839459">
        <ele>301.201059</ele>
        <time>2021-11-08T20:19:34.143Z</time>
      </trkpt>
      <trkpt lat="47.567564" lon="7.839283">
        <ele>301.100619</ele>
        <time>2021-11-08T20:19:35.707Z</time>
      </trkpt>
      <trkpt lat="47.567607" lon="7.839131">
        <ele>301.010193</ele>
        <time>2021-11-08T20:19:37.122Z</time>
      </trkpt>
      <trkpt lat="47.567626" lon="7.839064">
        <ele>300.969712</ele>
        <time>2021-11-08T20:19:37.843Z</time>
      </trkpt>
      <trkpt lat="47.567634" lon="7.839037">
        <ele>300.950065</ele>
        <time>2021-11-08T20:19:38.071Z</time>
      </trkpt>
      <trkpt lat="47.567823" lon="7.838648">
        <ele>300.630686</ele>
        <time>2021-11-08T20:19:42.378Z</time>
      </trkpt>
      <trkpt lat="47.567846" lon="7.838609">
        <ele>300.596175</ele>
        <time>2021-11-08T20:19:42.802Z</time>
      </trkpt>
      <trkpt lat="47.567936" lon="7.838380">
        <ele>300.419606</ele>
        <time>2021-11-08T20:19:45.158Z</time>
      </trkpt>
      <trkpt lat="47.568042" lon="7.838436">
        <ele>300.308484</ele>
        <time>2021-11-08T20:19:47.243Z</time>
      </trkpt>
      <trkpt lat="47.568160" lon="7.838415">
        <ele>300.191126</ele>
        <time>2021-11-08T20:19:49.392Z</time>
      </trkpt>
      <trkpt lat="47.568420" lon="7.838300">
        <ele>299.923196</ele>
        <time>2021-11-08T20:19:54.180Z</time>
      </trkpt>
      <trkpt lat="47.568988" lon="7.838054">
        <ele>299.338860</ele>
        <time>2021-11-08T20:20:04.004Z</time>
      </trkpt>
      <trkpt lat="47.569310" lon="7.837922">
        <ele>298.928597</ele>
        <time>2021-11-08T20:20:09.511Z</time>
      </trkpt>
      <trkpt lat="47.569522" lon="7.837844">
        <ele>298.620749</ele>
        <time>2021-11-08T20:20:13.103Z</time>
      </trkpt>
      <trkpt lat="47.569665" lon="7.837789">
        <ele>298.412539</ele>
        <time>2021-11-08T20:20:15.541Z</time>
      </trkpt>
      <trkpt lat="47.569814" lon="7.837733">
        <ele>298.195901</ele>
        <time>2021-11-08T20:20:18.077Z</time>
      </trkpt>
      <trkpt lat="47.569907" lon="7.837696">
        <ele>298.060193</ele>
        <time>2021-11-08T20:20:19.652Z</time>
      </trkpt>
      <trkpt lat="47.570038" lon="7.837643">
        <ele>297.868815</ele>
        <time>2021-11-08T20:20:21.904Z</time>
      </trkpt>
      <trkpt lat="47.570298" lon="7.837528">
        <ele>297.486419</ele>
        <time>2021-11-08T20:20:26.356Z</time>
      </trkpt>
      <trkpt lat="47.570872" lon="7.837307">
        <ele>296.656003</ele>
        <time>2021-11-08T20:20:36.218Z</time>
      </trkpt>
      <trkpt lat="47.570985" lon="7.837265">
        <ele>296.568505</ele>
        <time>2021-11-08T20:20:38.145Z</time>
      </trkpt>
      <trkpt lat="47.571254" lon="7.837161">
        <ele>296.359709</ele>
        <time>2021-11-08T20:20:42.858Z</time>
      </trkpt>
      <trkpt lat="47.571771" lon="7.836971">
        <ele>295.959651</ele>
        <time>2021-11-08T20:20:52.364Z</time>
      </trkpt>
      <trkpt lat="47.571871" lon="7.836932">
        <ele>295.881988</ele>
        <time>2021-11-08T20:20:54.301Z</time>
      </trkpt>
      <trkpt lat="47.572139" lon="7.836834">
        <ele>295.674668</ele>
        <time>2021-11-08T20:20:59.496Z</time>
      </trkpt>
      <trkpt lat="47.572296" lon="7.836777">
        <ele>295.553265</ele>
        <time>2021-11-08T20:21:02.575Z</time>
      </trkpt>
      <trkpt lat="47.572760" lon="7.836606">
        <ele>295.243299</ele>
        <time>2021-11-08T20:21:11.592Z</time>
      </trkpt>
      <trkpt lat="47.573348" lon="7.836386">
        <ele>294.978955</ele>
        <time>2021-11-08T20:21:22.746Z</time>
      </trkpt>
      <trkpt lat="47.573815" lon="7.836215">
        <ele>294.769273</ele>
        <time>2021-11-08T20:21:31.558Z</time>
      </trkpt>
      <trkpt lat="47.574158" lon="7.836106">
        <ele>294.616365</ele>
        <time>2021-11-08T20:21:38.130Z</time>
      </trkpt>
      <trkpt lat="47.574568" lon="7.836025">
        <ele>294.600268</ele>
        <time>2021-11-08T20:21:43.821Z</time>
      </trkpt>
      <trkpt lat="47.575033" lon="7.835907">
        <ele>294.764969</ele>
        <time>2021-11-08T20:21:50.826Z</time>
      </trkpt>
      <trkpt lat="47.575959" lon="7.835718">
        <ele>295.091301</ele>
        <time>2021-11-08T20:22:06.442Z</time>
      </trkpt>
      <trkpt lat="47.576219" lon="7.835650">
        <ele>295.259853</ele>
        <time>2021-11-08T20:22:11.600Z</time>
      </trkpt>
      <trkpt lat="47.579073" lon="7.834987">
        <ele>298.515760</ele>
        <time>2021-11-08T20:23:10.436Z</time>
      </trkpt>
      <trkpt lat="47.580667" lon="7.834627">
        <ele>298.466875</ele>
        <time>2021-11-08T20:23:34.285Z</time>
      </trkpt>
      <trkpt lat="47.580816" lon="7.834599">
        <ele>298.374675</ele>
        <time>2021-11-08T20:23:36.382Z</time>
      </trkpt>
      <trkpt lat="47.582828" lon="7.834117">
        <ele>295.261416</ele>
        <time>2021-11-08T20:23:59.430Z</time>
      </trkpt>
      <trkpt lat="47.583163" lon="7.833942">
        <ele>294.562226</ele>
        <time>2021-11-08T20:24:03.259Z</time>
      </trkpt>
      <trkpt lat="47.583327" lon="7.833750">
        <ele>293.853631</ele>
        <time>2021-11-08T20:24:05.417Z</time>
      </trkpt>
      <trkpt lat="47.583401" lon="7.833658">
        <ele>293.458691</ele>
        <time>2021-11-08T20:24:06.348Z</time>
      </trkpt>
      <trkpt lat="47.583523" lon="7.833509">
        <ele>292.812290</ele>
        <time>2021-11-08T20:24:08.024Z</time>
      </trkpt>
      <trkpt lat="47.583696" lon="7.833171">
        <ele>291.641922</ele>
        <time>2021-11-08T20:24:10.862Z</time>
      </trkpt>
      <trkpt lat="47.583849" lon="7.832883">
        <ele>290.630700</ele>
        <time>2021-11-08T20:24:13.182Z</time>
      </trkpt>
      <trkpt lat="47.584029" lon="7.832543">
        <ele>289.438479</ele>
        <time>2021-11-08T20:24:15.917Z</time>
      </trkpt>
      <trkpt lat="47.584156" lon="7.832334">
        <ele>288.662540</ele>
        <time>2021-11-08T20:24:17.696Z</time>
      </trkpt>
      <trkpt lat="47.584367" lon="7.832247">
        <ele>287.766919</ele>
        <time>2021-11-08T20:24:19.756Z</time>
      </trkpt>
      <trkpt lat="47.584717" lon="7.832264">
        <ele>286.478653</ele>
        <time>2021-11-08T20:24:23.145Z</time>
      </trkpt>
      <trkpt lat="47.585027" lon="7.832425">
        <ele>285.397688</ele>
        <time>2021-11-08T20:24:26.408Z</time>
      </trkpt>
      <trkpt lat="47.585195" lon="7.832588">
        <ele>284.736949</ele>
        <time>2021-11-08T20:24:28.464Z</time>
      </trkpt>
      <trkpt lat="47.585247" lon="7.832651">
        <ele>284.515952</ele>
        <time>2021-11-08T20:24:29.111Z</time>
      </trkpt>
      <trkpt lat="47.585278" lon="7.832688">
        <ele>284.384983</ele>
        <time>2021-11-08T20:24:29.494Z</time>
      </trkpt>
      <trkpt lat="47.586276" lon="7.833601">
        <ele>281.034593</ele>
        <time>2021-11-08T20:24:41.511Z</time>
      </trkpt>
      <trkpt lat="47.586496" lon="7.833050">
        <ele>280.767899</ele>
        <time>2021-11-08T20:24:46.747Z</time>
      </trkpt>
      <trkpt lat="47.587848" lon="7.834235">
        <ele>280.187441</ele>
        <time>2021-11-08T20:25:11.159Z</time>
      </trkpt>
      <trkpt lat="47.587628" lon="7.835942">
        <ele>280.621695</ele>
        <time>2021-11-08T20:25:30.775Z</time>
      </trkpt>
      <trkpt lat="47.587571" lon="7.836399">
        <ele>280.733627</ele>
        <time>2021-11-08T20:25:36.081Z</time>
      </trkpt>
      <trkpt lat="47.586920" lon="7.841604">
        <ele>281.765924</ele>
        <time>2021-11-08T20:26:32.860Z</time>
      </trkpt>
      <trkpt lat="47.586809" lon="7.842018">
        <ele>281.814888</ele>
        <time>2021-11-08T20:26:37.583Z</time>
      </trkpt>
      <trkpt lat="47.586802" lon="7.842180">
        <ele>281.832729</ele>
        <time>2021-11-08T20:26:39.323Z</time>
      </trkpt>
      <trkpt lat="47.586790" lon="7.842637">
        <ele>281.882994</ele>
        <time>2021-11-08T20:26:44.195Z</time>
      </trkpt>
      <trkpt lat="47.586452" lon="7.845634">
        <ele>282.049048</ele>
        <time>2021-11-08T20:27:15.709Z</time>
      </trkpt>
      <trkpt lat="47.586486" lon="7.847936">
        <ele>281.827775</ele>
        <time>2021-11-08T20:27:37.633Z</time>
      </trkpt>
      <trkpt lat="47.586484" lon="7.848370">
        <ele>281.744827</ele>
        <time>2021-11-08T20:27:41.650Z</time>
      </trkpt>
      <trkpt lat="47.586522" lon="7.848600">
        <ele>281.699570</ele>
        <time>2021-11-08T20:27:43.793Z</time>
      </trkpt>
      <trkpt lat="47.586757" lon="7.850579">
        <ele>281.299278</ele>
        <time>2021-11-08T20:28:02.182Z</time>
      </trkpt>
      <trkpt lat="47.587300" lon="7.853345">
        <ele>280.868621</ele>
        <time>2021-11-08T20:28:29.272Z</time>
      </trkpt>
      <trkpt lat="47.587447" lon="7.853842">
        <ele>280.820239</ele>
        <time>2021-11-08T20:28:34.556Z</time>
      </trkpt>
      <trkpt lat="47.589471" lon="7.862994">
        <ele>281.169129</ele>
        <time>2021-11-08T20:30:12.588Z</time>
      </trkpt>
      <trkpt lat="47.589823" lon="7.864422">
        <ele>281.194314</ele>
        <time>2021-11-08T20:30:28.274Z</time>
      </trkpt>
      <trkpt lat="47.590251" lon="7.866509">
        <ele>280.846321</ele>
        <time>2021-11-08T20:30:48.800Z</time>
      </trkpt>
      <trkpt lat="47.590266" lon="7.866595">
        <ele>280.830045</ele>
        <time>2021-11-08T20:30:49.697Z</time>
      </trkpt>
      <trkpt lat="47.590274" lon="7.866644">
        <ele>280.820808</ele>
        <time>2021-11-08T20:30:50.172Z</time>
      </trkpt>
      <trkpt lat="47.590333" lon="7.867008">
        <ele>280.752215</ele>
        <time>2021-11-08T20:30:53.379Z</time>
      </trkpt>
      <trkpt lat="47.590348" lon="7.868400">
        <ele>280.700165</ele>
        <time>2021-11-08T20:31:06.389Z</time>
      </trkpt>
      <trkpt lat="47.590365" lon="7.868441">
        <ele>280.699759</ele>
        <time>2021-11-08T20:31:06.769Z</time>
      </trkpt>
      <trkpt lat="47.590292" lon="7.868520">
        <ele>280.698630</ele>
        <time>2021-11-08T20:31:08.034Z</time>
      </trkpt>
      <trkpt lat="47.590348" lon="7.868680">
        <ele>280.697111</ele>
        <time>2021-11-08T20:31:10.068Z</time>
      </trkpt>
      <trkpt lat="47.590421" lon="7.868927">
        <ele>280.694838</ele>
        <time>2021-11-08T20:31:12.608Z</time>
      </trkpt>
      <trkpt lat="47.590470" lon="7.869069">
        <ele>280.693494</ele>
        <time>2021-11-08T20:31:14.336Z</time>
      </trkpt>
      <trkpt lat="47.590532" lon="7.869253">
        <ele>280.691761</ele>
        <time>2021-11-08T20:31:16.712Z</time>
      </trkpt>
      <trkpt lat="47.590705" lon="7.869768">
        <ele>280.718447</ele>
        <time>2021-11-08T20:31:23.123Z</time>
      </trkpt>
      <trkpt lat="47.590773" lon="7.869984">
        <ele>280.828283</ele>
        <time>2021-11-08T20:31:25.700Z</time>
      </trkpt>
      <trkpt lat="47.590870" lon="7.870288">
        <ele>280.983243</ele>
        <time>2021-11-08T20:31:29.698Z</time>
      </trkpt>
      <trkpt lat="47.590872" lon="7.870300">
        <ele>280.988939</ele>
        <time>2021-11-08T20:31:29.803Z</time>
      </trkpt>
      <trkpt lat="47.590882" lon="7.870356">
        <ele>281.015631</ele>
        <time>2021-11-08T20:31:30.375Z</time>
      </trkpt>
      <trkpt lat="47.590885" lon="7.870375">
        <ele>281.024622</ele>
        <time>2021-11-08T20:31:30.601Z</time>
      </trkpt>
      <trkpt lat="47.590993" lon="7.871168">
        <ele>281.397388</ele>
        <time>2021-11-08T20:31:40.518Z</time>
      </trkpt>
      <trkpt lat="47.591074" lon="7.872343">
        <ele>281.937774</ele>
        <time>2021-11-08T20:31:55.068Z</time>
      </trkpt>
      <trkpt lat="47.591105" lon="7.873760">
        <ele>282.491865</ele>
        <time>2021-11-08T20:32:11.440Z</time>
      </trkpt>
      <trkpt lat="47.591067" lon="7.874101">
        <ele>282.626943</ele>
        <time>2021-11-08T20:32:15.231Z</time>
      </trkpt>
      <trkpt lat="47.590851" lon="7.875195">
        <ele>283.120056</ele>
        <time>2021-11-08T20:32:27.942Z</time>
      </trkpt>
      <trkpt lat="47.590771" lon="7.875667">
        <ele>283.389821</ele>
        <time>2021-11-08T20:32:33.765Z</time>
      </trkpt>
      <trkpt lat="47.590643" lon="7.876593">
        <ele>283.913773</ele>
        <time>2021-11-08T20:32:45.257Z</time>
      </trkpt>
      <trkpt lat="47.590592" lon="7.876946">
        <ele>284.113881</ele>
        <time>2021-11-08T20:32:49.630Z</time>
      </trkpt>
      <trkpt lat="47.590532" lon="7.877177">
        <ele>284.251092</ele>
        <time>2021-11-08T20:32:53.010Z</time>
      </trkpt>
      <trkpt lat="47.590479" lon="7.877434">
        <ele>284.400059</ele>
        <time>2021-11-08T20:32:56.247Z</time>
      </trkpt>
      <trkpt lat="47.590500" lon="7.877526">
        <ele>284.474018</ele>
        <time>2021-11-08T20:32:57.559Z</time>
      </trkpt>
      <trkpt lat="47.590631" lon="7.877615">
        <ele>284.732891</ele>
        <time>2021-11-08T20:33:00.486Z</time>
      </trkpt>
      <trkpt lat="47.591021" lon="7.877714">
        <ele>285.443728</ele>
        <time>2021-11-08T20:33:08.285Z</time>
      </trkpt>
      <trkpt lat="47.591165" lon="7.877839">
        <ele>285.743499</ele>
        <time>2021-11-08T20:33:11.755Z</time>
      </trkpt>
      <trkpt lat="47.591201" lon="7.878391">
        <ele>286.415424</ele>
        <time>2021-11-08T20:33:20.324Z</time>
      </trkpt>
      <trkpt lat="47.591234" lon="7.879550">
        <ele>287.836306</ele>
        <time>2021-11-08T20:33:38.907Z</time>
      </trkpt>
      <trkpt lat="47.591318" lon="7.879563">
        <ele>288.003320</ele>
        <time>2021-11-08T20:33:41.009Z</time>
      </trkpt>
      <trkpt lat="47.591348" lon="7.879568">
        <ele>288.063020</ele>
        <time>2021-11-08T20:33:41.711Z</time>
      </trkpt>
      <trkpt lat="47.591433" lon="7.879589">
        <ele>288.233426</ele>
        <time>2021-11-08T20:33:43.879Z</time>
      </trkpt>
      <trkpt lat="47.591747" lon="7.879696">
        <ele>288.870554</ele>
        <time>2021-11-08T20:33:51.677Z</time>
      </trkpt>
      <trkpt lat="47.592176" lon="7.879859">
        <ele>289.746319</ele>
        <time>2021-11-08T20:34:02.295Z</time>
      </trkpt>
      <trkpt lat="47.592558" lon="7.880084">
        <ele>290.559147</ele>
        <time>2021-11-08T20:34:11.469Z</time>
      </trkpt>
      <trkpt lat="47.592855" lon="7.880299">
        <ele>291.212724</ele>
        <time>2021-11-08T20:34:18.526Z</time>
      </trkpt>
      <trkpt lat="47.592680" lon="7.881162">
        <ele>291.887479</ele>
        <time>2021-11-08T20:34:30.103Z</time>
      </trkpt>
      <trkpt lat="47.592592" lon="7.881680">
        <ele>292.284205</ele>
        <time>2021-11-08T20:34:36.547Z</time>
      </trkpt>
      <trkpt lat="47.592531" lon="7.882114">
        <ele>292.613454</ele>
        <time>2021-11-08T20:34:41.995Z</time>
      </trkpt>
      <trkpt lat="47.592493" lon="7.882622">
        <ele>292.993049</ele>
        <time>2021-11-08T20:34:48.921Z</time>
      </trkpt>
      <trkpt lat="47.592487" lon="7.882778">
        <ele>293.109096</ele>
        <time>2021-11-08T20:34:50.955Z</time>
      </trkpt>
      <trkpt lat="47.592842" lon="7.883686">
        <ele>293.862241</ele>
        <time>2021-11-08T20:35:04.600Z</time>
      </trkpt>
      <trkpt lat="47.592917" lon="7.883969">
        <ele>294.079354</ele>
        <time>2021-11-08T20:35:08.484Z</time>
      </trkpt>
      <trkpt lat="47.592959" lon="7.884237">
        <ele>294.275813</ele>
        <time>2021-11-08T20:35:11.977Z</time>
      </trkpt>
      <trkpt lat="47.592977" lon="7.884463">
        <ele>294.438305</ele>
        <time>2021-11-08T20:35:14.794Z</time>
      </trkpt>
      <trkpt lat="47.593037" lon="7.884537">
        <ele>294.520934</ele>
        <time>2021-11-08T20:35:16.536Z</time>
      </trkpt>
      <trkpt lat="47.593166" lon="7.884637">
        <ele>294.675054</ele>
        <time>2021-11-08T20:35:19.165Z</time>
      </trkpt>
      <trkpt lat="47.592802" lon="7.885426">
        <ele>295.262025</ele>
        <time>2021-11-08T20:35:31.435Z</time>
      </trkpt>
      <trkpt lat="47.592651" lon="7.885826">
        <ele>295.462870</ele>
        <time>2021-11-08T20:35:37.180Z</time>
      </trkpt>
      <trkpt lat="47.592409" lon="7.886663">
        <ele>295.861878</ele>
        <time>2021-11-08T20:35:47.282Z</time>
      </trkpt>
      <trkpt lat="47.592202" lon="7.887383">
        <ele>296.204812</ele>
        <time>2021-11-08T20:35:55.695Z</time>
      </trkpt>
      <trkpt lat="47.591964" lon="7.888193">
        <ele>296.812494</ele>
        <time>2021-11-08T20:36:06.604Z</time>
      </trkpt>
      <trkpt lat="47.591866" lon="7.888529">
        <ele>297.085845</ele>
        <time>2021-11-08T20:36:11.210Z</time>
      </trkpt>
      <trkpt lat="47.591763" lon="7.888925">
        <ele>297.402770</ele>
        <time>2021-11-08T20:36:16.897Z</time>
      </trkpt>
      <trkpt lat="47.591728" lon="7.889070">
        <ele>297.517768</ele>
        <time>2021-11-08T20:36:19.041Z</time>
      </trkpt>
      <trkpt lat="47.591692" lon="7.889232">
        <ele>297.645133</ele>
        <time>2021-11-08T20:36:21.471Z</time>
      </trkpt>
      <trkpt lat="47.591381" lon="7.890797">
        <ele>298.823481</ele>
        <time>2021-11-08T20:36:43.773Z</time>
      </trkpt>
      <trkpt lat="47.591247" lon="7.891264">
        <ele>299.176938</ele>
        <time>2021-11-08T20:36:50.593Z</time>
      </trkpt>
      <trkpt lat="47.591003" lon="7.891941">
        <ele>299.711543</ele>
        <time>2021-11-08T20:36:59.988Z</time>
      </trkpt>
      <trkpt lat="47.590704" lon="7.892594">
        <ele>300.157828</ele>
        <time>2021-11-08T20:37:09.643Z</time>
      </trkpt>
      <trkpt lat="47.589960" lon="7.894201">
        <ele>300.464752</ele>
        <time>2021-11-08T20:37:30.756Z</time>
      </trkpt>
      <trkpt lat="47.589932" lon="7.894260">
        <ele>300.476112</ele>
        <time>2021-11-08T20:37:31.516Z</time>
      </trkpt>
      <trkpt lat="47.589590" lon="7.894990">
        <ele>300.337990</ele>
        <time>2021-11-08T20:37:39.818Z</time>
      </trkpt>
      <trkpt lat="47.589118" lon="7.896174">
        <ele>299.675615</ele>
        <time>2021-11-08T20:37:51.639Z</time>
      </trkpt>
      <trkpt lat="47.588808" lon="7.897009">
        <ele>299.197269</ele>
        <time>2021-11-08T20:37:59.383Z</time>
      </trkpt>
      <trkpt lat="47.588506" lon="7.897839">
        <ele>298.554953</ele>
        <time>2021-11-08T20:38:07.038Z</time>
      </trkpt>
      <trkpt lat="47.588436" lon="7.898021">
        <ele>298.412257</ele>
        <time>2021-11-08T20:38:08.851Z</time>
      </trkpt>
      <trkpt lat="47.587961" lon="7.899254">
        <ele>297.445455</ele>
        <time>2021-11-08T20:38:20.549Z</time>
      </trkpt>
      <trkpt lat="47.587506" lon="7.900489">
        <ele>296.664221</ele>
        <time>2021-11-08T20:38:32.351Z</time>
      </trkpt>
      <trkpt lat="47.587029" lon="7.901746">
        <ele>295.821446</ele>
        <time>2021-11-08T20:38:44.851Z</time>
      </trkpt>
      <trkpt lat="47.586847" lon="7.902221">
        <ele>295.394116</ele>
        <time>2021-11-08T20:38:49.503Z</time>
      </trkpt>
      <trkpt lat="47.586407" lon="7.903407">
        <ele>294.335298</ele>
        <time>2021-11-08T20:39:00.654Z</time>
      </trkpt>
      <trkpt lat="47.585958" lon="7.904606">
        <ele>292.622235</ele>
        <time>2021-11-08T20:39:10.931Z</time>
      </trkpt>
      <trkpt lat="47.585762" lon="7.905099">
        <ele>291.710653</ele>
        <time>2021-11-08T20:39:14.927Z</time>
      </trkpt>
      <trkpt lat="47.585496" lon="7.905337">
        <ele>290.976912</ele>
        <time>2021-11-08T20:39:18.148Z</time>
      </trkpt>
      <trkpt lat="47.585115" lon="7.905535">
        <ele>290.023432</ele>
        <time>2021-11-08T20:39:22.430Z</time>
      </trkpt>
      <trkpt lat="47.584999" lon="7.905611">
        <ele>289.723919</ele>
        <time>2021-11-08T20:39:23.696Z</time>
      </trkpt>
      <trkpt lat="47.584916" lon="7.905652">
        <ele>289.585607</ele>
        <time>2021-11-08T20:39:24.658Z</time>
      </trkpt>
      <trkpt lat="47.584823" lon="7.905756">
        <ele>289.473576</ele>
        <time>2021-11-08T20:39:25.961Z</time>
      </trkpt>
      <trkpt lat="47.584749" lon="7.905839">
        <ele>289.384336</ele>
        <time>2021-11-08T20:39:26.917Z</time>
      </trkpt>
      <trkpt lat="47.584590" lon="7.906150">
        <ele>289.131191</ele>
        <time>2021-11-08T20:39:29.792Z</time>
      </trkpt>
      <trkpt lat="47.584514" lon="7.906452">
        <ele>288.922096</ele>
        <time>2021-11-08T20:39:32.102Z</time>
      </trkpt>
      <trkpt lat="47.584494" lon="7.906788">
        <ele>288.703289</ele>
        <time>2021-11-08T20:39:34.804Z</time>
      </trkpt>
      <trkpt lat="47.584526" lon="7.907025">
        <ele>288.546500</ele>
        <time>2021-11-08T20:39:36.815Z</time>
      </trkpt>
      <trkpt lat="47.584560" lon="7.907157">
        <ele>288.454842</ele>
        <time>2021-11-08T20:39:38.120Z</time>
      </trkpt>
      <trkpt lat="47.584610" lon="7.907283">
        <ele>288.360012</ele>
        <time>2021-11-08T20:39:39.458Z</time>
      </trkpt>
      <trkpt lat="47.584762" lon="7.907518">
        <ele>288.148806</ele>
        <time>2021-11-08T20:39:42.483Z</time>
      </trkpt>
      <trkpt lat="47.585259" lon="7.907927">
        <ele>288.742279</ele>
        <time>2021-11-08T20:39:53.793Z</time>
      </trkpt>
      <trkpt lat="47.585383" lon="7.908062">
        <ele>289.155520</ele>
        <time>2021-11-08T20:39:57.295Z</time>
      </trkpt>
      <trkpt lat="47.585441" lon="7.908183">
        <ele>289.424467</ele>
        <time>2021-11-08T20:40:00.236Z</time>
      </trkpt>
      <trkpt lat="47.585521" lon="7.908321">
        <ele>289.754150</ele>
        <time>2021-11-08T20:40:03.851Z</time>
      </trkpt>
      <trkpt lat="47.585517" lon="7.908375">
        <ele>289.852574</ele>
        <time>2021-11-08T20:40:04.940Z</time>
      </trkpt>
      <trkpt lat="47.585525" lon="7.908428">
        <ele>289.950973</ele>
        <time>2021-11-08T20:40:05.810Z</time>
      </trkpt>
      <trkpt lat="47.585502" lon="7.908551">
        <ele>290.182227</ele>
        <time>2021-11-08T20:40:08.007Z</time>
      </trkpt>
      <trkpt lat="47.585467" lon="7.908664">
        <ele>290.407512</ele>
        <time>2021-11-08T20:40:10.646Z</time>
      </trkpt>
      <trkpt lat="47.585435" lon="7.908792">
        <ele>290.654837</ele>
        <time>2021-11-08T20:40:13.553Z</time>
      </trkpt>
      <trkpt lat="47.585427" lon="7.908874">
        <ele>290.804949</ele>
        <time>2021-11-08T20:40:15.712Z</time>
      </trkpt>
      <trkpt lat="47.585419" lon="7.908887">
        <ele>290.836833</ele>
        <time>2021-11-08T20:40:16.165Z</time>
      </trkpt>
      <trkpt lat="47.585337" lon="7.909031">
        <ele>291.178275</ele>
        <time>2021-11-08T20:40:20.499Z</time>
      </trkpt>
      <trkpt lat="47.585078" lon="7.909509">
        <ele>292.289144</ele>
        <time>2021-11-08T20:40:32.512Z</time>
      </trkpt>
      <trkpt lat="47.585045" lon="7.909674">
        <ele>292.600955</ele>
        <time>2021-11-08T20:40:35.823Z</time>
      </trkpt>
      <trkpt lat="47.585051" lon="7.909751">
        <ele>292.746496</ele>
        <time>2021-11-08T20:40:37.730Z</time>
      </trkpt>
      <trkpt lat="47.585051" lon="7.909751">
        <ele>292.746496</ele>
        <time>2021-11-08T20:40:37.765Z</time>
      </trkpt>
      <trkpt lat="47.585051" lon="7.909751">
        <ele>292.746496</ele>
        <time>2021-11-08T20:40:37.768Z</time>
      </trkpt>
      <trkpt lat="47.585066" lon="7.909809">
        <ele>292.938262</ele>
        <time>2021-11-08T20:40:39.067Z</time>
      </trkpt>
      <trkpt lat="47.585093" lon="7.909869">
        <ele>293.160931</ele>
        <time>2021-11-08T20:40:40.677Z</time>
      </trkpt>
      <trkpt lat="47.585157" lon="7.909965">
        <ele>293.577631</ele>
        <time>2021-11-08T20:40:43.401Z</time>
      </trkpt>
      <trkpt lat="47.585271" lon="7.910136">
        <ele>294.319878</ele>
        <time>2021-11-08T20:40:48.579Z</time>
      </trkpt>
      <trkpt lat="47.585430" lon="7.910346">
        <ele>295.294505</ele>
        <time>2021-11-08T20:40:55.930Z</time>
      </trkpt>
      <trkpt lat="47.585571" lon="7.910576">
        <ele>296.254004</ele>
        <time>2021-11-08T20:41:03.339Z</time>
      </trkpt>
      <trkpt lat="47.585610" lon="7.910640">
        <ele>296.520273</ele>
        <time>2021-11-08T20:41:05.651Z</time>
      </trkpt>
      <trkpt lat="47.586028" lon="7.911561">
        <ele>299.947253</ele>
        <time>2021-11-08T20:41:31.707Z</time>
      </trkpt>
      <trkpt lat="47.586263" lon="7.911881">
        <ele>301.209055</ele>
        <time>2021-11-08T20:41:41.882Z</time>
      </trkpt>
      <trkpt lat="47.586433" lon="7.912047">
        <ele>301.721307</ele>
        <time>2021-11-08T20:41:48.345Z</time>
      </trkpt>
      <trkpt lat="47.586622" lon="7.912140">
        <ele>302.222435</ele>
        <time>2021-11-08T20:41:54.263Z</time>
      </trkpt>
      <trkpt lat="47.586917" lon="7.912301">
        <ele>303.013499</ele>
        <time>2021-11-08T20:42:02.120Z</time>
      </trkpt>
      <trkpt lat="47.587725" lon="7.912508">
        <ele>305.076959</ele>
        <time>2021-11-08T20:42:20.815Z</time>
      </trkpt>
      <trkpt lat="47.587897" lon="7.912517">
        <ele>305.495103</ele>
        <time>2021-11-08T20:42:24.371Z</time>
      </trkpt>
      <trkpt lat="47.588907" lon="7.912607">
        <ele>305.837650</ele>
        <time>2021-11-08T20:42:39.828Z</time>
      </trkpt>
      <trkpt lat="47.589326" lon="7.912720">
        <ele>305.981828</ele>
        <time>2021-11-08T20:42:46.167Z</time>
      </trkpt>
      <trkpt lat="47.589873" lon="7.912855">
        <ele>306.250421</ele>
        <time>2021-11-08T20:42:54.667Z</time>
      </trkpt>
      <trkpt lat="47.590231" lon="7.912830">
        <ele>306.516333</ele>
        <time>2021-11-08T20:43:00.391Z</time>
      </trkpt>
      <trkpt lat="47.590570" lon="7.912784">
        <ele>306.768904</ele>
        <time>2021-11-08T20:43:06.512Z</time>
      </trkpt>
      <trkpt lat="47.591044" lon="7.912710">
        <ele>307.122530</ele>
        <time>2021-11-08T20:43:15.585Z</time>
      </trkpt>
      <trkpt lat="47.591348" lon="7.912662">
        <ele>307.349357</ele>
        <time>2021-11-08T20:43:21.666Z</time>
      </trkpt>
      <trkpt lat="47.591443" lon="7.912678">
        <ele>307.420296</ele>
        <time>2021-11-08T20:43:23.245Z</time>
      </trkpt>
      <trkpt lat="47.591605" lon="7.912829">
        <ele>307.671350</ele>
        <time>2021-11-08T20:43:27.489Z</time>
      </trkpt>
      <trkpt lat="47.591714" lon="7.913064">
        <ele>307.937548</ele>
        <time>2021-11-08T20:43:30.795Z</time>
      </trkpt>
      <trkpt lat="47.591721" lon="7.913096">
        <ele>307.968947</ele>
        <time>2021-11-08T20:43:31.181Z</time>
      </trkpt>
      <trkpt lat="47.591746" lon="7.913330">
        <ele>308.190069</ele>
        <time>2021-11-08T20:43:34.906Z</time>
      </trkpt>
      <trkpt lat="47.591809" lon="7.913704">
        <ele>308.549857</ele>
        <time>2021-11-08T20:43:39.124Z</time>
      </trkpt>
      <trkpt lat="47.591858" lon="7.913783">
        <ele>308.650032</ele>
        <time>2021-11-08T20:43:41.036Z</time>
      </trkpt>
      <trkpt lat="47.591953" lon="7.913843">
        <ele>308.792933</ele>
        <time>2021-11-08T20:43:43.033Z</time>
      </trkpt>
      <trkpt lat="47.592496" lon="7.914014">
        <ele>309.561162</ele>
        <time>2021-11-08T20:43:53.988Z</time>
      </trkpt>
      <trkpt lat="47.592589" lon="7.914035">
        <ele>309.691351</ele>
        <time>2021-11-08T20:43:57.009Z</time>
      </trkpt>
      <trkpt lat="47.592672" lon="7.914009">
        <ele>309.808751</ele>
        <time>2021-11-08T20:43:58.671Z</time>
      </trkpt>
      <trkpt lat="47.592807" lon="7.913929">
        <ele>310.062441</ele>
        <time>2021-11-08T20:44:01.134Z</time>
      </trkpt>
      <trkpt lat="47.593189" lon="7.913725">
        <ele>310.973098</ele>
        <time>2021-11-08T20:44:10.577Z</time>
      </trkpt>
      <trkpt lat="47.593511" lon="7.913649">
        <ele>311.704401</ele>
        <time>2021-11-08T20:44:18.511Z</time>
      </trkpt>
      <trkpt lat="47.593654" lon="7.913672">
        <ele>312.027016</ele>
        <time>2021-11-08T20:44:22.255Z</time>
      </trkpt>
      <trkpt lat="47.594163" lon="7.913924">
        <ele>313.230598</ele>
        <time>2021-11-08T20:44:35.410Z</time>
      </trkpt>
      <trkpt lat="47.594719" lon="7.914022">
        <ele>314.385489</ele>
        <time>2021-11-08T20:44:49.253Z</time>
      </trkpt>
      <trkpt lat="47.594871" lon="7.914141">
        <ele>314.697152</ele>
        <time>2021-11-08T20:44:53.230Z</time>
      </trkpt>
      <trkpt lat="47.595031" lon="7.914316">
        <ele>315.057647</ele>
        <time>2021-11-08T20:44:58.103Z</time>
      </trkpt>
      <trkpt lat="47.595292" lon="7.914664">
        <ele>315.694072</ele>
        <time>2021-11-08T20:45:05.730Z</time>
      </trkpt>
      <trkpt lat="47.595476" lon="7.914889">
        <ele>316.126510</ele>
        <time>2021-11-08T20:45:10.817Z</time>
      </trkpt>
      <trkpt lat="47.595688" lon="7.915084">
        <ele>316.578858</ele>
        <time>2021-11-08T20:45:16.250Z</time>
      </trkpt>
      <trkpt lat="47.595861" lon="7.915155">
        <ele>316.904336</ele>
        <time>2021-11-08T20:45:19.770Z</time>
      </trkpt>
      <trkpt lat="47.595909" lon="7.915188">
        <ele>317.000270</ele>
        <time>2021-11-08T20:45:20.853Z</time>
      </trkpt>
      <trkpt lat="47.595949" lon="7.915202">
        <ele>317.074791</ele>
        <time>2021-11-08T20:45:21.785Z</time>
      </trkpt>
      <trkpt lat="47.596117" lon="7.915243">
        <ele>317.307349</ele>
        <time>2021-11-08T20:45:25.380Z</time>
      </trkpt>
      <trkpt lat="47.596349" lon="7.915301">
        <ele>317.534182</ele>
        <time>2021-11-08T20:45:29.811Z</time>
      </trkpt>
      <trkpt lat="47.596736" lon="7.915598">
        <ele>317.954303</ele>
        <time>2021-11-08T20:45:37.648Z</time>
      </trkpt>
      <trkpt lat="47.596850" lon="7.915674">
        <ele>318.074809</ele>
        <time>2021-11-08T20:45:39.638Z</time>
      </trkpt>
      <trkpt lat="47.597083" lon="7.915733">
        <ele>318.302702</ele>
        <time>2021-11-08T20:45:43.770Z</time>
      </trkpt>
      <trkpt lat="47.597656" lon="7.915778">
        <ele>318.855919</ele>
        <time>2021-11-08T20:45:53.944Z</time>
      </trkpt>
      <trkpt lat="47.599120" lon="7.915596">
        <ele>320.536135</ele>
        <time>2021-11-08T20:46:23.915Z</time>
      </trkpt>
      <trkpt lat="47.599374" lon="7.915625">
        <ele>320.830928</ele>
        <time>2021-11-08T20:46:28.627Z</time>
      </trkpt>
      <trkpt lat="47.599906" lon="7.915798">
        <ele>321.223281</ele>
        <time>2021-11-08T20:46:38.453Z</time>
      </trkpt>
      <trkpt lat="47.600078" lon="7.915859">
        <ele>321.313332</ele>
        <time>2021-11-08T20:46:41.517Z</time>
      </trkpt>
      <trkpt lat="47.600344" lon="7.915900">
        <ele>321.449508</ele>
        <time>2021-11-08T20:46:46.007Z</time>
      </trkpt>
      <trkpt lat="47.600545" lon="7.915898">
        <ele>321.551859</ele>
        <time>2021-11-08T20:46:49.473Z</time>
      </trkpt>
      <trkpt lat="47.600689" lon="7.915853">
        <ele>321.626794</ele>
        <time>2021-11-08T20:46:51.802Z</time>
      </trkpt>
      <trkpt lat="47.601054" lon="7.915633">
        <ele>321.827414</ele>
        <time>2021-11-08T20:46:58.219Z</time>
      </trkpt>
      <trkpt lat="47.601546" lon="7.915285">
        <ele>322.161658</ele>
        <time>2021-11-08T20:47:06.624Z</time>
      </trkpt>
      <trkpt lat="47.602131" lon="7.915025">
        <ele>322.588008</ele>
        <time>2021-11-08T20:47:16.308Z</time>
      </trkpt>
      <trkpt lat="47.602754" lon="7.914823">
        <ele>323.033216</ele>
        <time>2021-11-08T20:47:28.323Z</time>
      </trkpt>
      <trkpt lat="47.603302" lon="7.914722">
        <ele>323.659810</ele>
        <time>2021-11-08T20:47:39.342Z</time>
      </trkpt>
      <trkpt lat="47.603466" lon="7.914620">
        <ele>323.925918</ele>
        <time>2021-11-08T20:47:43.369Z</time>
      </trkpt>
      <trkpt lat="47.603615" lon="7.914449">
        <ele>324.207833</ele>
        <time>2021-11-08T20:47:47.204Z</time>
      </trkpt>
      <trkpt lat="47.603884" lon="7.914671">
        <ele>324.668475</ele>
        <time>2021-11-08T20:47:53.946Z</time>
      </trkpt>
      <trkpt lat="47.604062" lon="7.914772">
        <ele>324.953655</ele>
        <time>2021-11-08T20:47:58.041Z</time>
      </trkpt>
      <trkpt lat="47.604062" lon="7.914772">
        <ele>324.953655</ele>
        <time>2021-11-08T20:47:58.104Z</time>
      </trkpt>
      <trkpt lat="47.604393" lon="7.914885">
        <ele>325.461903</ele>
        <time>2021-11-08T20:48:04.896Z</time>
      </trkpt>
      <trkpt lat="47.604722" lon="7.914915">
        <ele>325.947529</ele>
        <time>2021-11-08T20:48:11.548Z</time>
      </trkpt>
      <trkpt lat="47.605105" lon="7.914869">
        <ele>326.444158</ele>
        <time>2021-11-08T20:48:19.433Z</time>
      </trkpt>
      <trkpt lat="47.605408" lon="7.914750">
        <ele>326.849268</ele>
        <time>2021-11-08T20:48:26.127Z</time>
      </trkpt>
      <trkpt lat="47.605648" lon="7.914613">
        <ele>327.181637</ele>
        <time>2021-11-08T20:48:31.556Z</time>
      </trkpt>
      <trkpt lat="47.605929" lon="7.914457">
        <ele>327.569424</ele>
        <time>2021-11-08T20:48:37.377Z</time>
      </trkpt>
      <trkpt lat="47.606200" lon="7.914255">
        <ele>327.961422</ele>
        <time>2021-11-08T20:48:43.198Z</time>
      </trkpt>
      <trkpt lat="47.606450" lon="7.914067">
        <ele>328.319988</ele>
        <time>2021-11-08T20:48:48.462Z</time>
      </trkpt>
      <trkpt lat="47.606558" lon="7.913988">
        <ele>328.469844</ele>
        <time>2021-11-08T20:48:50.662Z</time>
      </trkpt>
      <trkpt lat="47.606706" lon="7.913869">
        <ele>328.679344</ele>
        <time>2021-11-08T20:48:53.795Z</time>
      </trkpt>
      <trkpt lat="47.606938" lon="7.913697">
        <ele>329.002114</ele>
        <time>2021-11-08T20:48:58.616Z</time>
      </trkpt>
      <trkpt lat="47.607292" lon="7.913435">
        <ele>329.494447</ele>
        <time>2021-11-08T20:49:06.240Z</time>
      </trkpt>
      <trkpt lat="47.607663" lon="7.913198">
        <ele>329.997137</ele>
        <time>2021-11-08T20:49:14.771Z</time>
      </trkpt>
      <trkpt lat="47.608679" lon="7.912703">
        <ele>331.501374</ele>
        <time>2021-11-08T20:49:37.135Z</time>
      </trkpt>
      <trkpt lat="47.608921" lon="7.912620">
        <ele>331.872398</ele>
        <time>2021-11-08T20:49:42.334Z</time>
      </trkpt>
      <trkpt lat="47.609914" lon="7.912278">
        <ele>333.275987</ele>
        <time>2021-11-08T20:50:03.219Z</time>
      </trkpt>
      <trkpt lat="47.610416" lon="7.911983">
        <ele>333.692091</ele>
        <time>2021-11-08T20:50:14.379Z</time>
      </trkpt>
      <trkpt lat="47.611260" lon="7.911383">
        <ele>334.413334</ele>
        <time>2021-11-08T20:50:30.539Z</time>
      </trkpt>
      <trkpt lat="47.612029" lon="7.910940">
        <ele>334.178840</ele>
        <time>2021-11-08T20:50:41.960Z</time>
      </trkpt>
      <trkpt lat="47.612005" lon="7.910790">
        <ele>334.123332</ele>
        <time>2021-11-08T20:50:43.252Z</time>
      </trkpt>
      <trkpt lat="47.611994" lon="7.910676">
        <ele>334.081867</ele>
        <time>2021-11-08T20:50:44.334Z</time>
      </trkpt>
      <trkpt lat="47.611988" lon="7.910610">
        <ele>334.057888</ele>
        <time>2021-11-08T20:50:44.851Z</time>
      </trkpt>
      <trkpt lat="47.611981" lon="7.910534">
        <ele>334.030270</ele>
        <time>2021-11-08T20:50:45.493Z</time>
      </trkpt>
      <trkpt lat="47.611986" lon="7.910466">
        <ele>334.005641</ele>
        <time>2021-11-08T20:50:46.241Z</time>
      </trkpt>
      <trkpt lat="47.612020" lon="7.910364">
        <ele>333.964671</ele>
        <time>2021-11-08T20:50:47.237Z</time>
      </trkpt>
      <trkpt lat="47.612082" lon="7.910269">
        <ele>333.917063</ele>
        <time>2021-11-08T20:50:48.402Z</time>
      </trkpt>
      <trkpt lat="47.612131" lon="7.910214">
        <ele>333.884244</ele>
        <time>2021-11-08T20:50:49.197Z</time>
      </trkpt>
      <trkpt lat="47.612216" lon="7.910134">
        <ele>333.830480</ele>
        <time>2021-11-08T20:50:50.444Z</time>
      </trkpt>
      <trkpt lat="47.612323" lon="7.910084">
        <ele>333.770563</ele>
        <time>2021-11-08T20:50:51.971Z</time>
      </trkpt>
      <trkpt lat="47.612897" lon="7.909812">
        <ele>333.280223</ele>
        <time>2021-11-08T20:50:59.412Z</time>
      </trkpt>
      <trkpt lat="47.613280" lon="7.909624">
        <ele>332.775909</ele>
        <time>2021-11-08T20:51:03.996Z</time>
      </trkpt>
      <trkpt lat="47.613360" lon="7.909602">
        <ele>332.674199</ele>
        <time>2021-11-08T20:51:04.921Z</time>
      </trkpt>
      <trkpt lat="47.613934" lon="7.909339">
        <ele>331.923202</ele>
        <time>2021-11-08T20:51:11.771Z</time>
      </trkpt>
      <trkpt lat="47.614063" lon="7.909285">
        <ele>331.755644</ele>
        <time>2021-11-08T20:51:13.391Z</time>
      </trkpt>
      <trkpt lat="47.614412" lon="7.909095">
        <ele>331.312947</ele>
        <time>2021-11-08T20:51:17.926Z</time>
      </trkpt>
      <trkpt lat="47.614784" lon="7.908839">
        <ele>331.122422</ele>
        <time>2021-11-08T20:51:23.134Z</time>
      </trkpt>
      <trkpt lat="47.614876" lon="7.908760">
        <ele>331.073034</ele>
        <time>2021-11-08T20:51:24.548Z</time>
      </trkpt>
      <trkpt lat="47.615085" lon="7.908567">
        <ele>330.958654</ele>
        <time>2021-11-08T20:51:27.690Z</time>
      </trkpt>
      <trkpt lat="47.615246" lon="7.908385">
        <ele>330.864610</ele>
        <time>2021-11-08T20:51:30.392Z</time>
      </trkpt>
      <trkpt lat="47.615374" lon="7.908222">
        <ele>330.786234</ele>
        <time>2021-11-08T20:51:32.508Z</time>
      </trkpt>
      <trkpt lat="47.615460" lon="7.908111">
        <ele>330.733272</ele>
        <time>2021-11-08T20:51:34.026Z</time>
      </trkpt>
      <trkpt lat="47.615669" lon="7.907870">
        <ele>330.610284</ele>
        <time>2021-11-08T20:51:37.586Z</time>
      </trkpt>
      <trkpt lat="47.615821" lon="7.907747">
        <ele>330.529841</ele>
        <time>2021-11-08T20:51:40.042Z</time>
      </trkpt>
      <trkpt lat="47.615946" lon="7.907692">
        <ele>330.555072</ele>
        <time>2021-11-08T20:51:41.852Z</time>
      </trkpt>
      <trkpt lat="47.616009" lon="7.907686">
        <ele>330.645257</ele>
        <time>2021-11-08T20:51:43.068Z</time>
      </trkpt>
      <trkpt lat="47.616124" lon="7.907729">
        <ele>330.814681</ele>
        <time>2021-11-08T20:51:45.082Z</time>
      </trkpt>
      <trkpt lat="47.616604" lon="7.908203">
        <ele>331.638425</ele>
        <time>2021-11-08T20:51:56.511Z</time>
      </trkpt>
      <trkpt lat="47.616832" lon="7.908284">
        <ele>331.973348</ele>
        <time>2021-11-08T20:52:01.646Z</time>
      </trkpt>
      <trkpt lat="47.617086" lon="7.908230">
        <ele>332.339911</ele>
        <time>2021-11-08T20:52:07.311Z</time>
      </trkpt>
      <trkpt lat="47.617238" lon="7.908130">
        <ele>332.577449</ele>
        <time>2021-11-08T20:52:10.862Z</time>
      </trkpt>
      <trkpt lat="47.617957" lon="7.907285">
        <ele>334.850218</ele>
        <time>2021-11-08T20:52:32.961Z</time>
      </trkpt>
      <trkpt lat="47.618470" lon="7.907083">
        <ele>336.489695</ele>
        <time>2021-11-08T20:52:48.268Z</time>
      </trkpt>
      <trkpt lat="47.618579" lon="7.906988">
        <ele>336.880190</ele>
        <time>2021-11-08T20:52:51.583Z</time>
      </trkpt>
      <trkpt lat="47.618719" lon="7.906838">
        <ele>337.413624</ele>
        <time>2021-11-08T20:52:57.197Z</time>
      </trkpt>
      <trkpt lat="47.618867" lon="7.906514">
        <ele>338.228538</ele>
        <time>2021-11-08T20:53:04.230Z</time>
      </trkpt>
      <trkpt lat="47.618888" lon="7.906392">
        <ele>338.490707</ele>
        <time>2021-11-08T20:53:07.420Z</time>
      </trkpt>
      <trkpt lat="47.618920" lon="7.906208">
        <ele>338.897403</ele>
        <time>2021-11-08T20:53:11.263Z</time>
      </trkpt>
      <trkpt lat="47.618976" lon="7.905535">
        <ele>340.366891</ele>
        <time>2021-11-08T20:53:23.488Z</time>
      </trkpt>
      <trkpt lat="47.619155" lon="7.905319">
        <ele>341.108689</ele>
        <time>2021-11-08T20:53:30.760Z</time>
      </trkpt>
      <trkpt lat="47.619299" lon="7.905308">
        <ele>341.572250</ele>
        <time>2021-11-08T20:53:34.111Z</time>
      </trkpt>
      <trkpt lat="47.619447" lon="7.905300">
        <ele>342.048373</ele>
        <time>2021-11-08T20:53:39.262Z</time>
      </trkpt>
      <trkpt lat="47.620426" lon="7.905244">
        <ele>344.933202</ele>
        <time>2021-11-08T20:54:05.006Z</time>
      </trkpt>
      <trkpt lat="47.620699" lon="7.905223">
        <ele>345.521022</ele>
        <time>2021-11-08T20:54:11.291Z</time>
      </trkpt>
      <trkpt lat="47.620784" lon="7.905216">
        <ele>345.704079</ele>
        <time>2021-11-08T20:54:13.488Z</time>
      </trkpt>
      <trkpt lat="47.621107" lon="7.905191">
        <ele>346.399569</ele>
        <time>2021-11-08T20:54:20.948Z</time>
      </trkpt>
      <trkpt lat="47.621248" lon="7.905159">
        <ele>346.706288</ele>
        <time>2021-11-08T20:54:24.201Z</time>
      </trkpt>
      <trkpt lat="47.622235" lon="7.904957">
        <ele>348.576450</ele>
        <time>2021-11-08T20:54:46.252Z</time>
      </trkpt>
      <trkpt lat="47.622424" lon="7.904919">
        <ele>348.795023</ele>
        <time>2021-11-08T20:54:50.171Z</time>
      </trkpt>
      <trkpt lat="47.622648" lon="7.904863">
        <ele>349.055344</ele>
        <time>2021-11-08T20:54:54.888Z</time>
      </trkpt>
      <trkpt lat="47.623285" lon="7.904723">
        <ele>349.793309</ele>
        <time>2021-11-08T20:55:07.179Z</time>
      </trkpt>
      <trkpt lat="47.623650" lon="7.904642">
        <ele>350.216250</ele>
        <time>2021-11-08T20:55:13.915Z</time>
      </trkpt>
      <trkpt lat="47.624120" lon="7.904530">
        <ele>350.188552</ele>
        <time>2021-11-08T20:55:21.946Z</time>
      </trkpt>
      <trkpt lat="47.624263" lon="7.904484">
        <ele>350.135159</ele>
        <time>2021-11-08T20:55:24.133Z</time>
      </trkpt>
      <trkpt lat="47.624399" lon="7.904386">
        <ele>350.079990</ele>
        <time>2021-11-08T20:55:26.389Z</time>
      </trkpt>
      <trkpt lat="47.624451" lon="7.904332">
        <ele>350.056829</ele>
        <time>2021-11-08T20:55:27.370Z</time>
      </trkpt>
      <trkpt lat="47.624472" lon="7.904367">
        <ele>350.045305</ele>
        <time>2021-11-08T20:55:27.790Z</time>
      </trkpt>
      <trkpt lat="47.624565" lon="7.904455">
        <ele>350.005055</ele>
        <time>2021-11-08T20:55:29.387Z</time>
      </trkpt>
      <trkpt lat="47.624761" lon="7.904481">
        <ele>349.933250</ele>
        <time>2021-11-08T20:55:32.187Z</time>
      </trkpt>
      <trkpt lat="47.624956" lon="7.904522">
        <ele>349.861383</ele>
        <time>2021-11-08T20:55:34.922Z</time>
      </trkpt>
      <trkpt lat="47.625088" lon="7.904563">
        <ele>349.812173</ele>
        <time>2021-11-08T20:55:36.499Z</time>
      </trkpt>
      <trkpt lat="47.625516" lon="7.904701">
        <ele>349.669982</ele>
        <time>2021-11-08T20:55:41.479Z</time>
      </trkpt>
      <trkpt lat="47.625742" lon="7.904774">
        <ele>349.666821</ele>
        <time>2021-11-08T20:55:44.194Z</time>
      </trkpt>
      <trkpt lat="47.626086" lon="7.904879">
        <ele>349.662022</ele>
        <time>2021-11-08T20:55:48.147Z</time>
      </trkpt>
      <trkpt lat="47.626221" lon="7.904920">
        <ele>349.660139</ele>
        <time>2021-11-08T20:55:49.645Z</time>
      </trkpt>
      <trkpt lat="47.626399" lon="7.904961">
        <ele>349.657678</ele>
        <time>2021-11-08T20:55:52.038Z</time>
      </trkpt>
      <trkpt lat="47.626440" lon="7.905007">
        <ele>349.656975</ele>
        <time>2021-11-08T20:55:52.777Z</time>
      </trkpt>
      <trkpt lat="47.626460" lon="7.905124">
        <ele>349.655863</ele>
        <time>2021-11-08T20:55:53.685Z</time>
      </trkpt>
      <trkpt lat="47.626443" lon="7.905945">
        <ele>349.648299</ele>
        <time>2021-11-08T20:56:03.807Z</time>
      </trkpt>
      <trkpt lat="47.626439" lon="7.906299">
        <ele>350.154424</ele>
        <time>2021-11-08T20:56:09.569Z</time>
      </trkpt>
      <trkpt lat="47.626436" lon="7.906623">
        <ele>351.597376</ele>
        <time>2021-11-08T20:56:16.096Z</time>
      </trkpt>
      <trkpt lat="47.626436" lon="7.907061">
        <ele>353.547848</ele>
        <time>2021-11-08T20:56:25.389Z</time>
      </trkpt>
      <trkpt lat="47.626436" lon="7.907187">
        <ele>354.108943</ele>
        <time>2021-11-08T20:56:28.078Z</time>
      </trkpt>
      <trkpt lat="47.626442" lon="7.907543">
        <ele>355.694754</ele>
        <time>2021-11-08T20:56:36.848Z</time>
      </trkpt>
      <trkpt lat="47.626446" lon="7.907798">
        <ele>356.830611</ele>
        <time>2021-11-08T20:56:46.062Z</time>
      </trkpt>
      <trkpt lat="47.626436" lon="7.907974">
        <ele>357.617143</ele>
        <time>2021-11-08T20:56:50.829Z</time>
      </trkpt>
      <trkpt lat="47.626373" lon="7.908242">
        <ele>358.881096</ele>
        <time>2021-11-08T20:57:02.509Z</time>
      </trkpt>
      <trkpt lat="47.626074" lon="7.908682">
        <ele>361.712503</ele>
        <time>2021-11-08T20:57:25.203Z</time>
      </trkpt>
      <trkpt lat="47.625875" lon="7.909372">
        <ele>366.282703</ele>
        <time>2021-11-08T20:57:52.398Z</time>
      </trkpt>
      <trkpt lat="47.625820" lon="7.909530">
        <ele>367.365579</ele>
        <time>2021-11-08T20:58:00.795Z</time>
      </trkpt>
      <trkpt lat="47.625738" lon="7.909657">
        <ele>368.436548</ele>
        <time>2021-11-08T20:58:06.848Z</time>
      </trkpt>
      <trkpt lat="47.625660" lon="7.909693">
        <ele>369.174595</ele>
        <time>2021-11-08T20:58:09.984Z</time>
      </trkpt>
      <trkpt lat="47.625630" lon="7.909700">
        <ele>369.448979</ele>
        <time>2021-11-08T20:58:11.889Z</time>
      </trkpt>
      <trkpt lat="47.625586" lon="7.909712">
        <ele>369.853184</ele>
        <time>2021-11-08T20:58:15.076Z</time>
      </trkpt>
      <trkpt lat="47.625366" lon="7.909623">
        <ele>371.913466</ele>
        <time>2021-11-08T20:58:26.799Z</time>
      </trkpt>
      <trkpt lat="47.624962" lon="7.909272">
        <ele>376.143397</ele>
        <time>2021-11-08T20:58:49.011Z</time>
      </trkpt>
      <trkpt lat="47.624823" lon="7.909229">
        <ele>377.426284</ele>
        <time>2021-11-08T20:58:56.574Z</time>
      </trkpt>
      <trkpt lat="47.624367" lon="7.909092">
        <ele>380.155702</ele>
        <time>2021-11-08T20:59:15.837Z</time>
      </trkpt>
      <trkpt lat="47.623851" lon="7.909030">
        <ele>383.041379</ele>
        <time>2021-11-08T20:59:33.424Z</time>
      </trkpt>
      <trkpt lat="47.623414" lon="7.909173">
        <ele>385.535823</ele>
        <time>2021-11-08T20:59:49.643Z</time>
      </trkpt>
      <trkpt lat="47.622850" lon="7.910055">
        <ele>389.802620</ele>
        <time>2021-11-08T21:00:16.619Z</time>
      </trkpt>
      <trkpt lat="47.622755" lon="7.910176">
        <ele>390.409070</ele>
        <time>2021-11-08T21:00:20.592Z</time>
      </trkpt>
      <trkpt lat="47.622666" lon="7.910254">
        <ele>390.909749</ele>
        <time>2021-11-08T21:00:24.725Z</time>
      </trkpt>
      <trkpt lat="47.622368" lon="7.910396">
        <ele>392.425781</ele>
        <time>2021-11-08T21:00:34.843Z</time>
      </trkpt>
      <trkpt lat="47.621461" lon="7.910146">
        <ele>396.949903</ele>
        <time>2021-11-08T21:01:06.895Z</time>
      </trkpt>
      <trkpt lat="47.621308" lon="7.910162">
        <ele>397.803297</ele>
        <time>2021-11-08T21:01:12.760Z</time>
      </trkpt>
      <trkpt lat="47.620712" lon="7.910483">
        <ele>401.331151</ele>
        <time>2021-11-08T21:01:33.935Z</time>
      </trkpt>
      <trkpt lat="47.620245" lon="7.910440">
        <ele>403.934506</ele>
        <time>2021-11-08T21:01:49.551Z</time>
      </trkpt>
      <trkpt lat="47.620162" lon="7.910587">
        <ele>404.653668</ele>
        <time>2021-11-08T21:01:54.752Z</time>
      </trkpt>
      <trkpt lat="47.620181" lon="7.910694">
        <ele>405.068644</ele>
        <time>2021-11-08T21:01:58.004Z</time>
      </trkpt>
      <trkpt lat="47.620625" lon="7.910808">
        <ele>408.173373</ele>
        <time>2021-11-08T21:02:18.450Z</time>
      </trkpt>
      <trkpt lat="47.620846" lon="7.911023">
        <ele>410.481560</ele>
        <time>2021-11-08T21:02:30.862Z</time>
      </trkpt>
      <trkpt lat="47.620946" lon="7.911321">
        <ele>412.441274</ele>
        <time>2021-11-08T21:02:41.918Z</time>
      </trkpt>
      <trkpt lat="47.620953" lon="7.911653">
        <ele>414.396710</ele>
        <time>2021-11-08T21:02:52.594Z</time>
      </trkpt>
      <trkpt lat="47.620910" lon="7.911951">
        <ele>416.190782</ele>
        <time>2021-11-08T21:03:03.062Z</time>
      </trkpt>
      <trkpt lat="47.620858" lon="7.912289">
        <ele>418.231760</ele>
        <time>2021-11-08T21:03:15.514Z</time>
      </trkpt>
      <trkpt lat="47.620822" lon="7.912670">
        <ele>420.496638</ele>
        <time>2021-11-08T21:03:28.750Z</time>
      </trkpt>
      <trkpt lat="47.620841" lon="7.913331">
        <ele>424.722783</ele>
        <time>2021-11-08T21:03:53.853Z</time>
      </trkpt>
      <trkpt lat="47.620869" lon="7.913635">
        <ele>426.806710</ele>
        <time>2021-11-08T21:04:05.379Z</time>
      </trkpt>
      <trkpt lat="47.621037" lon="7.914355">
        <ele>431.981595</ele>
        <time>2021-11-08T21:04:36.263Z</time>
      </trkpt>
      <trkpt lat="47.621530" lon="7.915222">
        <ele>439.685688</ele>
        <time>2021-11-08T21:05:16.353Z</time>
      </trkpt>
      <trkpt lat="47.621809" lon="7.915582">
        <ele>443.381200</ele>
        <time>2021-11-08T21:05:35.850Z</time>
      </trkpt>
      <trkpt lat="47.622393" lon="7.916077">
        <ele>450.091135</ele>
        <time>2021-11-08T21:06:11.842Z</time>
      </trkpt>
      <trkpt lat="47.622576" lon="7.916379">
        <ele>452.821852</ele>
        <time>2021-11-08T21:06:27.847Z</time>
      </trkpt>
      <trkpt lat="47.622647" lon="7.916647">
        <ele>454.758135</ele>
        <time>2021-11-08T21:06:39.406Z</time>
      </trkpt>
      <trkpt lat="47.622677" lon="7.917170">
        <ele>458.287580</ele>
        <time>2021-11-08T21:06:59.130Z</time>
      </trkpt>
      <trkpt lat="47.622656" lon="7.917625">
        <ele>461.276091</ele>
        <time>2021-11-08T21:07:15.680Z</time>
      </trkpt>
      <trkpt lat="47.622587" lon="7.917873">
        <ele>463.033954</ele>
        <time>2021-11-08T21:07:25.211Z</time>
      </trkpt>
      <trkpt lat="47.622424" lon="7.918069">
        <ele>465.073485</ele>
        <time>2021-11-08T21:07:36.767Z</time>
      </trkpt>
      <trkpt lat="47.622381" lon="7.918164">
        <ele>465.823245</ele>
        <time>2021-11-08T21:07:41.331Z</time>
      </trkpt>
      <trkpt lat="47.622366" lon="7.918470">
        <ele>467.833429</ele>
        <time>2021-11-08T21:07:51.663Z</time>
      </trkpt>
      <trkpt lat="47.622446" lon="7.918652">
        <ele>469.257047</ele>
        <time>2021-11-08T21:07:59.869Z</time>
      </trkpt>
      <trkpt lat="47.623010" lon="7.918947">
        <ele>475.070273</ele>
        <time>2021-11-08T21:08:29.885Z</time>
      </trkpt>
      <trkpt lat="47.623255" lon="7.919315">
        <ele>478.689802</ele>
        <time>2021-11-08T21:08:50.056Z</time>
      </trkpt>
      <trkpt lat="47.623430" lon="7.919875">
        <ele>483.083059</ele>
        <time>2021-11-08T21:09:13.218Z</time>
      </trkpt>
      <trkpt lat="47.623561" lon="7.920975">
        <ele>491.033349</ele>
        <time>2021-11-08T21:09:55.289Z</time>
      </trkpt>
      <trkpt lat="47.623588" lon="7.921368">
        <ele>493.844933</ele>
        <time>2021-11-08T21:10:11.735Z</time>
      </trkpt>
      <trkpt lat="47.623611" lon="7.921528">
        <ele>495.028748</ele>
        <time>2021-11-08T21:10:18.898Z</time>
      </trkpt>
      <trkpt lat="47.623626" lon="7.921633">
        <ele>495.857855</ele>
        <time>2021-11-08T21:10:23.814Z</time>
      </trkpt>
      <trkpt lat="47.623564" lon="7.921962">
        <ele>498.496733</ele>
        <time>2021-11-08T21:10:37.681Z</time>
      </trkpt>
      <trkpt lat="47.623298" lon="7.922501">
        <ele>503.657117</ele>
        <time>2021-11-08T21:11:06.052Z</time>
      </trkpt>
      <trkpt lat="47.623251" lon="7.922713">
        <ele>505.381068</ele>
        <time>2021-11-08T21:11:14.904Z</time>
      </trkpt>
      <trkpt lat="47.623227" lon="7.922954">
        <ele>507.262932</ele>
        <time>2021-11-08T21:11:26.142Z</time>
      </trkpt>
      <trkpt lat="47.623246" lon="7.923768">
        <ele>513.554607</ele>
        <time>2021-11-08T21:11:59.344Z</time>
      </trkpt>
      <trkpt lat="47.623206" lon="7.923969">
        <ele>515.173537</ele>
        <time>2021-11-08T21:12:08.003Z</time>
      </trkpt>
      <trkpt lat="47.623053" lon="7.924259">
        <ele>517.835814</ele>
        <time>2021-11-08T21:12:20.605Z</time>
      </trkpt>
      <trkpt lat="47.621723" lon="7.924936">
        <ele>532.829204</ele>
        <time>2021-11-08T21:13:38.004Z</time>
      </trkpt>
      <trkpt lat="47.621339" lon="7.925596">
        <ele>539.905973</ele>
        <time>2021-11-08T21:14:17.022Z</time>
      </trkpt>
      <trkpt lat="47.621290" lon="7.925709">
        <ele>541.044798</ele>
        <time>2021-11-08T21:14:23.848Z</time>
      </trkpt>
      <trkpt lat="47.621092" lon="7.926230">
        <ele>546.114150</ele>
        <time>2021-11-08T21:14:51.159Z</time>
      </trkpt>
      <trkpt lat="47.621008" lon="7.926716">
        <ele>550.366596</ele>
        <time>2021-11-08T21:15:13.599Z</time>
      </trkpt>
      <trkpt lat="47.621010" lon="7.926916">
        <ele>552.061917</ele>
        <time>2021-11-08T21:15:22.084Z</time>
      </trkpt>
      <trkpt lat="47.620993" lon="7.927078">
        <ele>553.451517</ele>
        <time>2021-11-08T21:15:29.396Z</time>
      </trkpt>
      <trkpt lat="47.620930" lon="7.927423">
        <ele>556.481038</ele>
        <time>2021-11-08T21:15:44.973Z</time>
      </trkpt>
      <trkpt lat="47.620873" lon="7.927631">
        <ele>558.078080</ele>
        <time>2021-11-08T21:15:55.466Z</time>
      </trkpt>
      <trkpt lat="47.620796" lon="7.927816">
        <ele>559.447859</ele>
        <time>2021-11-08T21:16:04.719Z</time>
      </trkpt>
      <trkpt lat="47.620384" lon="7.928242">
        <ele>564.141595</ele>
        <time>2021-11-08T21:16:34.892Z</time>
      </trkpt>
      <trkpt lat="47.619053" lon="7.929381">
        <ele>577.564355</ele>
        <time>2021-11-08T21:17:43.988Z</time>
      </trkpt>
      <trkpt lat="47.618861" lon="7.929607">
        <ele>579.377270</ele>
        <time>2021-11-08T21:17:53.983Z</time>
      </trkpt>
      <trkpt lat="47.618734" lon="7.929873">
        <ele>581.002514</ele>
        <time>2021-11-08T21:18:01.585Z</time>
      </trkpt>
      <trkpt lat="47.618733" lon="7.929945">
        <ele>581.361577</ele>
        <time>2021-11-08T21:18:04.585Z</time>
      </trkpt>
      <trkpt lat="47.618761" lon="7.930033">
        <ele>581.846764</ele>
        <time>2021-11-08T21:18:07.396Z</time>
      </trkpt>
      <trkpt lat="47.618921" lon="7.930073">
        <ele>583.046945</ele>
        <time>2021-11-08T21:18:13.408Z</time>
      </trkpt>
      <trkpt lat="47.619329" lon="7.929527">
        <ele>587.111262</ele>
        <time>2021-11-08T21:18:39.096Z</time>
      </trkpt>
      <trkpt lat="47.619604" lon="7.929315">
        <ele>590.123459</ele>
        <time>2021-11-08T21:18:55.175Z</time>
      </trkpt>
      <trkpt lat="47.619928" lon="7.929124">
        <ele>593.587857</ele>
        <time>2021-11-08T21:19:14.046Z</time>
      </trkpt>
      <trkpt lat="47.620569" lon="7.928919">
        <ele>600.103694</ele>
        <time>2021-11-08T21:19:49.245Z</time>
      </trkpt>
      <trkpt lat="47.620850" lon="7.928876">
        <ele>602.910764</ele>
        <time>2021-11-08T21:20:05.881Z</time>
      </trkpt>
      <trkpt lat="47.621861" lon="7.928723">
        <ele>612.875286</ele>
        <time>2021-11-08T21:21:08.349Z</time>
      </trkpt>
      <trkpt lat="47.622913" lon="7.928884">
        <ele>622.986161</ele>
        <time>2021-11-08T21:22:02.191Z</time>
      </trkpt>
      <trkpt lat="47.622990" lon="7.929067">
        <ele>623.727080</ele>
        <time>2021-11-08T21:22:06.894Z</time>
      </trkpt>
      <trkpt lat="47.622989" lon="7.929175">
        <ele>624.098035</ele>
        <time>2021-11-08T21:22:11.914Z</time>
      </trkpt>
      <trkpt lat="47.623083" lon="7.929217">
        <ele>624.598266</ele>
        <time>2021-11-08T21:22:15.308Z</time>
      </trkpt>
      <trkpt lat="47.623083" lon="7.929217">
        <ele>624.598266</ele>
        <time>2021-11-08T21:22:15.362Z</time>
      </trkpt>
      <trkpt lat="47.623083" lon="7.929217">
        <ele>624.598266</ele>
        <time>2021-11-08T21:22:15.366Z</time>
      </trkpt>
      <trkpt lat="47.622989" lon="7.929175">
        <ele>625.098498</ele>
        <time>2021-11-08T21:22:18.187Z</time>
      </trkpt>
      <trkpt lat="47.622967" lon="7.929237">
        <ele>625.339140</ele>
        <time>2021-11-08T21:22:19.412Z</time>
      </trkpt>
      <trkpt lat="47.622878" lon="7.929322">
        <ele>625.878481</ele>
        <time>2021-11-08T21:22:24.919Z</time>
      </trkpt>
      <trkpt lat="47.622516" lon="7.929178">
        <ele>627.788224</ele>
        <time>2021-11-08T21:22:37.975Z</time>
      </trkpt>
      <trkpt lat="47.622199" lon="7.929159">
        <ele>629.404836</ele>
        <time>2021-11-08T21:22:46.511Z</time>
      </trkpt>
      <trkpt lat="47.621561" lon="7.929312">
        <ele>632.937747</ele>
        <time>2021-11-08T21:23:03.882Z</time>
      </trkpt>
      <trkpt lat="47.621153" lon="7.929574">
        <ele>635.894828</ele>
        <time>2021-11-08T21:23:18.511Z</time>
      </trkpt>
      <trkpt lat="47.621014" lon="7.929789">
        <ele>637.230455</ele>
        <time>2021-11-08T21:23:26.243Z</time>
      </trkpt>
      <trkpt lat="47.620770" lon="7.930392">
        <ele>640.383619</ele>
        <time>2021-11-08T21:23:46.230Z</time>
      </trkpt>
      <trkpt lat="47.620633" lon="7.930854">
        <ele>642.646491</ele>
        <time>2021-11-08T21:24:03.280Z</time>
      </trkpt>
      <trkpt lat="47.620523" lon="7.931338">
        <ele>645.712902</ele>
        <time>2021-11-08T21:24:22.027Z</time>
      </trkpt>
      <trkpt lat="47.620440" lon="7.931519">
        <ele>647.413250</ele>
        <time>2021-11-08T21:24:31.706Z</time>
      </trkpt>
      <trkpt lat="47.620106" lon="7.931975">
        <ele>652.643704</ele>
        <time>2021-11-08T21:24:58.865Z</time>
      </trkpt>
      <trkpt lat="47.619818" lon="7.932353">
        <ele>657.074726</ele>
        <time>2021-11-08T21:25:24.326Z</time>
      </trkpt>
      <trkpt lat="47.619255" lon="7.933163">
        <ele>665.973049</ele>
        <time>2021-11-08T21:26:14.514Z</time>
      </trkpt>
      <trkpt lat="47.619096" lon="7.933469">
        <ele>668.697832</ele>
        <time>2021-11-08T21:26:29.411Z</time>
      </trkpt>
      <trkpt lat="47.618969" lon="7.933585">
        <ele>670.258221</ele>
        <time>2021-11-08T21:26:38.476Z</time>
      </trkpt>
      <trkpt lat="47.617581" lon="7.934210">
        <ele>685.242611</ele>
        <time>2021-11-08T21:27:58.139Z</time>
      </trkpt>
      <trkpt lat="47.617409" lon="7.934240">
        <ele>686.881902</ele>
        <time>2021-11-08T21:28:07.087Z</time>
      </trkpt>
      <trkpt lat="47.616878" lon="7.934048">
        <ele>692.055262</ele>
        <time>2021-11-08T21:28:35.451Z</time>
      </trkpt>
      <trkpt lat="47.616672" lon="7.934051">
        <ele>694.005262</ele>
        <time>2021-11-08T21:28:46.082Z</time>
      </trkpt>
      <trkpt lat="47.616262" lon="7.934487">
        <ele>698.780256</ele>
        <time>2021-11-08T21:29:12.841Z</time>
      </trkpt>
      <trkpt lat="47.615705" lon="7.935396">
        <ele>706.012970</ele>
        <time>2021-11-08T21:29:56.171Z</time>
      </trkpt>
      <trkpt lat="47.615451" lon="7.935602">
        <ele>708.484257</ele>
        <time>2021-11-08T21:30:11.512Z</time>
      </trkpt>
      <trkpt lat="47.615166" lon="7.935713">
        <ele>710.999743</ele>
        <time>2021-11-08T21:30:26.523Z</time>
      </trkpt>
      <trkpt lat="47.614095" lon="7.935725">
        <ele>718.468597</ele>
        <time>2021-11-08T21:31:12.592Z</time>
      </trkpt>
      <trkpt lat="47.613843" lon="7.935758">
        <ele>719.795383</ele>
        <time>2021-11-08T21:31:21.853Z</time>
      </trkpt>
      <trkpt lat="47.613611" lon="7.935811">
        <ele>721.026480</ele>
        <time>2021-11-08T21:31:29.542Z</time>
      </trkpt>
      <trkpt lat="47.612760" lon="7.936192">
        <ele>725.690835</ele>
        <time>2021-11-08T21:31:57.206Z</time>
      </trkpt>
      <trkpt lat="47.612157" lon="7.936591">
        <ele>729.171480</ele>
        <time>2021-11-08T21:32:17.883Z</time>
      </trkpt>
      <trkpt lat="47.611668" lon="7.937036">
        <ele>732.195692</ele>
        <time>2021-11-08T21:32:38.897Z</time>
      </trkpt>
      <trkpt lat="47.610663" lon="7.939057">
        <ele>741.785786</ele>
        <time>2021-11-08T21:33:49.868Z</time>
      </trkpt>
      <trkpt lat="47.610427" lon="7.939448">
        <ele>743.844621</ele>
        <time>2021-11-08T21:34:02.614Z</time>
      </trkpt>
      <trkpt lat="47.609697" lon="7.940207">
        <ele>748.533609</ele>
        <time>2021-11-08T21:34:27.181Z</time>
      </trkpt>
      <trkpt lat="47.609156" lon="7.940638">
        <ele>751.644275</ele>
        <time>2021-11-08T21:34:46.161Z</time>
      </trkpt>
      <trkpt lat="47.608986" lon="7.941047">
        <ele>753.285147</ele>
        <time>2021-11-08T21:35:01.064Z</time>
      </trkpt>
      <trkpt lat="47.608976" lon="7.941180">
        <ele>753.742165</ele>
        <time>2021-11-08T21:35:02.318Z</time>
      </trkpt>
      <trkpt lat="47.608985" lon="7.941282">
        <ele>754.093471</ele>
        <time>2021-11-08T21:35:06.674Z</time>
      </trkpt>
      <trkpt lat="47.609231" lon="7.941717">
        <ele>757.862465</ele>
        <time>2021-11-08T21:35:24.325Z</time>
      </trkpt>
      <trkpt lat="47.609328" lon="7.941802">
        <ele>759.033670</ele>
        <time>2021-11-08T21:35:31.771Z</time>
      </trkpt>
      <trkpt lat="47.609660" lon="7.942072">
        <ele>762.969750</ele>
        <time>2021-11-08T21:35:52.788Z</time>
      </trkpt>
      <trkpt lat="47.609824" lon="7.942206">
        <ele>764.916191</ele>
        <time>2021-11-08T21:36:02.466Z</time>
      </trkpt>
      <trkpt lat="47.609950" lon="7.942351">
        <ele>766.574035</ele>
        <time>2021-11-08T21:36:14.831Z</time>
      </trkpt>
      <trkpt lat="47.610075" lon="7.942547">
        <ele>768.464945</ele>
        <time>2021-11-08T21:36:23.799Z</time>
      </trkpt>
      <trkpt lat="47.610065" lon="7.942722">
        <ele>769.695825</ele>
        <time>2021-11-08T21:36:33.431Z</time>
      </trkpt>
      <trkpt lat="47.610014" lon="7.942918">
        <ele>771.168250</ele>
        <time>2021-11-08T21:36:42.533Z</time>
      </trkpt>
      <trkpt lat="47.609814" lon="7.943160">
        <ele>773.659204</ele>
        <time>2021-11-08T21:36:59.781Z</time>
      </trkpt>
      <trkpt lat="47.609350" lon="7.943593">
        <ele>778.084290</ele>
        <time>2021-11-08T21:37:31.124Z</time>
      </trkpt>
      <trkpt lat="47.609294" lon="7.943637">
        <ele>778.595836</ele>
        <time>2021-11-08T21:37:35.178Z</time>
      </trkpt>
      <trkpt lat="47.608484" lon="7.944152">
        <ele>785.709666</ele>
        <time>2021-11-08T21:38:12.088Z</time>
      </trkpt>
      <trkpt lat="47.607934" lon="7.944298">
        <ele>788.616917</ele>
        <time>2021-11-08T21:38:30.561Z</time>
      </trkpt>
      <trkpt lat="47.607673" lon="7.944452">
        <ele>789.542912</ele>
        <time>2021-11-08T21:38:36.607Z</time>
      </trkpt>
      <trkpt lat="47.607532" lon="7.944721">
        <ele>790.300220</ele>
        <time>2021-11-08T21:38:41.802Z</time>
      </trkpt>
      <trkpt lat="47.607219" lon="7.945696">
        <ele>792.700369</ele>
        <time>2021-11-08T21:39:00.274Z</time>
      </trkpt>
      <trkpt lat="47.607053" lon="7.946387">
        <ele>794.461157</ele>
        <time>2021-11-08T21:39:15.046Z</time>
      </trkpt>
      <trkpt lat="47.607026" lon="7.946800">
        <ele>795.518359</ele>
        <time>2021-11-08T21:39:23.739Z</time>
      </trkpt>
      <trkpt lat="47.607053" lon="7.947037">
        <ele>796.130762</ele>
        <time>2021-11-08T21:39:28.902Z</time>
      </trkpt>
      <trkpt lat="47.607177" lon="7.947456">
        <ele>797.296632</ele>
        <time>2021-11-08T21:39:38.833Z</time>
      </trkpt>
      <trkpt lat="47.607428" lon="7.947861">
        <ele>798.698236</ele>
        <time>2021-11-08T21:39:50.531Z</time>
      </trkpt>
      <trkpt lat="47.608258" lon="7.949098">
        <ele>801.872036</ele>
        <time>2021-11-08T21:40:23.277Z</time>
      </trkpt>
      <trkpt lat="47.608598" lon="7.949608">
        <ele>802.899609</ele>
        <time>2021-11-08T21:40:34.337Z</time>
      </trkpt>
      <trkpt lat="47.608814" lon="7.949946">
        <ele>803.566830</ele>
        <time>2021-11-08T21:40:40.514Z</time>
      </trkpt>
      <trkpt lat="47.608916" lon="7.950126">
        <ele>803.903706</ele>
        <time>2021-11-08T21:40:43.164Z</time>
      </trkpt>
      <trkpt lat="47.609119" lon="7.950532">
        <ele>803.877436</ele>
        <time>2021-11-08T21:40:48.922Z</time>
      </trkpt>
      <trkpt lat="47.609390" lon="7.951204">
        <ele>803.519147</ele>
        <time>2021-11-08T21:40:56.202Z</time>
      </trkpt>
      <trkpt lat="47.609848" lon="7.952864">
        <ele>802.408917</ele>
        <time>2021-11-08T21:41:10.486Z</time>
      </trkpt>
      <trkpt lat="47.609991" lon="7.953325">
        <ele>801.696239</ele>
        <time>2021-11-08T21:41:14.230Z</time>
      </trkpt>
      <trkpt lat="47.610173" lon="7.953576">
        <ele>801.178548</ele>
        <time>2021-11-08T21:41:16.895Z</time>
      </trkpt>
      <trkpt lat="47.610442" lon="7.953689">
        <ele>800.596141</ele>
        <time>2021-11-08T21:41:20.086Z</time>
      </trkpt>
      <trkpt lat="47.610534" lon="7.953698">
        <ele>800.404074</ele>
        <time>2021-11-08T21:41:20.993Z</time>
      </trkpt>
      <trkpt lat="47.610622" lon="7.953678">
        <ele>800.218617</ele>
        <time>2021-11-08T21:41:22.030Z</time>
      </trkpt>
      <trkpt lat="47.610867" lon="7.953623">
        <ele>799.702431</ele>
        <time>2021-11-08T21:41:24.672Z</time>
      </trkpt>
      <trkpt lat="47.611213" lon="7.953569">
        <ele>798.999670</ele>
        <time>2021-11-08T21:41:28.233Z</time>
      </trkpt>
      <trkpt lat="47.611379" lon="7.953732">
        <ele>798.665069</ele>
        <time>2021-11-08T21:41:30.347Z</time>
      </trkpt>
      <trkpt lat="47.611583" lon="7.954201">
        <ele>798.032633</ele>
        <time>2021-11-08T21:41:34.379Z</time>
      </trkpt>
      <trkpt lat="47.611609" lon="7.954585">
        <ele>797.595335</ele>
        <time>2021-11-08T21:41:37.191Z</time>
      </trkpt>
      <trkpt lat="47.611563" lon="7.954771">
        <ele>797.370845</ele>
        <time>2021-11-08T21:41:38.676Z</time>
      </trkpt>
      <trkpt lat="47.611466" lon="7.955017">
        <ele>797.047924</ele>
        <time>2021-11-08T21:41:41.013Z</time>
      </trkpt>
      <trkpt lat="47.611423" lon="7.955105">
        <ele>796.924774</ele>
        <time>2021-11-08T21:41:41.937Z</time>
      </trkpt>
      <trkpt lat="47.611344" lon="7.955262">
        <ele>796.702787</ele>
        <time>2021-11-08T21:41:43.391Z</time>
      </trkpt>
      <trkpt lat="47.611237" lon="7.955554">
        <ele>796.326203</ele>
        <time>2021-11-08T21:41:46.346Z</time>
      </trkpt>
      <trkpt lat="47.611226" lon="7.955624">
        <ele>796.244759</ele>
        <time>2021-11-08T21:41:46.890Z</time>
      </trkpt>
      <trkpt lat="47.611155" lon="7.956085">
        <ele>796.157461</ele>
        <time>2021-11-08T21:41:50.942Z</time>
      </trkpt>
      <trkpt lat="47.611164" lon="7.956405">
        <ele>796.247355</ele>
        <time>2021-11-08T21:41:53.914Z</time>
      </trkpt>
      <trkpt lat="47.611301" lon="7.956962">
        <ele>796.413771</ele>
        <time>2021-11-08T21:42:00.541Z</time>
      </trkpt>
      <trkpt lat="47.611408" lon="7.957164">
        <ele>796.485875</ele>
        <time>2021-11-08T21:42:03.164Z</time>
      </trkpt>
      <trkpt lat="47.611538" lon="7.957308">
        <ele>796.553424</ele>
        <time>2021-11-08T21:42:06.007Z</time>
      </trkpt>
      <trkpt lat="47.611743" lon="7.957534">
        <ele>796.659764</ele>
        <time>2021-11-08T21:42:10.843Z</time>
      </trkpt>
      <trkpt lat="47.611972" lon="7.957626">
        <ele>796.758539</ele>
        <time>2021-11-08T21:42:16.070Z</time>
      </trkpt>
      <trkpt lat="47.612102" lon="7.957603">
        <ele>796.813046</ele>
        <time>2021-11-08T21:42:18.262Z</time>
      </trkpt>
      <trkpt lat="47.612270" lon="7.957550">
        <ele>796.821860</ele>
        <time>2021-11-08T21:42:22.274Z</time>
      </trkpt>
      <trkpt lat="47.612291" lon="7.957543">
        <ele>796.822473</ele>
        <time>2021-11-08T21:42:22.756Z</time>
      </trkpt>
      <trkpt lat="47.612391" lon="7.957530">
        <ele>796.825333</ele>
        <time>2021-11-08T21:42:24.540Z</time>
      </trkpt>
      <trkpt lat="47.612456" lon="7.957566">
        <ele>796.827310</ele>
        <time>2021-11-08T21:42:25.608Z</time>
      </trkpt>
      <trkpt lat="47.612517" lon="7.957628">
        <ele>796.829416</ele>
        <time>2021-11-08T21:42:27.356Z</time>
      </trkpt>
      <trkpt lat="47.612606" lon="7.957836">
        <ele>796.834148</ele>
        <time>2021-11-08T21:42:30.802Z</time>
      </trkpt>
      <trkpt lat="47.612661" lon="7.957964">
        <ele>796.837063</ele>
        <time>2021-11-08T21:42:32.472Z</time>
      </trkpt>
      <trkpt lat="47.612719" lon="7.958171">
        <ele>796.841368</ele>
        <time>2021-11-08T21:42:35.689Z</time>
      </trkpt>
      <trkpt lat="47.612728" lon="7.958409">
        <ele>796.845946</ele>
        <time>2021-11-08T21:42:38.435Z</time>
      </trkpt>
      <trkpt lat="47.612741" lon="7.958660">
        <ele>796.850781</ele>
        <time>2021-11-08T21:42:41.268Z</time>
      </trkpt>
      <trkpt lat="47.612659" lon="7.959516">
        <ele>796.867386</ele>
        <time>2021-11-08T21:42:48.449Z</time>
      </trkpt>
      <trkpt lat="47.612685" lon="7.959801">
        <ele>796.194570</ele>
        <time>2021-11-08T21:42:50.402Z</time>
      </trkpt>
      <trkpt lat="47.612766" lon="7.960065">
        <ele>795.343926</ele>
        <time>2021-11-08T21:42:52.474Z</time>
      </trkpt>
      <trkpt lat="47.612881" lon="7.960311">
        <ele>794.465999</ele>
        <time>2021-11-08T21:42:54.448Z</time>
      </trkpt>
      <trkpt lat="47.613021" lon="7.960583">
        <ele>793.462390</ele>
        <time>2021-11-08T21:42:56.678Z</time>
      </trkpt>
      <trkpt lat="47.613138" lon="7.960868">
        <ele>792.483800</ele>
        <time>2021-11-08T21:42:58.775Z</time>
      </trkpt>
      <trkpt lat="47.613215" lon="7.961187">
        <ele>791.490120</ele>
        <time>2021-11-08T21:43:00.898Z</time>
      </trkpt>
      <trkpt lat="47.613369" lon="7.961915">
        <ele>789.252504</ele>
        <time>2021-11-08T21:43:05.677Z</time>
      </trkpt>
      <trkpt lat="47.613502" lon="7.962714">
        <ele>787.069645</ele>
        <time>2021-11-08T21:43:10.790Z</time>
      </trkpt>
      <trkpt lat="47.613521" lon="7.962842">
        <ele>786.725490</ele>
        <time>2021-11-08T21:43:11.612Z</time>
      </trkpt>
      <trkpt lat="47.613742" lon="7.963873">
        <ele>783.884725</ele>
        <time>2021-11-08T21:43:18.870Z</time>
      </trkpt>
      <trkpt lat="47.613879" lon="7.964086">
        <ele>783.111698</ele>
        <time>2021-11-08T21:43:20.945Z</time>
      </trkpt>
      <trkpt lat="47.614053" lon="7.964220">
        <ele>782.348058</ele>
        <time>2021-11-08T21:43:22.963Z</time>
      </trkpt>
      <trkpt lat="47.614181" lon="7.964246">
        <ele>781.927865</ele>
        <time>2021-11-08T21:43:24.339Z</time>
      </trkpt>
      <trkpt lat="47.614338" lon="7.964238">
        <ele>781.579005</ele>
        <time>2021-11-08T21:43:26.176Z</time>
      </trkpt>
      <trkpt lat="47.614483" lon="7.964169">
        <ele>781.240838</ele>
        <time>2021-11-08T21:43:27.839Z</time>
      </trkpt>
      <trkpt lat="47.614633" lon="7.964032">
        <ele>780.849655</ele>
        <time>2021-11-08T21:43:30.704Z</time>
      </trkpt>
      <trkpt lat="47.614910" lon="7.963756">
        <ele>780.108633</ele>
        <time>2021-11-08T21:43:34.354Z</time>
      </trkpt>
      <trkpt lat="47.615156" lon="7.963615">
        <ele>779.522975</ele>
        <time>2021-11-08T21:43:37.080Z</time>
      </trkpt>
      <trkpt lat="47.615240" lon="7.963619">
        <ele>779.336338</ele>
        <time>2021-11-08T21:43:38.387Z</time>
      </trkpt>
      <trkpt lat="47.615296" lon="7.963621">
        <ele>779.211941</ele>
        <time>2021-11-08T21:43:39.093Z</time>
      </trkpt>
      <trkpt lat="47.615426" lon="7.963657">
        <ele>778.918260</ele>
        <time>2021-11-08T21:43:40.410Z</time>
      </trkpt>
      <trkpt lat="47.615674" lon="7.963901">
        <ele>778.257402</ele>
        <time>2021-11-08T21:43:43.680Z</time>
      </trkpt>
      <trkpt lat="47.615816" lon="7.964301">
        <ele>777.202938</ele>
        <time>2021-11-08T21:43:46.879Z</time>
      </trkpt>
      <trkpt lat="47.615832" lon="7.964368">
        <ele>777.009738</ele>
        <time>2021-11-08T21:43:47.332Z</time>
      </trkpt>
      <trkpt lat="47.615837" lon="7.964647">
        <ele>776.251130</ele>
        <time>2021-11-08T21:43:49.163Z</time>
      </trkpt>
      <trkpt lat="47.615704" lon="7.965149">
        <ele>774.785057</ele>
        <time>2021-11-08T21:43:52.695Z</time>
      </trkpt>
      <trkpt lat="47.614987" lon="7.966716">
        <ele>769.584813</ele>
        <time>2021-11-08T21:44:04.903Z</time>
      </trkpt>
      <trkpt lat="47.614229" lon="7.967867">
        <ele>765.012163</ele>
        <time>2021-11-08T21:44:15.497Z</time>
      </trkpt>
      <trkpt lat="47.613876" lon="7.968615">
        <ele>762.487085</ele>
        <time>2021-11-08T21:44:21.373Z</time>
      </trkpt>
      <trkpt lat="47.613713" lon="7.969291">
        <ele>760.626461</ele>
        <time>2021-11-08T21:44:26.116Z</time>
      </trkpt>
      <trkpt lat="47.613651" lon="7.969763">
        <ele>759.380213</ele>
        <time>2021-11-08T21:44:29.334Z</time>
      </trkpt>
      <trkpt lat="47.613603" lon="7.970296">
        <ele>757.986610</ele>
        <time>2021-11-08T21:44:32.926Z</time>
      </trkpt>
      <trkpt lat="47.613544" lon="7.970739">
        <ele>756.816332</ele>
        <time>2021-11-08T21:44:35.958Z</time>
      </trkpt>
      <trkpt lat="47.613448" lon="7.971306">
        <ele>755.409176</ele>
        <time>2021-11-08T21:44:39.878Z</time>
      </trkpt>
      <trkpt lat="47.613371" lon="7.971800">
        <ele>754.237953</ele>
        <time>2021-11-08T21:44:43.255Z</time>
      </trkpt>
      <trkpt lat="47.613340" lon="7.973232">
        <ele>750.928391</ele>
        <time>2021-11-08T21:44:52.721Z</time>
      </trkpt>
      <trkpt lat="47.612922" lon="7.974981">
        <ele>748.853850</ele>
        <time>2021-11-08T21:45:06.657Z</time>
      </trkpt>
      <trkpt lat="47.612866" lon="7.975328">
        <ele>748.552138</ele>
        <time>2021-11-08T21:45:09.303Z</time>
      </trkpt>
      <trkpt lat="47.612717" lon="7.975295">
        <ele>748.363170</ele>
        <time>2021-11-08T21:45:12.431Z</time>
      </trkpt>
      <trkpt lat="47.612535" lon="7.975326">
        <ele>748.133381</ele>
        <time>2021-11-08T21:45:14.529Z</time>
      </trkpt>
      <trkpt lat="47.612357" lon="7.975517">
        <ele>747.870086</ele>
        <time>2021-11-08T21:45:18.485Z</time>
      </trkpt>
      <trkpt lat="47.612223" lon="7.975718">
        <ele>747.801485</ele>
        <time>2021-11-08T21:45:21.332Z</time>
      </trkpt>
      <trkpt lat="47.612133" lon="7.975906">
        <ele>747.745529</ele>
        <time>2021-11-08T21:45:24.517Z</time>
      </trkpt>
      <trkpt lat="47.611876" lon="7.976376">
        <ele>747.598667</ele>
        <time>2021-11-08T21:45:32.199Z</time>
      </trkpt>
      <trkpt lat="47.611711" lon="7.976600">
        <ele>747.518150</ele>
        <time>2021-11-08T21:45:37.072Z</time>
      </trkpt>
      <trkpt lat="47.611588" lon="7.976702">
        <ele>747.467423</ele>
        <time>2021-11-08T21:45:40.760Z</time>
      </trkpt>
      <trkpt lat="47.611447" lon="7.976782">
        <ele>747.413080</ele>
        <time>2021-11-08T21:45:44.231Z</time>
      </trkpt>
      <trkpt lat="47.611343" lon="7.976840">
        <ele>747.373083</ele>
        <time>2021-11-08T21:45:45.551Z</time>
      </trkpt>
      <trkpt lat="47.610048" lon="7.976910">
        <ele>741.596227</ele>
        <time>2021-11-08T21:45:58.078Z</time>
      </trkpt>
      <trkpt lat="47.609956" lon="7.976908">
        <ele>741.015083</ele>
        <time>2021-11-08T21:45:58.911Z</time>
      </trkpt>
      <trkpt lat="47.609734" lon="7.976902">
        <ele>739.612674</ele>
        <time>2021-11-08T21:46:00.888Z</time>
      </trkpt>
      <trkpt lat="47.609554" lon="7.976848">
        <ele>738.452754</ele>
        <time>2021-11-08T21:46:02.490Z</time>
      </trkpt>
      <trkpt lat="47.609405" lon="7.976774">
        <ele>737.460302</ele>
        <time>2021-11-08T21:46:03.895Z</time>
      </trkpt>
      <trkpt lat="47.609225" lon="7.976647">
        <ele>736.201335</ele>
        <time>2021-11-08T21:46:05.612Z</time>
      </trkpt>
      <trkpt lat="47.609083" lon="7.976509">
        <ele>734.888086</ele>
        <time>2021-11-08T21:46:07.086Z</time>
      </trkpt>
      <trkpt lat="47.609057" lon="7.976492">
        <ele>734.650018</ele>
        <time>2021-11-08T21:46:07.322Z</time>
      </trkpt>
      <trkpt lat="47.608829" lon="7.976172">
        <ele>732.020063</ele>
        <time>2021-11-08T21:46:10.066Z</time>
      </trkpt>
      <trkpt lat="47.608764" lon="7.976082">
        <ele>731.275046</ele>
        <time>2021-11-08T21:46:10.804Z</time>
      </trkpt>
      <trkpt lat="47.608361" lon="7.975503">
        <ele>726.574179</ele>
        <time>2021-11-08T21:46:15.691Z</time>
      </trkpt>
      <trkpt lat="47.608085" lon="7.975248">
        <ele>723.849763</ele>
        <time>2021-11-08T21:46:18.526Z</time>
      </trkpt>
      <trkpt lat="47.607949" lon="7.975198">
        <ele>722.675798</ele>
        <time>2021-11-08T21:46:19.753Z</time>
      </trkpt>
      <trkpt lat="47.607811" lon="7.975152">
        <ele>721.490719</ele>
        <time>2021-11-08T21:46:21.035Z</time>
      </trkpt>
      <trkpt lat="47.607703" lon="7.975163">
        <ele>720.725780</ele>
        <time>2021-11-08T21:46:22.072Z</time>
      </trkpt>
      <trkpt lat="47.607293" lon="7.975219">
        <ele>719.572861</ele>
        <time>2021-11-08T21:46:26.091Z</time>
      </trkpt>
      <trkpt lat="47.607002" lon="7.975117">
        <ele>718.735573</ele>
        <time>2021-11-08T21:46:29.440Z</time>
      </trkpt>
      <trkpt lat="47.606836" lon="7.974966">
        <ele>718.190295</ele>
        <time>2021-11-08T21:46:31.559Z</time>
      </trkpt>
      <trkpt lat="47.606683" lon="7.974772">
        <ele>717.626657</ele>
        <time>2021-11-08T21:46:33.860Z</time>
      </trkpt>
      <trkpt lat="47.606512" lon="7.974504">
        <ele>716.930045</ele>
        <time>2021-11-08T21:46:36.748Z</time>
      </trkpt>
      <trkpt lat="47.606402" lon="7.974261">
        <ele>716.377471</ele>
        <time>2021-11-08T21:46:39.075Z</time>
      </trkpt>
      <trkpt lat="47.606300" lon="7.973918">
        <ele>715.691949</ele>
        <time>2021-11-08T21:46:41.921Z</time>
      </trkpt>
      <trkpt lat="47.606116" lon="7.973296">
        <ele>714.723117</ele>
        <time>2021-11-08T21:46:47.110Z</time>
      </trkpt>
      <trkpt lat="47.606058" lon="7.973155">
        <ele>714.487525</ele>
        <time>2021-11-08T21:46:48.155Z</time>
      </trkpt>
      <trkpt lat="47.605981" lon="7.973005">
        <ele>714.218616</ele>
        <time>2021-11-08T21:46:49.637Z</time>
      </trkpt>
      <trkpt lat="47.605871" lon="7.972904">
        <ele>713.944922</ele>
        <time>2021-11-08T21:46:51.105Z</time>
      </trkpt>
      <trkpt lat="47.605644" lon="7.972831">
        <ele>713.453532</ele>
        <time>2021-11-08T21:46:53.592Z</time>
      </trkpt>
      <trkpt lat="47.605516" lon="7.972819">
        <ele>713.182201</ele>
        <time>2021-11-08T21:46:55.062Z</time>
      </trkpt>
      <trkpt lat="47.605374" lon="7.972905">
        <ele>712.857712</ele>
        <time>2021-11-08T21:46:56.580Z</time>
      </trkpt>
      <trkpt lat="47.604923" lon="7.973403">
        <ele>711.757620</ele>
        <time>2021-11-08T21:47:02.887Z</time>
      </trkpt>
      <trkpt lat="47.604857" lon="7.973536">
        <ele>711.595376</ele>
        <time>2021-11-08T21:47:03.955Z</time>
      </trkpt>
      <trkpt lat="47.604839" lon="7.973573">
        <ele>711.550551</ele>
        <time>2021-11-08T21:47:04.288Z</time>
      </trkpt>
      <trkpt lat="47.604831" lon="7.973588">
        <ele>711.531761</ele>
        <time>2021-11-08T21:47:04.424Z</time>
      </trkpt>
      <trkpt lat="47.604760" lon="7.973795">
        <ele>711.303587</ele>
        <time>2021-11-08T21:47:06.256Z</time>
      </trkpt>
      <trkpt lat="47.604708" lon="7.974012">
        <ele>711.077327</ele>
        <time>2021-11-08T21:47:07.809Z</time>
      </trkpt>
      <trkpt lat="47.604645" lon="7.974490">
        <ele>710.598819</ele>
        <time>2021-11-08T21:47:11.407Z</time>
      </trkpt>
      <trkpt lat="47.604722" lon="7.975230">
        <ele>709.863185</ele>
        <time>2021-11-08T21:47:17.419Z</time>
      </trkpt>
      <trkpt lat="47.604837" lon="7.975632">
        <ele>709.434154</ele>
        <time>2021-11-08T21:47:21.262Z</time>
      </trkpt>
      <trkpt lat="47.604916" lon="7.975943">
        <ele>709.647146</ele>
        <time>2021-11-08T21:47:24.824Z</time>
      </trkpt>
      <trkpt lat="47.605029" lon="7.976646">
        <ele>710.624831</ele>
        <time>2021-11-08T21:47:33.454Z</time>
      </trkpt>
      <trkpt lat="47.605075" lon="7.977483">
        <ele>711.760895</ele>
        <time>2021-11-08T21:47:45.562Z</time>
      </trkpt>
      <trkpt lat="47.604988" lon="7.978584">
        <ele>713.829261</ele>
        <time>2021-11-08T21:48:08.400Z</time>
      </trkpt>
      <trkpt lat="47.604918" lon="7.978996">
        <ele>715.435071</ele>
        <time>2021-11-08T21:48:18.190Z</time>
      </trkpt>
      <trkpt lat="47.604776" lon="7.979454">
        <ele>717.340304</ele>
        <time>2021-11-08T21:48:30.723Z</time>
      </trkpt>
      <trkpt lat="47.604731" lon="7.979649">
        <ele>718.119272</ele>
        <time>2021-11-08T21:48:37.076Z</time>
      </trkpt>
      <trkpt lat="47.604684" lon="7.980290">
        <ele>720.556192</ele>
        <time>2021-11-08T21:48:53.299Z</time>
      </trkpt>
      <trkpt lat="47.604707" lon="7.980526">
        <ele>721.457415</ele>
        <time>2021-11-08T21:48:59.715Z</time>
      </trkpt>
      <trkpt lat="47.604737" lon="7.980685">
        <ele>722.081436</ele>
        <time>2021-11-08T21:49:05.157Z</time>
      </trkpt>
      <trkpt lat="47.604742" lon="7.981251">
        <ele>723.933836</ele>
        <time>2021-11-08T21:49:20.934Z</time>
      </trkpt>
      <trkpt lat="47.604541" lon="7.981767">
        <ele>725.645274</ele>
        <time>2021-11-08T21:49:36.559Z</time>
      </trkpt>
      <trkpt lat="47.603580" lon="7.982596">
        <ele>730.380640</ele>
        <time>2021-11-08T21:50:09.935Z</time>
      </trkpt>
      <trkpt lat="47.602904" lon="7.983364">
        <ele>729.117774</ele>
        <time>2021-11-08T21:50:25.353Z</time>
      </trkpt>
      <trkpt lat="47.602721" lon="7.983621">
        <ele>728.610488</ele>
        <time>2021-11-08T21:50:28.274Z</time>
      </trkpt>
      <trkpt lat="47.602644" lon="7.983742">
        <ele>728.384679</ele>
        <time>2021-11-08T21:50:29.278Z</time>
      </trkpt>
      <trkpt lat="47.602182" lon="7.984530">
        <ele>726.692632</ele>
        <time>2021-11-08T21:50:35.952Z</time>
      </trkpt>
      <trkpt lat="47.602072" lon="7.984743">
        <ele>725.319629</ele>
        <time>2021-11-08T21:50:37.631Z</time>
      </trkpt>
      <trkpt lat="47.601944" lon="7.984990">
        <ele>723.725421</ele>
        <time>2021-11-08T21:50:39.461Z</time>
      </trkpt>
      <trkpt lat="47.601786" lon="7.985227">
        <ele>722.019847</ele>
        <time>2021-11-08T21:50:41.520Z</time>
      </trkpt>
      <trkpt lat="47.601702" lon="7.985353">
        <ele>721.113085</ele>
        <time>2021-11-08T21:50:42.531Z</time>
      </trkpt>
      <trkpt lat="47.601244" lon="7.985812">
        <ele>716.917798</ele>
        <time>2021-11-08T21:50:47.421Z</time>
      </trkpt>
      <trkpt lat="47.600959" lon="7.986011">
        <ele>714.527010</ele>
        <time>2021-11-08T21:50:50.158Z</time>
      </trkpt>
      <trkpt lat="47.600869" lon="7.986065">
        <ele>713.790161</ele>
        <time>2021-11-08T21:50:51.025Z</time>
      </trkpt>
      <trkpt lat="47.600674" lon="7.986173">
        <ele>712.360472</ele>
        <time>2021-11-08T21:50:52.820Z</time>
      </trkpt>
      <trkpt lat="47.599584" lon="7.986808">
        <ele>704.579422</ele>
        <time>2021-11-08T21:51:03.460Z</time>
      </trkpt>
      <trkpt lat="47.598970" lon="7.987189">
        <ele>700.204025</ele>
        <time>2021-11-08T21:51:09.640Z</time>
      </trkpt>
      <trkpt lat="47.598718" lon="7.987384">
        <ele>698.383211</ele>
        <time>2021-11-08T21:51:12.243Z</time>
      </trkpt>
      <trkpt lat="47.598468" lon="7.987626">
        <ele>696.470777</ele>
        <time>2021-11-08T21:51:14.979Z</time>
      </trkpt>
      <trkpt lat="47.598432" lon="7.987661">
        <ele>696.195026</ele>
        <time>2021-11-08T21:51:15.377Z</time>
      </trkpt>
      <trkpt lat="47.598168" lon="7.987924">
        <ele>694.157729</ele>
        <time>2021-11-08T21:51:18.260Z</time>
      </trkpt>
      <trkpt lat="47.597809" lon="7.988272">
        <ele>691.410311</ele>
        <time>2021-11-08T21:51:22.121Z</time>
      </trkpt>
      <trkpt lat="47.597197" lon="7.988790">
        <ele>687.257148</ele>
        <time>2021-11-08T21:51:28.428Z</time>
      </trkpt>
      <trkpt lat="47.596445" lon="7.989273">
        <ele>682.629242</ele>
        <time>2021-11-08T21:51:35.960Z</time>
      </trkpt>
      <trkpt lat="47.595940" lon="7.989500">
        <ele>679.726344</ele>
        <time>2021-11-08T21:51:41.075Z</time>
      </trkpt>
      <trkpt lat="47.595627" lon="7.989468">
        <ele>678.954722</ele>
        <time>2021-11-08T21:51:44.208Z</time>
      </trkpt>
      <trkpt lat="47.595392" lon="7.989263">
        <ele>678.284171</ele>
        <time>2021-11-08T21:51:47.011Z</time>
      </trkpt>
      <trkpt lat="47.595288" lon="7.989057">
        <ele>677.857378</ele>
        <time>2021-11-08T21:51:48.874Z</time>
      </trkpt>
      <trkpt lat="47.595231" lon="7.988803">
        <ele>677.413397</ele>
        <time>2021-11-08T21:51:50.839Z</time>
      </trkpt>
      <trkpt lat="47.595279" lon="7.987696">
        <ele>675.573606</ele>
        <time>2021-11-08T21:51:59.398Z</time>
      </trkpt>
      <trkpt lat="47.595223" lon="7.987252">
        <ele>674.702358</ele>
        <time>2021-11-08T21:52:02.872Z</time>
      </trkpt>
      <trkpt lat="47.595069" lon="7.987007">
        <ele>674.020758</ele>
        <time>2021-11-08T21:52:05.409Z</time>
      </trkpt>
      <trkpt lat="47.594863" lon="7.986909">
        <ele>673.367889</ele>
        <time>2021-11-08T21:52:07.809Z</time>
      </trkpt>
      <trkpt lat="47.594655" lon="7.986957">
        <ele>672.732636</ele>
        <time>2021-11-08T21:52:10.046Z</time>
      </trkpt>
      <trkpt lat="47.594497" lon="7.987070">
        <ele>672.203268</ele>
        <time>2021-11-08T21:52:11.870Z</time>
      </trkpt>
      <trkpt lat="47.593485" lon="7.987901">
        <ele>668.148161</ele>
        <time>2021-11-08T21:52:23.041Z</time>
      </trkpt>
      <trkpt lat="47.592751" lon="7.988147">
        <ele>664.828915</ele>
        <time>2021-11-08T21:52:29.982Z</time>
      </trkpt>
      <trkpt lat="47.592324" lon="7.988430">
        <ele>662.765897</ele>
        <time>2021-11-08T21:52:34.549Z</time>
      </trkpt>
      <trkpt lat="47.592119" lon="7.988433">
        <ele>661.978659</ele>
        <time>2021-11-08T21:52:36.531Z</time>
      </trkpt>
      <trkpt lat="47.591971" lon="7.988287">
        <ele>661.854269</ele>
        <time>2021-11-08T21:52:38.750Z</time>
      </trkpt>
      <trkpt lat="47.591910" lon="7.988145">
        <ele>661.774816</ele>
        <time>2021-11-08T21:52:40.233Z</time>
      </trkpt>
      <trkpt lat="47.591874" lon="7.987958">
        <ele>661.683042</ele>
        <time>2021-11-08T21:52:41.518Z</time>
      </trkpt>
      <trkpt lat="47.591872" lon="7.987834">
        <ele>661.624507</ele>
        <time>2021-11-08T21:52:43.681Z</time>
      </trkpt>
      <trkpt lat="47.591989" lon="7.986949">
        <ele>661.198907</ele>
        <time>2021-11-08T21:52:52.157Z</time>
      </trkpt>
      <trkpt lat="47.591825" lon="7.986496">
        <ele>660.956271</ele>
        <time>2021-11-08T21:52:57.916Z</time>
      </trkpt>
      <trkpt lat="47.591744" lon="7.986404">
        <ele>660.884873</ele>
        <time>2021-11-08T21:53:00.863Z</time>
      </trkpt>
      <trkpt lat="47.591589" lon="7.986285">
        <ele>660.762734</ele>
        <time>2021-11-08T21:53:04.282Z</time>
      </trkpt>
      <trkpt lat="47.591392" lon="7.986243">
        <ele>660.158789</ele>
        <time>2021-11-08T21:53:07.577Z</time>
      </trkpt>
      <trkpt lat="47.591143" lon="7.986333">
        <ele>659.277061</ele>
        <time>2021-11-08T21:53:10.366Z</time>
      </trkpt>
      <trkpt lat="47.591034" lon="7.986459">
        <ele>658.801572</ele>
        <time>2021-11-08T21:53:13.402Z</time>
      </trkpt>
      <trkpt lat="47.590902" lon="7.986783">
        <ele>657.923300</ele>
        <time>2021-11-08T21:53:15.837Z</time>
      </trkpt>
      <trkpt lat="47.590598" lon="7.987915">
        <ele>655.096221</ele>
        <time>2021-11-08T21:53:23.767Z</time>
      </trkpt>
      <trkpt lat="47.590529" lon="7.988254">
        <ele>654.065729</ele>
        <time>2021-11-08T21:53:25.873Z</time>
      </trkpt>
      <trkpt lat="47.590456" lon="7.988863">
        <ele>651.558165</ele>
        <time>2021-11-08T21:53:29.560Z</time>
      </trkpt>
      <trkpt lat="47.590392" lon="7.989205">
        <ele>650.119321</ele>
        <time>2021-11-08T21:53:31.832Z</time>
      </trkpt>
      <trkpt lat="47.590332" lon="7.989372">
        <ele>649.352231</ele>
        <time>2021-11-08T21:53:32.912Z</time>
      </trkpt>
      <trkpt lat="47.590153" lon="7.989440">
        <ele>648.241507</ele>
        <time>2021-11-08T21:53:34.714Z</time>
      </trkpt>
      <trkpt lat="47.589888" lon="7.989555">
        <ele>646.581766</ele>
        <time>2021-11-08T21:53:37.175Z</time>
      </trkpt>
      <trkpt lat="47.589802" lon="7.989594">
        <ele>646.041181</ele>
        <time>2021-11-08T21:53:38.081Z</time>
      </trkpt>
      <trkpt lat="47.589745" lon="7.989634">
        <ele>645.662116</ele>
        <time>2021-11-08T21:53:38.661Z</time>
      </trkpt>
      <trkpt lat="47.589661" lon="7.989741">
        <ele>644.996447</ele>
        <time>2021-11-08T21:53:39.607Z</time>
      </trkpt>
      <trkpt lat="47.589516" lon="7.989967">
        <ele>643.737896</ele>
        <time>2021-11-08T21:53:42.030Z</time>
      </trkpt>
      <trkpt lat="47.589334" lon="7.990467">
        <ele>642.738364</ele>
        <time>2021-11-08T21:53:45.906Z</time>
      </trkpt>
      <trkpt lat="47.589254" lon="7.990683">
        <ele>642.304848</ele>
        <time>2021-11-08T21:53:47.417Z</time>
      </trkpt>
      <trkpt lat="47.589147" lon="7.990836">
        <ele>641.917108</ele>
        <time>2021-11-08T21:53:50.017Z</time>
      </trkpt>
      <trkpt lat="47.588977" lon="7.991069">
        <ele>641.313251</ele>
        <time>2021-11-08T21:53:52.457Z</time>
      </trkpt>
      <trkpt lat="47.588784" lon="7.991274">
        <ele>640.693982</ele>
        <time>2021-11-08T21:53:55.330Z</time>
      </trkpt>
      <trkpt lat="47.588182" lon="7.992002">
        <ele>638.553826</ele>
        <time>2021-11-08T21:54:03.809Z</time>
      </trkpt>
      <trkpt lat="47.587950" lon="7.992314">
        <ele>637.494162</ele>
        <time>2021-11-08T21:54:07.441Z</time>
      </trkpt>
      <trkpt lat="47.587918" lon="7.992378">
        <ele>637.312375</ele>
        <time>2021-11-08T21:54:08.003Z</time>
      </trkpt>
      <trkpt lat="47.587615" lon="7.992977">
        <ele>635.603874</ele>
        <time>2021-11-08T21:54:13.521Z</time>
      </trkpt>
      <trkpt lat="47.587069" lon="7.995057">
        <ele>627.308275</ele>
        <time>2021-11-08T21:54:27.615Z</time>
      </trkpt>
      <trkpt lat="47.586778" lon="7.995749">
        <ele>623.019956</ele>
        <time>2021-11-08T21:54:32.430Z</time>
      </trkpt>
      <trkpt lat="47.586622" lon="7.995984">
        <ele>621.286031</ele>
        <time>2021-11-08T21:54:34.312Z</time>
      </trkpt>
      <trkpt lat="47.586511" lon="7.996110">
        <ele>620.196079</ele>
        <time>2021-11-08T21:54:35.597Z</time>
      </trkpt>
      <trkpt lat="47.586377" lon="7.996241">
        <ele>618.944651</ele>
        <time>2021-11-08T21:54:36.958Z</time>
      </trkpt>
      <trkpt lat="47.586010" lon="7.996485">
        <ele>615.311307</ele>
        <time>2021-11-08T21:54:40.423Z</time>
      </trkpt>
      <trkpt lat="47.586006" lon="7.996485">
        <ele>615.275170</ele>
        <time>2021-11-08T21:54:40.464Z</time>
      </trkpt>
      <trkpt lat="47.585324" lon="7.996614">
        <ele>609.063824</ele>
        <time>2021-11-08T21:54:46.371Z</time>
      </trkpt>
      <trkpt lat="47.584188" lon="7.996318">
        <ele>600.035683</ele>
        <time>2021-11-08T21:54:56.667Z</time>
      </trkpt>
      <trkpt lat="47.584002" lon="7.996337">
        <ele>598.930389</ele>
        <time>2021-11-08T21:54:58.455Z</time>
      </trkpt>
      <trkpt lat="47.583554" lon="7.996491">
        <ele>596.204017</ele>
        <time>2021-11-08T21:55:02.805Z</time>
      </trkpt>
      <trkpt lat="47.583357" lon="7.996485">
        <ele>595.035880</ele>
        <time>2021-11-08T21:55:04.704Z</time>
      </trkpt>
      <trkpt lat="47.583085" lon="7.996290">
        <ele>593.244719</ele>
        <time>2021-11-08T21:55:07.598Z</time>
      </trkpt>
      <trkpt lat="47.582889" lon="7.995812">
        <ele>590.681012</ele>
        <time>2021-11-08T21:55:11.003Z</time>
      </trkpt>
      <trkpt lat="47.582884" lon="7.995369">
        <ele>588.342765</ele>
        <time>2021-11-08T21:55:13.666Z</time>
      </trkpt>
      <trkpt lat="47.582924" lon="7.995208">
        <ele>587.437289</ele>
        <time>2021-11-08T21:55:14.644Z</time>
      </trkpt>
      <trkpt lat="47.582956" lon="7.995058">
        <ele>586.607020</ele>
        <time>2021-11-08T21:55:15.644Z</time>
      </trkpt>
      <trkpt lat="47.583068" lon="7.994495">
        <ele>583.509285</ele>
        <time>2021-11-08T21:55:19.182Z</time>
      </trkpt>
      <trkpt lat="47.582994" lon="7.994245">
        <ele>582.068475</ele>
        <time>2021-11-08T21:55:20.848Z</time>
      </trkpt>
      <trkpt lat="47.582981" lon="7.994223">
        <ele>581.914120</ele>
        <time>2021-11-08T21:55:21.020Z</time>
      </trkpt>
      <trkpt lat="47.582850" lon="7.994143">
        <ele>580.805624</ele>
        <time>2021-11-08T21:55:22.327Z</time>
      </trkpt>
      <trkpt lat="47.582354" lon="7.994436">
        <ele>576.605017</ele>
        <time>2021-11-08T21:55:27.008Z</time>
      </trkpt>
      <trkpt lat="47.582131" lon="7.994469">
        <ele>574.821019</ele>
        <time>2021-11-08T21:55:28.908Z</time>
      </trkpt>
      <trkpt lat="47.582041" lon="7.994482">
        <ele>574.101187</ele>
        <time>2021-11-08T21:55:29.711Z</time>
      </trkpt>
      <trkpt lat="47.581631" lon="7.994181">
        <ele>570.459141</ele>
        <time>2021-11-08T21:55:33.617Z</time>
      </trkpt>
      <trkpt lat="47.581061" lon="7.993595">
        <ele>564.937402</ele>
        <time>2021-11-08T21:55:39.918Z</time>
      </trkpt>
      <trkpt lat="47.580922" lon="7.993422">
        <ele>563.571462</ele>
        <time>2021-11-08T21:55:41.598Z</time>
      </trkpt>
      <trkpt lat="47.580746" lon="7.993147">
        <ele>562.629927</ele>
        <time>2021-11-08T21:55:44.069Z</time>
      </trkpt>
      <trkpt lat="47.580618" lon="7.992910">
        <ele>561.875849</ele>
        <time>2021-11-08T21:55:46.086Z</time>
      </trkpt>
      <trkpt lat="47.580510" lon="7.992660">
        <ele>561.138489</ele>
        <time>2021-11-08T21:55:48.000Z</time>
      </trkpt>
      <trkpt lat="47.580342" lon="7.992263">
        <ele>559.974467</ele>
        <time>2021-11-08T21:55:51.169Z</time>
      </trkpt>
      <trkpt lat="47.580109" lon="7.991789">
        <ele>558.517732</ele>
        <time>2021-11-08T21:55:55.186Z</time>
      </trkpt>
      <trkpt lat="47.579903" lon="7.991422">
        <ele>557.331879</ele>
        <time>2021-11-08T21:55:58.664Z</time>
      </trkpt>
      <trkpt lat="47.579818" lon="7.991290">
        <ele>556.891051</ele>
        <time>2021-11-08T21:56:00.081Z</time>
      </trkpt>
      <trkpt lat="47.579721" lon="7.991137">
        <ele>556.416538</ele>
        <time>2021-11-08T21:56:01.740Z</time>
      </trkpt>
      <trkpt lat="47.579682" lon="7.991071">
        <ele>556.218247</ele>
        <time>2021-11-08T21:56:02.315Z</time>
      </trkpt>
      <trkpt lat="47.578053" lon="7.988644">
        <ele>548.259451</ele>
        <time>2021-11-08T21:56:25.275Z</time>
      </trkpt>
      <trkpt lat="47.577884" lon="7.988354">
        <ele>547.316997</ele>
        <time>2021-11-08T21:56:27.803Z</time>
      </trkpt>
      <trkpt lat="47.577758" lon="7.987971">
        <ele>546.269059</ele>
        <time>2021-11-08T21:56:30.662Z</time>
      </trkpt>
      <trkpt lat="47.577713" lon="7.987200">
        <ele>544.383270</ele>
        <time>2021-11-08T21:56:35.854Z</time>
      </trkpt>
      <trkpt lat="47.577714" lon="7.987021">
        <ele>544.056104</ele>
        <time>2021-11-08T21:56:37.015Z</time>
      </trkpt>
      <trkpt lat="47.577678" lon="7.986766">
        <ele>543.579950</ele>
        <time>2021-11-08T21:56:38.738Z</time>
      </trkpt>
      <trkpt lat="47.577559" lon="7.986405">
        <ele>542.845597</ele>
        <time>2021-11-08T21:56:41.432Z</time>
      </trkpt>
      <trkpt lat="47.577468" lon="7.986179">
        <ele>542.364554</ele>
        <time>2021-11-08T21:56:43.286Z</time>
      </trkpt>
      <trkpt lat="47.577428" lon="7.986064">
        <ele>542.128076</ele>
        <time>2021-11-08T21:56:44.187Z</time>
      </trkpt>
      <trkpt lat="47.577254" lon="7.985645">
        <ele>541.228803</ele>
        <time>2021-11-08T21:56:47.798Z</time>
      </trkpt>
      <trkpt lat="47.577191" lon="7.985496">
        <ele>540.907407</ele>
        <time>2021-11-08T21:56:49.089Z</time>
      </trkpt>
      <trkpt lat="47.577153" lon="7.985407">
        <ele>540.714898</ele>
        <time>2021-11-08T21:56:49.843Z</time>
      </trkpt>
      <trkpt lat="47.577089" lon="7.985258">
        <ele>540.392054</ele>
        <time>2021-11-08T21:56:51.203Z</time>
      </trkpt>
      <trkpt lat="47.577038" lon="7.985139">
        <ele>540.134378</ele>
        <time>2021-11-08T21:56:52.200Z</time>
      </trkpt>
      <trkpt lat="47.576862" lon="7.984726">
        <ele>539.325984</ele>
        <time>2021-11-08T21:56:55.853Z</time>
      </trkpt>
      <trkpt lat="47.576773" lon="7.984556">
        <ele>539.036808</ele>
        <time>2021-11-08T21:56:57.435Z</time>
      </trkpt>
      <trkpt lat="47.575900" lon="7.982922">
        <ele>536.235728</ele>
        <time>2021-11-08T21:57:13.143Z</time>
      </trkpt>
      <trkpt lat="47.575437" lon="7.982148">
        <ele>533.347474</ele>
        <time>2021-11-08T21:57:20.483Z</time>
      </trkpt>
      <trkpt lat="47.575361" lon="7.981969">
        <ele>532.687090</ele>
        <time>2021-11-08T21:57:21.857Z</time>
      </trkpt>
      <trkpt lat="47.575313" lon="7.981867">
        <ele>532.298778</ele>
        <time>2021-11-08T21:57:22.697Z</time>
      </trkpt>
      <trkpt lat="47.575256" lon="7.981747">
        <ele>531.840533</ele>
        <time>2021-11-08T21:57:23.683Z</time>
      </trkpt>
      <trkpt lat="47.575220" lon="7.981669">
        <ele>531.545445</ele>
        <time>2021-11-08T21:57:24.240Z</time>
      </trkpt>
      <trkpt lat="47.574964" lon="7.981092">
        <ele>529.389123</ele>
        <time>2021-11-08T21:57:28.502Z</time>
      </trkpt>
      <trkpt lat="47.574694" lon="7.980238">
        <ele>526.240949</ele>
        <time>2021-11-08T21:57:34.303Z</time>
      </trkpt>
      <trkpt lat="47.574304" lon="7.979181">
        <ele>521.846231</ele>
        <time>2021-11-08T21:57:41.769Z</time>
      </trkpt>
      <trkpt lat="47.574194" lon="7.978801">
        <ele>520.337843</ele>
        <time>2021-11-08T21:57:44.408Z</time>
      </trkpt>
      <trkpt lat="47.574141" lon="7.978408">
        <ele>518.875885</ele>
        <time>2021-11-08T21:57:46.954Z</time>
      </trkpt>
      <trkpt lat="47.574095" lon="7.978060">
        <ele>517.788513</ele>
        <time>2021-11-08T21:57:49.230Z</time>
      </trkpt>
      <trkpt lat="47.574121" lon="7.977062">
        <ele>516.322699</ele>
        <time>2021-11-08T21:57:56.106Z</time>
      </trkpt>
      <trkpt lat="47.574193" lon="7.976530">
        <ele>515.526349</ele>
        <time>2021-11-08T21:58:01.425Z</time>
      </trkpt>
      <trkpt lat="47.574262" lon="7.976183">
        <ele>514.995411</ele>
        <time>2021-11-08T21:58:04.695Z</time>
      </trkpt>
      <trkpt lat="47.574460" lon="7.975510">
        <ele>513.808999</ele>
        <time>2021-11-08T21:58:11.187Z</time>
      </trkpt>
      <trkpt lat="47.574555" lon="7.975246">
        <ele>512.874922</ele>
        <time>2021-11-08T21:58:13.113Z</time>
      </trkpt>
      <trkpt lat="47.574711" lon="7.974906">
        <ele>511.591284</ele>
        <time>2021-11-08T21:58:15.931Z</time>
      </trkpt>
      <trkpt lat="47.575001" lon="7.974432">
        <ele>509.593664</ele>
        <time>2021-11-08T21:58:19.906Z</time>
      </trkpt>
      <trkpt lat="47.575056" lon="7.974176">
        <ele>508.754937</ele>
        <time>2021-11-08T21:58:21.708Z</time>
      </trkpt>
      <trkpt lat="47.575036" lon="7.974091">
        <ele>508.473907</ele>
        <time>2021-11-08T21:58:23.040Z</time>
      </trkpt>
      <trkpt lat="47.574997" lon="7.974006">
        <ele>508.153000</ele>
        <time>2021-11-08T21:58:23.616Z</time>
      </trkpt>
      <trkpt lat="47.574853" lon="7.973940">
        <ele>507.455518</ele>
        <time>2021-11-08T21:58:25.050Z</time>
      </trkpt>
      <trkpt lat="47.574406" lon="7.974054">
        <ele>505.141494</ele>
        <time>2021-11-08T21:58:29.292Z</time>
      </trkpt>
      <trkpt lat="47.574133" lon="7.974088">
        <ele>503.058585</ele>
        <time>2021-11-08T21:58:31.735Z</time>
      </trkpt>
      <trkpt lat="47.573741" lon="7.973991">
        <ele>500.036998</ele>
        <time>2021-11-08T21:58:35.254Z</time>
      </trkpt>
      <trkpt lat="47.573101" lon="7.973614">
        <ele>494.800970</ele>
        <time>2021-11-08T21:58:41.226Z</time>
      </trkpt>
      <trkpt lat="47.572323" lon="7.973803">
        <ele>489.332104</ele>
        <time>2021-11-08T21:58:48.343Z</time>
      </trkpt>
      <trkpt lat="47.571917" lon="7.973943">
        <ele>486.681442</ele>
        <time>2021-11-08T21:58:52.236Z</time>
      </trkpt>
      <trkpt lat="47.571191" lon="7.974114">
        <ele>482.006946</ele>
        <time>2021-11-08T21:58:58.938Z</time>
      </trkpt>
      <trkpt lat="47.570873" lon="7.974116">
        <ele>480.021244</ele>
        <time>2021-11-08T21:59:01.803Z</time>
      </trkpt>
      <trkpt lat="47.570736" lon="7.974051">
        <ele>479.162649</ele>
        <time>2021-11-08T21:59:03.262Z</time>
      </trkpt>
      <trkpt lat="47.570601" lon="7.973936">
        <ele>478.233263</ele>
        <time>2021-11-08T21:59:04.610Z</time>
      </trkpt>
      <trkpt lat="47.570511" lon="7.973853">
        <ele>477.600577</ele>
        <time>2021-11-08T21:59:05.606Z</time>
      </trkpt>
      <trkpt lat="47.570441" lon="7.973750">
        <ele>477.011837</ele>
        <time>2021-11-08T21:59:06.667Z</time>
      </trkpt>
      <trkpt lat="47.570343" lon="7.973473">
        <ele>475.752284</ele>
        <time>2021-11-08T21:59:08.524Z</time>
      </trkpt>
      <trkpt lat="47.570047" lon="7.972099">
        <ele>469.943891</ele>
        <time>2021-11-08T21:59:17.580Z</time>
      </trkpt>
      <trkpt lat="47.569990" lon="7.971563">
        <ele>467.813393</ele>
        <time>2021-11-08T21:59:20.972Z</time>
      </trkpt>
      <trkpt lat="47.570085" lon="7.971101">
        <ele>465.919399</ele>
        <time>2021-11-08T21:59:23.865Z</time>
      </trkpt>
      <trkpt lat="47.570370" lon="7.970636">
        <ele>463.455856</ele>
        <time>2021-11-08T21:59:27.771Z</time>
      </trkpt>
      <trkpt lat="47.570627" lon="7.970391">
        <ele>461.679809</ele>
        <time>2021-11-08T21:59:30.581Z</time>
      </trkpt>
      <trkpt lat="47.570725" lon="7.969975">
        <ele>459.951913</ele>
        <time>2021-11-08T21:59:33.338Z</time>
      </trkpt>
      <trkpt lat="47.570731" lon="7.969690">
        <ele>459.012477</ele>
        <time>2021-11-08T21:59:35.250Z</time>
      </trkpt>
      <trkpt lat="47.570716" lon="7.969667">
        <ele>458.927409</ele>
        <time>2021-11-08T21:59:35.428Z</time>
      </trkpt>
      <trkpt lat="47.570480" lon="7.968735">
        <ele>456.280140</ele>
        <time>2021-11-08T21:59:42.053Z</time>
      </trkpt>
      <trkpt lat="47.570550" lon="7.966846">
        <ele>450.920471</ele>
        <time>2021-11-08T21:59:54.856Z</time>
      </trkpt>
      <trkpt lat="47.570481" lon="7.965950">
        <ele>447.771834</ele>
        <time>2021-11-08T22:00:00.919Z</time>
      </trkpt>
      <trkpt lat="47.570328" lon="7.965210">
        <ele>445.069572</ele>
        <time>2021-11-08T22:00:05.751Z</time>
      </trkpt>
      <trkpt lat="47.570254" lon="7.964874">
        <ele>443.835524</ele>
        <time>2021-11-08T22:00:07.924Z</time>
      </trkpt>
      <trkpt lat="47.570155" lon="7.964560">
        <ele>442.339731</ele>
        <time>2021-11-08T22:00:09.984Z</time>
      </trkpt>
      <trkpt lat="47.570105" lon="7.964426">
        <ele>441.388146</ele>
        <time>2021-11-08T22:00:10.939Z</time>
      </trkpt>
      <trkpt lat="47.570063" lon="7.964314">
        <ele>440.591858</ele>
        <time>2021-11-08T22:00:11.668Z</time>
      </trkpt>
      <trkpt lat="47.569716" lon="7.963517">
        <ele>434.697309</ele>
        <time>2021-11-08T22:00:17.252Z</time>
      </trkpt>
      <trkpt lat="47.569673" lon="7.963432">
        <ele>434.037096</ele>
        <time>2021-11-08T22:00:17.849Z</time>
      </trkpt>
      <trkpt lat="47.569518" lon="7.963128">
        <ele>431.669148</ele>
        <time>2021-11-08T22:00:20.075Z</time>
      </trkpt>
      <trkpt lat="47.569137" lon="7.962553">
        <ele>426.660818</ele>
        <time>2021-11-08T22:00:24.724Z</time>
      </trkpt>
      <trkpt lat="47.568755" lon="7.962005">
        <ele>423.211513</ele>
        <time>2021-11-08T22:00:29.437Z</time>
      </trkpt>
      <trkpt lat="47.568612" lon="7.961724">
        <ele>421.703444</ele>
        <time>2021-11-08T22:00:31.553Z</time>
      </trkpt>
      <trkpt lat="47.568453" lon="7.961186">
        <ele>419.186836</ele>
        <time>2021-11-08T22:00:35.274Z</time>
      </trkpt>
      <trkpt lat="47.568429" lon="7.960657">
        <ele>416.915112</ele>
        <time>2021-11-08T22:00:38.694Z</time>
      </trkpt>
      <trkpt lat="47.568473" lon="7.960157">
        <ele>414.797342</ele>
        <time>2021-11-08T22:00:41.925Z</time>
      </trkpt>
      <trkpt lat="47.568528" lon="7.959653">
        <ele>412.986327</ele>
        <time>2021-11-08T22:00:45.158Z</time>
      </trkpt>
      <trkpt lat="47.568564" lon="7.959390">
        <ele>412.034413</ele>
        <time>2021-11-08T22:00:46.939Z</time>
      </trkpt>
      <trkpt lat="47.568620" lon="7.958768">
        <ele>409.808510</ele>
        <time>2021-11-08T22:00:50.987Z</time>
      </trkpt>
      <trkpt lat="47.568617" lon="7.958466">
        <ele>408.737146</ele>
        <time>2021-11-08T22:00:52.904Z</time>
      </trkpt>
      <trkpt lat="47.568534" lon="7.958185">
        <ele>407.649057</ele>
        <time>2021-11-08T22:00:54.897Z</time>
      </trkpt>
      <trkpt lat="47.568454" lon="7.958052">
        <ele>407.017022</ele>
        <time>2021-11-08T22:00:55.997Z</time>
      </trkpt>
      <trkpt lat="47.568255" lon="7.957713">
        <ele>405.346896</ele>
        <time>2021-11-08T22:00:58.821Z</time>
      </trkpt>
      <trkpt lat="47.568026" lon="7.957127">
        <ele>401.463724</ele>
        <time>2021-11-08T22:01:02.855Z</time>
      </trkpt>
      <trkpt lat="47.568009" lon="7.957030">
        <ele>400.889045</ele>
        <time>2021-11-08T22:01:03.422Z</time>
      </trkpt>
      <trkpt lat="47.567876" lon="7.956292">
        <ele>396.508822</ele>
        <time>2021-11-08T22:01:07.938Z</time>
      </trkpt>
      <trkpt lat="47.567697" lon="7.955901">
        <ele>393.799345</ele>
        <time>2021-11-08T22:01:10.662Z</time>
      </trkpt>
      <trkpt lat="47.567635" lon="7.955827">
        <ele>393.122804</ele>
        <time>2021-11-08T22:01:11.353Z</time>
      </trkpt>
      <trkpt lat="47.567555" lon="7.955776">
        <ele>392.382676</ele>
        <time>2021-11-08T22:01:12.137Z</time>
      </trkpt>
      <trkpt lat="47.567506" lon="7.955755">
        <ele>391.949176</ele>
        <time>2021-11-08T22:01:12.551Z</time>
      </trkpt>
      <trkpt lat="47.567397" lon="7.955717">
        <ele>390.997529</ele>
        <time>2021-11-08T22:01:13.578Z</time>
      </trkpt>
      <trkpt lat="47.566988" lon="7.955769">
        <ele>387.936736</ele>
        <time>2021-11-08T22:01:17.214Z</time>
      </trkpt>
      <trkpt lat="47.566963" lon="7.955772">
        <ele>387.756725</ele>
        <time>2021-11-08T22:01:17.428Z</time>
      </trkpt>
      <trkpt lat="47.566562" lon="7.955847">
        <ele>384.855930</ele>
        <time>2021-11-08T22:01:21.005Z</time>
      </trkpt>
      <trkpt lat="47.566505" lon="7.955859">
        <ele>384.442735</ele>
        <time>2021-11-08T22:01:21.531Z</time>
      </trkpt>
      <trkpt lat="47.566355" lon="7.955842">
        <ele>383.363045</ele>
        <time>2021-11-08T22:01:22.826Z</time>
      </trkpt>
      <trkpt lat="47.566072" lon="7.955622">
        <ele>381.069508</ele>
        <time>2021-11-08T22:01:25.651Z</time>
      </trkpt>
      <trkpt lat="47.565971" lon="7.955460">
        <ele>380.001386</ele>
        <time>2021-11-08T22:01:27.044Z</time>
      </trkpt>
      <trkpt lat="47.565929" lon="7.955254">
        <ele>378.959263</ele>
        <time>2021-11-08T22:01:28.398Z</time>
      </trkpt>
      <trkpt lat="47.565870" lon="7.954749">
        <ele>376.865828</ele>
        <time>2021-11-08T22:01:31.642Z</time>
      </trkpt>
      <trkpt lat="47.565868" lon="7.952957">
        <ele>372.043632</ele>
        <time>2021-11-08T22:01:44.064Z</time>
      </trkpt>
      <trkpt lat="47.565742" lon="7.952404">
        <ele>370.472979</ele>
        <time>2021-11-08T22:01:47.928Z</time>
      </trkpt>
      <trkpt lat="47.565595" lon="7.952077">
        <ele>368.609249</ele>
        <time>2021-11-08T22:01:50.430Z</time>
      </trkpt>
      <trkpt lat="47.565562" lon="7.952029">
        <ele>368.229916</ele>
        <time>2021-11-08T22:01:50.854Z</time>
      </trkpt>
      <trkpt lat="47.565535" lon="7.951987">
        <ele>367.908798</ele>
        <time>2021-11-08T22:01:51.193Z</time>
      </trkpt>
      <trkpt lat="47.565408" lon="7.951808">
        <ele>366.470969</ele>
        <time>2021-11-08T22:01:52.788Z</time>
      </trkpt>
      <trkpt lat="47.565271" lon="7.951640">
        <ele>365.012176</ele>
        <time>2021-11-08T22:01:54.360Z</time>
      </trkpt>
      <trkpt lat="47.565233" lon="7.951606">
        <ele>364.648020</ele>
        <time>2021-11-08T22:01:54.742Z</time>
      </trkpt>
      <trkpt lat="47.565142" lon="7.951534">
        <ele>363.801738</ele>
        <time>2021-11-08T22:01:55.669Z</time>
      </trkpt>
      <trkpt lat="47.565101" lon="7.951517">
        <ele>363.452463</ele>
        <time>2021-11-08T22:01:56.039Z</time>
      </trkpt>
      <trkpt lat="47.564987" lon="7.951465">
        <ele>362.473924</ele>
        <time>2021-11-08T22:01:57.093Z</time>
      </trkpt>
      <trkpt lat="47.564916" lon="7.951435">
        <ele>361.868237</ele>
        <time>2021-11-08T22:01:57.721Z</time>
      </trkpt>
      <trkpt lat="47.564611" lon="7.951358">
        <ele>359.330007</ele>
        <time>2021-11-08T22:02:00.438Z</time>
      </trkpt>
      <trkpt lat="47.564462" lon="7.951378">
        <ele>358.102625</ele>
        <time>2021-11-08T22:02:01.693Z</time>
      </trkpt>
      <trkpt lat="47.564352" lon="7.951413">
        <ele>357.179633</ele>
        <time>2021-11-08T22:02:02.670Z</time>
      </trkpt>
      <trkpt lat="47.564041" lon="7.951533">
        <ele>354.397251</ele>
        <time>2021-11-08T22:02:05.416Z</time>
      </trkpt>
      <trkpt lat="47.563996" lon="7.951547">
        <ele>353.957441</ele>
        <time>2021-11-08T22:02:05.811Z</time>
      </trkpt>
      <trkpt lat="47.563940" lon="7.951569">
        <ele>353.403296</ele>
        <time>2021-11-08T22:02:06.338Z</time>
      </trkpt>
      <trkpt lat="47.563504" lon="7.951763">
        <ele>349.049009</ele>
        <time>2021-11-08T22:02:10.225Z</time>
      </trkpt>
      <trkpt lat="47.563195" lon="7.951799">
        <ele>346.084282</ele>
        <time>2021-11-08T22:02:12.940Z</time>
      </trkpt>
      <trkpt lat="47.563084" lon="7.951741">
        <ele>344.958496</ele>
        <time>2021-11-08T22:02:13.925Z</time>
      </trkpt>
      <trkpt lat="47.562980" lon="7.951601">
        <ele>343.614598</ele>
        <time>2021-11-08T22:02:15.136Z</time>
      </trkpt>
      <trkpt lat="47.562736" lon="7.951001">
        <ele>339.093093</ele>
        <time>2021-11-08T22:02:19.295Z</time>
      </trkpt>
      <trkpt lat="47.562663" lon="7.950848">
        <ele>337.962987</ele>
        <time>2021-11-08T22:02:20.388Z</time>
      </trkpt>
      <trkpt lat="47.562589" lon="7.950738">
        <ele>337.198021</ele>
        <time>2021-11-08T22:02:21.319Z</time>
      </trkpt>
      <trkpt lat="47.562411" lon="7.950637">
        <ele>335.806923</ele>
        <time>2021-11-08T22:02:22.979Z</time>
      </trkpt>
      <trkpt lat="47.562128" lon="7.950654">
        <ele>333.739761</ele>
        <time>2021-11-08T22:02:25.553Z</time>
      </trkpt>
      <trkpt lat="47.561985" lon="7.950699">
        <ele>332.672809</ele>
        <time>2021-11-08T22:02:26.815Z</time>
      </trkpt>
      <trkpt lat="47.561884" lon="7.950731">
        <ele>331.919006</ele>
        <time>2021-11-08T22:02:27.763Z</time>
      </trkpt>
      <trkpt lat="47.561545" lon="7.950855">
        <ele>329.370571</ele>
        <time>2021-11-08T22:02:30.946Z</time>
      </trkpt>
      <trkpt lat="47.561191" lon="7.950783">
        <ele>326.762694</ele>
        <time>2021-11-08T22:02:34.171Z</time>
      </trkpt>
      <trkpt lat="47.561103" lon="7.950738">
        <ele>326.083265</ele>
        <time>2021-11-08T22:02:35.007Z</time>
      </trkpt>
      <trkpt lat="47.561003" lon="7.950686">
        <ele>325.309790</ele>
        <time>2021-11-08T22:02:35.937Z</time>
      </trkpt>
      <trkpt lat="47.560901" lon="7.950634">
        <ele>324.625951</ele>
        <time>2021-11-08T22:02:36.947Z</time>
      </trkpt>
      <trkpt lat="47.560627" lon="7.950285">
        <ele>322.468661</ele>
        <time>2021-11-08T22:02:40.201Z</time>
      </trkpt>
      <trkpt lat="47.560390" lon="7.949772">
        <ele>319.963687</ele>
        <time>2021-11-08T22:02:44.048Z</time>
      </trkpt>
      <trkpt lat="47.559708" lon="7.947739">
        <ele>311.399171</ele>
        <time>2021-11-08T22:02:58.299Z</time>
      </trkpt>
      <trkpt lat="47.559497" lon="7.947113">
        <ele>309.044816</ele>
        <time>2021-11-08T22:03:02.713Z</time>
      </trkpt>
      <trkpt lat="47.559335" lon="7.946657">
        <ele>307.310930</ele>
        <time>2021-11-08T22:03:06.024Z</time>
      </trkpt>
      <trkpt lat="47.559270" lon="7.946515">
        <ele>306.733609</ele>
        <time>2021-11-08T22:03:07.138Z</time>
      </trkpt>
      <trkpt lat="47.559262" lon="7.946497">
        <ele>306.661091</ele>
        <time>2021-11-08T22:03:07.274Z</time>
      </trkpt>
      <trkpt lat="47.559192" lon="7.946365">
        <ele>306.096236</ele>
        <time>2021-11-08T22:03:08.425Z</time>
      </trkpt>
      <trkpt lat="47.559181" lon="7.946345">
        <ele>306.009424</ele>
        <time>2021-11-08T22:03:08.566Z</time>
      </trkpt>
      <trkpt lat="47.558869" lon="7.945954">
        <ele>304.516900</ele>
        <time>2021-11-08T22:03:12.536Z</time>
      </trkpt>
      <trkpt lat="47.558804" lon="7.945896">
        <ele>304.284587</ele>
        <time>2021-11-08T22:03:13.234Z</time>
      </trkpt>
      <trkpt lat="47.558745" lon="7.945856">
        <ele>304.085931</ele>
        <time>2021-11-08T22:03:13.891Z</time>
      </trkpt>
      <trkpt lat="47.558700" lon="7.945825">
        <ele>303.933989</ele>
        <time>2021-11-08T22:03:14.394Z</time>
      </trkpt>
      <trkpt lat="47.558608" lon="7.945765">
        <ele>303.626229</ele>
        <time>2021-11-08T22:03:15.445Z</time>
      </trkpt>
      <trkpt lat="47.558540" lon="7.945722">
        <ele>303.399861</ele>
        <time>2021-11-08T22:03:16.138Z</time>
      </trkpt>
      <trkpt lat="47.558415" lon="7.945666">
        <ele>303.000027</ele>
        <time>2021-11-08T22:03:17.401Z</time>
      </trkpt>
      <trkpt lat="47.558161" lon="7.945614">
        <ele>302.214941</ele>
        <time>2021-11-08T22:03:20.023Z</time>
      </trkpt>
      <trkpt lat="47.558102" lon="7.945615">
        <ele>302.034283</ele>
        <time>2021-11-08T22:03:20.590Z</time>
      </trkpt>
      <trkpt lat="47.558009" lon="7.945617">
        <ele>301.749505</ele>
        <time>2021-11-08T22:03:21.590Z</time>
      </trkpt>
      <trkpt lat="47.557910" lon="7.945625">
        <ele>301.445936</ele>
        <time>2021-11-08T22:03:22.720Z</time>
      </trkpt>
      <trkpt lat="47.557744" lon="7.945674">
        <ele>300.927690</ele>
        <time>2021-11-08T22:03:24.388Z</time>
      </trkpt>
      <trkpt lat="47.557613" lon="7.945697">
        <ele>300.523788</ele>
        <time>2021-11-08T22:03:25.980Z</time>
      </trkpt>
      <trkpt lat="47.557529" lon="7.945747">
        <ele>300.246622</ele>
        <time>2021-11-08T22:03:27.131Z</time>
      </trkpt>
      <trkpt lat="47.557394" lon="7.945716">
        <ele>299.865506</ele>
        <time>2021-11-08T22:03:28.578Z</time>
      </trkpt>
      <trkpt lat="47.557268" lon="7.945688">
        <ele>299.775104</ele>
        <time>2021-11-08T22:03:30.193Z</time>
      </trkpt>
      <trkpt lat="47.557196" lon="7.945663">
        <ele>299.722633</ele>
        <time>2021-11-08T22:03:31.199Z</time>
      </trkpt>
      <trkpt lat="47.557110" lon="7.945492">
        <ele>299.620515</ele>
        <time>2021-11-08T22:03:33.042Z</time>
      </trkpt>
      <trkpt lat="47.556999" lon="7.945268">
        <ele>299.487444</ele>
        <time>2021-11-08T22:03:35.460Z</time>
      </trkpt>
      <trkpt lat="47.556919" lon="7.945110">
        <ele>299.392861</ele>
        <time>2021-11-08T22:03:37.230Z</time>
      </trkpt>
      <trkpt lat="47.556830" lon="7.944931">
        <ele>299.286397</ele>
        <time>2021-11-08T22:03:39.057Z</time>
      </trkpt>
      <trkpt lat="47.556650" lon="7.944566">
        <ele>299.069927</ele>
        <time>2021-11-08T22:03:42.990Z</time>
      </trkpt>
      <trkpt lat="47.556439" lon="7.944137">
        <ele>298.815736</ele>
        <time>2021-11-08T22:03:47.799Z</time>
      </trkpt>
      <trkpt lat="47.556345" lon="7.943946">
        <ele>298.702540</ele>
        <time>2021-11-08T22:03:49.968Z</time>
      </trkpt>
      <trkpt lat="47.556302" lon="7.943858">
        <ele>298.650515</ele>
        <time>2021-11-08T22:03:51.015Z</time>
      </trkpt>
      <trkpt lat="47.556288" lon="7.943830">
        <ele>298.633829</ele>
        <time>2021-11-08T22:03:51.369Z</time>
      </trkpt>
      <trkpt lat="47.556069" lon="7.943386">
        <ele>298.542559</ele>
        <time>2021-11-08T22:03:56.930Z</time>
      </trkpt>
      <trkpt lat="47.555911" lon="7.943042">
        <ele>298.492367</ele>
        <time>2021-11-08T22:04:01.332Z</time>
      </trkpt>
      <trkpt lat="47.555828" lon="7.942869">
        <ele>298.466764</ele>
        <time>2021-11-08T22:04:03.657Z</time>
      </trkpt>
      <trkpt lat="47.555765" lon="7.942732">
        <ele>298.446767</ele>
        <time>2021-11-08T22:04:05.369Z</time>
      </trkpt>
      <trkpt lat="47.555711" lon="7.942617">
        <ele>298.429868</ele>
        <time>2021-11-08T22:04:06.759Z</time>
      </trkpt>
      <trkpt lat="47.555633" lon="7.942436">
        <ele>298.403963</ele>
        <time>2021-11-08T22:04:08.881Z</time>
      </trkpt>
      <trkpt lat="47.555530" lon="7.942195">
        <ele>298.369554</ele>
        <time>2021-11-08T22:04:11.444Z</time>
      </trkpt>
      <trkpt lat="47.555494" lon="7.942104">
        <ele>298.356831</ele>
        <time>2021-11-08T22:04:12.391Z</time>
      </trkpt>
      <trkpt lat="47.555456" lon="7.942017">
        <ele>298.344330</ele>
        <time>2021-11-08T22:04:13.322Z</time>
      </trkpt>
      <trkpt lat="47.555313" lon="7.941663">
        <ele>298.294565</ele>
        <time>2021-11-08T22:04:16.825Z</time>
      </trkpt>
      <trkpt lat="47.555223" lon="7.941452">
        <ele>298.233777</ele>
        <time>2021-11-08T22:04:19.068Z</time>
      </trkpt>
      <trkpt lat="47.554981" lon="7.940858">
        <ele>297.973791</ele>
        <time>2021-11-08T22:04:25.361Z</time>
      </trkpt>
      <trkpt lat="47.554831" lon="7.940510">
        <ele>297.819066</ele>
        <time>2021-11-08T22:04:29.236Z</time>
      </trkpt>
      <trkpt lat="47.554786" lon="7.940407">
        <ele>297.773090</ele>
        <time>2021-11-08T22:04:30.312Z</time>
      </trkpt>
      <trkpt lat="47.554653" lon="7.940102">
        <ele>297.637023</ele>
        <time>2021-11-08T22:04:33.596Z</time>
      </trkpt>
      <trkpt lat="47.554446" lon="7.939644">
        <ele>297.430477</ele>
        <time>2021-11-08T22:04:38.405Z</time>
      </trkpt>
      <trkpt lat="47.554246" lon="7.939196">
        <ele>297.232497</ele>
        <time>2021-11-08T22:04:42.960Z</time>
      </trkpt>
      <trkpt lat="47.554109" lon="7.938885">
        <ele>297.102289</ele>
        <time>2021-11-08T22:04:46.102Z</time>
      </trkpt>
      <trkpt lat="47.553978" lon="7.938519">
        <ele>296.957041</ele>
        <time>2021-11-08T22:04:49.612Z</time>
      </trkpt>
      <trkpt lat="47.553909" lon="7.938319">
        <ele>296.878290</ele>
        <time>2021-11-08T22:04:51.545Z</time>
      </trkpt>
      <trkpt lat="47.553848" lon="7.938105">
        <ele>296.796844</ele>
        <time>2021-11-08T22:04:53.658Z</time>
      </trkpt>
      <trkpt lat="47.553805" lon="7.937948">
        <ele>296.737439</ele>
        <time>2021-11-08T22:04:55.197Z</time>
      </trkpt>
      <trkpt lat="47.553775" lon="7.937797">
        <ele>296.682252</ele>
        <time>2021-11-08T22:04:56.585Z</time>
      </trkpt>
      <trkpt lat="47.553769" lon="7.937764">
        <ele>296.670270</ele>
        <time>2021-11-08T22:04:56.900Z</time>
      </trkpt>
      <trkpt lat="47.553744" lon="7.937573">
        <ele>296.602057</ele>
        <time>2021-11-08T22:04:58.754Z</time>
      </trkpt>
      <trkpt lat="47.553727" lon="7.937367">
        <ele>296.529295</ele>
        <time>2021-11-08T22:05:00.662Z</time>
      </trkpt>
      <trkpt lat="47.553724" lon="7.937134">
        <ele>296.447590</ele>
        <time>2021-11-08T22:05:02.831Z</time>
      </trkpt>
      <trkpt lat="47.553732" lon="7.936945">
        <ele>296.381196</ele>
        <time>2021-11-08T22:05:04.624Z</time>
      </trkpt>
      <trkpt lat="47.553754" lon="7.936703">
        <ele>296.335050</ele>
        <time>2021-11-08T22:05:06.861Z</time>
      </trkpt>
      <trkpt lat="47.553763" lon="7.936585">
        <ele>296.326003</ele>
        <time>2021-11-08T22:05:07.991Z</time>
      </trkpt>
      <trkpt lat="47.553712" lon="7.936520">
        <ele>296.318409</ele>
        <time>2021-11-08T22:05:08.948Z</time>
      </trkpt>
      <trkpt lat="47.553680" lon="7.936493">
        <ele>296.314252</ele>
        <time>2021-11-08T22:05:09.471Z</time>
      </trkpt>
      <trkpt lat="47.553579" lon="7.936483">
        <ele>296.302825</ele>
        <time>2021-11-08T22:05:10.872Z</time>
      </trkpt>
      <trkpt lat="47.553468" lon="7.936486">
        <ele>296.290292</ele>
        <time>2021-11-08T22:05:12.462Z</time>
      </trkpt>
      <trkpt lat="47.553364" lon="7.936511">
        <ele>296.278398</ele>
        <time>2021-11-08T22:05:14.018Z</time>
      </trkpt>
      <trkpt lat="47.553216" lon="7.936481">
        <ele>296.261536</ele>
        <time>2021-11-08T22:05:16.326Z</time>
      </trkpt>
      <trkpt lat="47.553130" lon="7.936464">
        <ele>296.251741</ele>
        <time>2021-11-08T22:05:17.703Z</time>
      </trkpt>
      <trkpt lat="47.553015" lon="7.936441">
        <ele>296.238641</ele>
        <time>2021-11-08T22:05:19.609Z</time>
      </trkpt>
      <trkpt lat="47.552921" lon="7.936425">
        <ele>296.227960</ele>
        <time>2021-11-08T22:05:21.238Z</time>
      </trkpt>
      <trkpt lat="47.552791" lon="7.936403">
        <ele>296.213190</ele>
        <time>2021-11-08T22:05:23.077Z</time>
      </trkpt>
      <trkpt lat="47.552493" lon="7.936374">
        <ele>296.179477</ele>
        <time>2021-11-08T22:05:27.577Z</time>
      </trkpt>
      <trkpt lat="47.552311" lon="7.936357">
        <ele>296.158890</ele>
        <time>2021-11-08T22:05:30.116Z</time>
      </trkpt>
      <trkpt lat="47.551926" lon="7.936360">
        <ele>295.710019</ele>
        <time>2021-11-08T22:05:35.469Z</time>
      </trkpt>
      <trkpt lat="47.551730" lon="7.936373">
        <ele>295.361781</ele>
        <time>2021-11-08T22:05:38.073Z</time>
      </trkpt>
      <trkpt lat="47.551599" lon="7.936386">
        <ele>295.128743</ele>
        <time>2021-11-08T22:05:39.760Z</time>
      </trkpt>
      <trkpt lat="47.551477" lon="7.936401">
        <ele>294.911455</ele>
        <time>2021-11-08T22:05:41.119Z</time>
      </trkpt>
      <trkpt lat="47.551303" lon="7.936435">
        <ele>294.599940</ele>
        <time>2021-11-08T22:05:43.048Z</time>
      </trkpt>
      <trkpt lat="47.550900" lon="7.936585">
        <ele>293.862411</ele>
        <time>2021-11-08T22:05:47.541Z</time>
      </trkpt>
      <trkpt lat="47.550607" lon="7.936694">
        <ele>293.326210</ele>
        <time>2021-11-08T22:05:50.688Z</time>
      </trkpt>
      <trkpt lat="47.550221" lon="7.936962">
        <ele>292.302705</ele>
        <time>2021-11-08T22:05:55.104Z</time>
      </trkpt>
      <trkpt lat="47.550098" lon="7.937070">
        <ele>291.871111</ele>
        <time>2021-11-08T22:05:56.492Z</time>
      </trkpt>
      <trkpt lat="47.549970" lon="7.937189">
        <ele>291.414958</ele>
        <time>2021-11-08T22:05:58.018Z</time>
      </trkpt>
      <trkpt lat="47.549714" lon="7.937478">
        <ele>290.443429</ele>
        <time>2021-11-08T22:06:01.253Z</time>
      </trkpt>
      <trkpt lat="47.549404" lon="7.937916">
        <ele>289.150358</ele>
        <time>2021-11-08T22:06:05.613Z</time>
      </trkpt>
      <trkpt lat="47.549168" lon="7.938309">
        <ele>288.078610</ele>
        <time>2021-11-08T22:06:09.211Z</time>
      </trkpt>
      <trkpt lat="47.549055" lon="7.938483">
        <ele>287.586641</ele>
        <time>2021-11-08T22:06:10.827Z</time>
      </trkpt>
      <trkpt lat="47.548679" lon="7.939412">
        <ele>286.690278</ele>
        <time>2021-11-08T22:06:18.922Z</time>
      </trkpt>
      <trkpt lat="47.548592" lon="7.939666">
        <ele>286.465134</ele>
        <time>2021-11-08T22:06:21.302Z</time>
      </trkpt>
      <trkpt lat="47.548585" lon="7.939688">
        <ele>286.445909</ele>
        <time>2021-11-08T22:06:21.507Z</time>
      </trkpt>
      <trkpt lat="47.548563" lon="7.939753">
        <ele>286.388432</ele>
        <time>2021-11-08T22:06:22.107Z</time>
      </trkpt>
      <trkpt lat="47.548509" lon="7.939765">
        <ele>286.324486</ele>
        <time>2021-11-08T22:06:22.735Z</time>
      </trkpt>
      <trkpt lat="47.548479" lon="7.939789">
        <ele>286.284559</ele>
        <time>2021-11-08T22:06:23.134Z</time>
      </trkpt>
      <trkpt lat="47.548455" lon="7.939823">
        <ele>286.245672</ele>
        <time>2021-11-08T22:06:23.545Z</time>
      </trkpt>
      <trkpt lat="47.548437" lon="7.939866">
        <ele>286.205676</ele>
        <time>2021-11-08T22:06:23.964Z</time>
      </trkpt>
      <trkpt lat="47.548426" lon="7.939924">
        <ele>286.158055</ele>
        <time>2021-11-08T22:06:24.479Z</time>
      </trkpt>
      <trkpt lat="47.548427" lon="7.939957">
        <ele>286.131944</ele>
        <time>2021-11-08T22:06:24.792Z</time>
      </trkpt>
      <trkpt lat="47.548446" lon="7.940038">
        <ele>286.064162</ele>
        <time>2021-11-08T22:06:25.539Z</time>
      </trkpt>
      <trkpt lat="47.548468" lon="7.940081">
        <ele>286.021512</ele>
        <time>2021-11-08T22:06:26.047Z</time>
      </trkpt>
      <trkpt lat="47.548420" lon="7.940256">
        <ele>285.872199</ele>
        <time>2021-11-08T22:06:27.698Z</time>
      </trkpt>
      <trkpt lat="47.548303" lon="7.940599">
        <ele>285.568421</ele>
        <time>2021-11-08T22:06:31.624Z</time>
      </trkpt>
      <trkpt lat="47.548195" lon="7.940950">
        <ele>285.467961</ele>
        <time>2021-11-08T22:06:35.612Z</time>
      </trkpt>
      <trkpt lat="47.547852" lon="7.942144">
        <ele>285.829443</ele>
        <time>2021-11-08T22:06:50.064Z</time>
      </trkpt>
      <trkpt lat="47.547772" lon="7.942416">
        <ele>285.912095</ele>
        <time>2021-11-08T22:06:53.681Z</time>
      </trkpt>
      <trkpt lat="47.547436" lon="7.943731">
        <ele>286.269781</ele>
        <time>2021-11-08T22:07:09.912Z</time>
      </trkpt>
      <trkpt lat="47.547297" lon="7.944159">
        <ele>286.371441</ele>
        <time>2021-11-08T22:07:15.225Z</time>
      </trkpt>
      <trkpt lat="47.547246" lon="7.944330">
        <ele>286.411456</ele>
        <time>2021-11-08T22:07:17.407Z</time>
      </trkpt>
      <trkpt lat="47.547178" lon="7.944456">
        <ele>286.445985</ele>
        <time>2021-11-08T22:07:19.190Z</time>
      </trkpt>
      <trkpt lat="47.547134" lon="7.944545">
        <ele>286.469598</ele>
        <time>2021-11-08T22:07:20.258Z</time>
      </trkpt>
      <trkpt lat="47.546764" lon="7.945239">
        <ele>286.658889</ele>
        <time>2021-11-08T22:07:29.119Z</time>
      </trkpt>
      <trkpt lat="47.546516" lon="7.946289">
        <ele>287.749696</ele>
        <time>2021-11-08T22:07:41.090Z</time>
      </trkpt>
      <trkpt lat="47.546519" lon="7.946567">
        <ele>288.108350</ele>
        <time>2021-11-08T22:07:44.621Z</time>
      </trkpt>
      <trkpt lat="47.546565" lon="7.946721">
        <ele>288.325585</ele>
        <time>2021-11-08T22:07:47.133Z</time>
      </trkpt>
      <trkpt lat="47.546592" lon="7.946809">
        <ele>288.450278</ele>
        <time>2021-11-08T22:07:48.510Z</time>
      </trkpt>
      <trkpt lat="47.546633" lon="7.946946">
        <ele>288.643593</ele>
        <time>2021-11-08T22:07:50.763Z</time>
      </trkpt>
      <trkpt lat="47.546648" lon="7.947009">
        <ele>288.729768</ele>
        <time>2021-11-08T22:07:51.729Z</time>
      </trkpt>
      <trkpt lat="47.546651" lon="7.947115">
        <ele>288.866623</ele>
        <time>2021-11-08T22:07:53.517Z</time>
      </trkpt>
      <trkpt lat="47.546572" lon="7.947545">
        <ele>289.441483</ele>
        <time>2021-11-08T22:08:00.932Z</time>
      </trkpt>
      <trkpt lat="47.546159" lon="7.949303">
        <ele>293.468180</ele>
        <time>2021-11-08T22:08:39.698Z</time>
      </trkpt>
      <trkpt lat="47.545949" lon="7.950185">
        <ele>295.843390</ele>
        <time>2021-11-08T22:08:59.970Z</time>
      </trkpt>
      <trkpt lat="47.545884" lon="7.950363">
        <ele>296.357356</ele>
        <time>2021-11-08T22:09:03.902Z</time>
      </trkpt>
      <trkpt lat="47.545822" lon="7.950627">
        <ele>296.970296</ele>
        <time>2021-11-08T22:09:09.205Z</time>
      </trkpt>
      <trkpt lat="47.545810" lon="7.950694">
        <ele>297.020207</ele>
        <time>2021-11-08T22:09:10.436Z</time>
      </trkpt>
      <trkpt lat="47.545763" lon="7.950733">
        <ele>297.077669</ele>
        <time>2021-11-08T22:09:11.944Z</time>
      </trkpt>
      <trkpt lat="47.545659" lon="7.950771">
        <ele>297.191929</ele>
        <time>2021-11-08T22:09:14.365Z</time>
      </trkpt>
      <trkpt lat="47.545625" lon="7.950771">
        <ele>297.228196</ele>
        <time>2021-11-08T22:09:15.263Z</time>
      </trkpt>
      <trkpt lat="47.545567" lon="7.950765">
        <ele>297.290214</ele>
        <time>2021-11-08T22:09:16.676Z</time>
      </trkpt>
      <trkpt lat="47.545494" lon="7.950684">
        <ele>297.387501</ele>
        <time>2021-11-08T22:09:18.813Z</time>
      </trkpt>
      <trkpt lat="47.545434" lon="7.950668">
        <ele>297.452531</ele>
        <time>2021-11-08T22:09:20.292Z</time>
      </trkpt>
      <trkpt lat="47.545166" lon="7.950366">
        <ele>297.811704</ele>
        <time>2021-11-08T22:09:27.063Z</time>
      </trkpt>
      <trkpt lat="47.544901" lon="7.950044">
        <ele>298.177295</ele>
        <time>2021-11-08T22:09:32.699Z</time>
      </trkpt>
      <trkpt lat="47.544521" lon="7.949558">
        <ele>298.712789</ele>
        <time>2021-11-08T22:09:39.396Z</time>
      </trkpt>
      <trkpt lat="47.544239" lon="7.949202">
        <ele>299.075787</ele>
        <time>2021-11-08T22:09:44.358Z</time>
      </trkpt>
      <trkpt lat="47.543864" lon="7.948694">
        <ele>299.550012</ele>
        <time>2021-11-08T22:09:52.322Z</time>
      </trkpt>
      <trkpt lat="47.543760" lon="7.948548">
        <ele>299.683726</ele>
        <time>2021-11-08T22:09:54.564Z</time>
      </trkpt>
      <trkpt lat="47.543579" lon="7.948287">
        <ele>299.919453</ele>
        <time>2021-11-08T22:10:00.282Z</time>
      </trkpt>
      <trkpt lat="47.543532" lon="7.948214">
        <ele>299.983004</ele>
        <time>2021-11-08T22:10:01.408Z</time>
      </trkpt>
      <trkpt lat="47.543435" lon="7.948000">
        <ele>300.145391</ele>
        <time>2021-11-08T22:10:04.470Z</time>
      </trkpt>
      <trkpt lat="47.543407" lon="7.947938">
        <ele>300.192384</ele>
        <time>2021-11-08T22:10:06.327Z</time>
      </trkpt>
      <trkpt lat="47.543280" lon="7.947656">
        <ele>300.405943</ele>
        <time>2021-11-08T22:10:10.814Z</time>
      </trkpt>
      <trkpt lat="47.543142" lon="7.947250">
        <ele>300.999975</ele>
        <time>2021-11-08T22:10:18.278Z</time>
      </trkpt>
      <trkpt lat="47.543086" lon="7.947052">
        <ele>301.390157</ele>
        <time>2021-11-08T22:10:21.707Z</time>
      </trkpt>
      <trkpt lat="47.543056" lon="7.946935">
        <ele>301.617632</ele>
        <time>2021-11-08T22:10:24.549Z</time>
      </trkpt>
      <trkpt lat="47.543045" lon="7.946881">
        <ele>301.720151</ele>
        <time>2021-11-08T22:10:25.705Z</time>
      </trkpt>
      <trkpt lat="47.542982" lon="7.946547">
        <ele>302.350461</ele>
        <time>2021-11-08T22:10:31.105Z</time>
      </trkpt>
      <trkpt lat="47.542974" lon="7.946495">
        <ele>302.447396</ele>
        <time>2021-11-08T22:10:32.746Z</time>
      </trkpt>
      <trkpt lat="47.542960" lon="7.946400">
        <ele>302.624128</ele>
        <time>2021-11-08T22:10:34.811Z</time>
      </trkpt>
      <trkpt lat="47.542916" lon="7.945730">
        <ele>303.847627</ele>
        <time>2021-11-08T22:10:47.477Z</time>
      </trkpt>
      <trkpt lat="47.542913" lon="7.945267">
        <ele>304.689185</ele>
        <time>2021-11-08T22:10:55.972Z</time>
      </trkpt>
      <trkpt lat="47.543007" lon="7.943867">
        <ele>305.978051</ele>
        <time>2021-11-08T22:11:17.139Z</time>
      </trkpt>
      <trkpt lat="47.543161" lon="7.942213">
        <ele>306.909104</ele>
        <time>2021-11-08T22:11:35.545Z</time>
      </trkpt>
      <trkpt lat="47.543435" lon="7.940670">
        <ele>305.643812</ele>
        <time>2021-11-08T22:11:48.494Z</time>
      </trkpt>
      <trkpt lat="47.543826" lon="7.939433">
        <ele>304.418944</ele>
        <time>2021-11-08T22:11:58.895Z</time>
      </trkpt>
      <trkpt lat="47.544472" lon="7.937932">
        <ele>302.250586</ele>
        <time>2021-11-08T22:12:12.218Z</time>
      </trkpt>
      <trkpt lat="47.544705" lon="7.937395">
        <ele>301.486971</ele>
        <time>2021-11-08T22:12:17.058Z</time>
      </trkpt>
      <trkpt lat="47.544903" lon="7.936917">
        <ele>300.893700</ele>
        <time>2021-11-08T22:12:21.319Z</time>
      </trkpt>
      <trkpt lat="47.545074" lon="7.936484">
        <ele>300.363016</ele>
        <time>2021-11-08T22:12:25.149Z</time>
      </trkpt>
      <trkpt lat="47.545457" lon="7.935110">
        <ele>298.790480</ele>
        <time>2021-11-08T22:12:36.518Z</time>
      </trkpt>
      <trkpt lat="47.545674" lon="7.933625">
        <ele>298.610898</ele>
        <time>2021-11-08T22:12:49.598Z</time>
      </trkpt>
      <trkpt lat="47.545702" lon="7.933290">
        <ele>298.577040</ele>
        <time>2021-11-08T22:12:53.178Z</time>
      </trkpt>
      <trkpt lat="47.545724" lon="7.932758">
        <ele>298.523578</ele>
        <time>2021-11-08T22:12:59.445Z</time>
      </trkpt>
      <trkpt lat="47.545721" lon="7.931992">
        <ele>299.082062</ele>
        <time>2021-11-08T22:13:09.484Z</time>
      </trkpt>
      <trkpt lat="47.545696" lon="7.931497">
        <ele>299.713492</ele>
        <time>2021-11-08T22:13:16.690Z</time>
      </trkpt>
      <trkpt lat="47.545661" lon="7.930955">
        <ele>300.406097</ele>
        <time>2021-11-08T22:13:25.385Z</time>
      </trkpt>
      <trkpt lat="47.545563" lon="7.929641">
        <ele>301.888808</ele>
        <time>2021-11-08T22:13:47.725Z</time>
      </trkpt>
      <trkpt lat="47.545475" lon="7.928419">
        <ele>301.934844</ele>
        <time>2021-11-08T22:14:04.027Z</time>
      </trkpt>
      <trkpt lat="47.545421" lon="7.927686">
        <ele>301.962466</ele>
        <time>2021-11-08T22:14:10.131Z</time>
      </trkpt>
      <trkpt lat="47.545406" lon="7.927306">
        <ele>301.976725</ele>
        <time>2021-11-08T22:14:13.035Z</time>
      </trkpt>
      <trkpt lat="47.545407" lon="7.927001">
        <ele>301.635136</ele>
        <time>2021-11-08T22:14:15.321Z</time>
      </trkpt>
      <trkpt lat="47.545409" lon="7.926773">
        <ele>301.101435</ele>
        <time>2021-11-08T22:14:16.950Z</time>
      </trkpt>
      <trkpt lat="47.545417" lon="7.925848">
        <ele>298.936209</ele>
        <time>2021-11-08T22:14:23.285Z</time>
      </trkpt>
      <trkpt lat="47.545446" lon="7.925350">
        <ele>297.766265</ele>
        <time>2021-11-08T22:14:26.577Z</time>
      </trkpt>
      <trkpt lat="47.545466" lon="7.924880">
        <ele>296.664003</ele>
        <time>2021-11-08T22:14:29.631Z</time>
      </trkpt>
      <trkpt lat="47.545481" lon="7.924396">
        <ele>295.578277</ele>
        <time>2021-11-08T22:14:32.714Z</time>
      </trkpt>
      <trkpt lat="47.545521" lon="7.923709">
        <ele>294.325651</ele>
        <time>2021-11-08T22:14:37.239Z</time>
      </trkpt>
      <trkpt lat="47.545536" lon="7.923407">
        <ele>293.775560</ele>
        <time>2021-11-08T22:14:39.387Z</time>
      </trkpt>
      <trkpt lat="47.545553" lon="7.923142">
        <ele>293.291997</ele>
        <time>2021-11-08T22:14:41.218Z</time>
      </trkpt>
      <trkpt lat="47.545587" lon="7.922895">
        <ele>292.834067</ele>
        <time>2021-11-08T22:14:43.152Z</time>
      </trkpt>
      <trkpt lat="47.545641" lon="7.922610">
        <ele>292.296332</ele>
        <time>2021-11-08T22:14:45.297Z</time>
      </trkpt>
      <trkpt lat="47.545690" lon="7.922369">
        <ele>291.839108</ele>
        <time>2021-11-08T22:14:47.304Z</time>
      </trkpt>
      <trkpt lat="47.545699" lon="7.922325">
        <ele>291.755589</ele>
        <time>2021-11-08T22:14:47.598Z</time>
      </trkpt>
      <trkpt lat="47.545714" lon="7.922249">
        <ele>291.611749</ele>
        <time>2021-11-08T22:14:48.188Z</time>
      </trkpt>
      <trkpt lat="47.545778" lon="7.921947">
        <ele>291.036741</ele>
        <time>2021-11-08T22:14:50.891Z</time>
      </trkpt>
      <trkpt lat="47.545810" lon="7.921755">
        <ele>290.860535</ele>
        <time>2021-11-08T22:14:52.371Z</time>
      </trkpt>
      <trkpt lat="47.545881" lon="7.921096">
        <ele>290.622631</ele>
        <time>2021-11-08T22:14:57.833Z</time>
      </trkpt>
      <trkpt lat="47.545913" lon="7.920765">
        <ele>290.503428</ele>
        <time>2021-11-08T22:15:00.726Z</time>
      </trkpt>
      <trkpt lat="47.545973" lon="7.920313">
        <ele>290.339206</ele>
        <time>2021-11-08T22:15:05.196Z</time>
      </trkpt>
      <trkpt lat="47.546128" lon="7.919617">
        <ele>290.077932</ele>
        <time>2021-11-08T22:15:12.437Z</time>
      </trkpt>
      <trkpt lat="47.546262" lon="7.919081">
        <ele>289.877886</ele>
        <time>2021-11-08T22:15:18.486Z</time>
      </trkpt>
      <trkpt lat="47.546821" lon="7.916867">
        <ele>289.073838</ele>
        <time>2021-11-08T22:15:39.154Z</time>
      </trkpt>
      <trkpt lat="47.547032" lon="7.916218">
        <ele>288.940021</ele>
        <time>2021-11-08T22:15:45.461Z</time>
      </trkpt>
      <trkpt lat="47.547091" lon="7.916039">
        <ele>288.906500</ele>
        <time>2021-11-08T22:15:47.235Z</time>
      </trkpt>
      <trkpt lat="47.547113" lon="7.915971">
        <ele>288.893811</ele>
        <time>2021-11-08T22:15:47.825Z</time>
      </trkpt>
      <trkpt lat="47.547423" lon="7.915080">
        <ele>288.725132</ele>
        <time>2021-11-08T22:15:57.312Z</time>
      </trkpt>
      <trkpt lat="47.547994" lon="7.913433">
        <ele>289.116916</ele>
        <time>2021-11-08T22:16:17.017Z</time>
      </trkpt>
      <trkpt lat="47.548027" lon="7.913334">
        <ele>289.168244</ele>
        <time>2021-11-08T22:16:18.376Z</time>
      </trkpt>
      <trkpt lat="47.548412" lon="7.912168">
        <ele>289.771654</ele>
        <time>2021-11-08T22:16:34.779Z</time>
      </trkpt>
      <trkpt lat="47.549012" lon="7.910340">
        <ele>291.298998</ele>
        <time>2021-11-08T22:17:01.735Z</time>
      </trkpt>
      <trkpt lat="47.549102" lon="7.910058">
        <ele>291.540270</ele>
        <time>2021-11-08T22:17:05.846Z</time>
      </trkpt>
      <trkpt lat="47.549195" lon="7.909756">
        <ele>291.797020</ele>
        <time>2021-11-08T22:17:10.167Z</time>
      </trkpt>
      <trkpt lat="47.549315" lon="7.909357">
        <ele>292.269302</ele>
        <time>2021-11-08T22:17:15.781Z</time>
      </trkpt>
      <trkpt lat="47.549520" lon="7.908678">
        <ele>293.174443</ele>
        <time>2021-11-08T22:17:25.447Z</time>
      </trkpt>
      <trkpt lat="47.549539" lon="7.908625">
        <ele>293.247469</ele>
        <time>2021-11-08T22:17:26.181Z</time>
      </trkpt>
      <trkpt lat="47.550497" lon="7.905558">
        <ele>298.617242</ele>
        <time>2021-11-08T22:18:21.076Z</time>
      </trkpt>
      <trkpt lat="47.550283" lon="7.905413">
        <ele>299.282146</ele>
        <time>2021-11-08T22:18:29.242Z</time>
      </trkpt>
      <trkpt lat="47.550067" lon="7.905245">
        <ele>299.971456</ele>
        <time>2021-11-08T22:18:37.928Z</time>
      </trkpt>
      <trkpt lat="47.549867" lon="7.905155">
        <ele>300.682908</ele>
        <time>2021-11-08T22:18:45.557Z</time>
      </trkpt>
      <trkpt lat="47.549868" lon="7.905010">
        <ele>301.058702</ele>
        <time>2021-11-08T22:18:48.962Z</time>
      </trkpt>
      <trkpt lat="47.550025" lon="7.904774">
        <ele>301.917453</ele>
        <time>2021-11-08T22:18:57.113Z</time>
      </trkpt>
      <trkpt lat="47.550302" lon="7.904164">
        <ele>303.822770</ele>
        <time>2021-11-08T22:19:15.412Z</time>
      </trkpt>
      <trkpt lat="47.550498" lon="7.903445">
        <ele>305.832312</ele>
        <time>2021-11-08T22:19:34.984Z</time>
      </trkpt>
      <trkpt lat="47.550688" lon="7.902451">
        <ele>308.516545</ele>
        <time>2021-11-08T22:19:57.532Z</time>
      </trkpt>
      <trkpt lat="47.550757" lon="7.901591">
        <ele>310.772265</ele>
        <time>2021-11-08T22:20:17.329Z</time>
      </trkpt>
      <trkpt lat="47.550769" lon="7.901362">
        <ele>311.370511</ele>
        <time>2021-11-08T22:20:23.237Z</time>
      </trkpt>
      <trkpt lat="47.550801" lon="7.900244">
        <ele>314.292926</ele>
        <time>2021-11-08T22:20:47.634Z</time>
      </trkpt>
      <trkpt lat="47.550819" lon="7.898109">
        <ele>320.059958</ele>
        <time>2021-11-08T22:21:34.674Z</time>
      </trkpt>
      <trkpt lat="47.550648" lon="7.896481">
        <ele>322.704239</ele>
        <time>2021-11-08T22:22:02.329Z</time>
      </trkpt>
      <trkpt lat="47.550639" lon="7.896345">
        <ele>322.867603</ele>
        <time>2021-11-08T22:22:04.705Z</time>
      </trkpt>
      <trkpt lat="47.550660" lon="7.896255">
        <ele>322.981443</ele>
        <time>2021-11-08T22:22:05.505Z</time>
      </trkpt>
      <trkpt lat="47.550838" lon="7.895509">
        <ele>323.927352</ele>
        <time>2021-11-08T22:22:15.673Z</time>
      </trkpt>
      <trkpt lat="47.550878" lon="7.895158">
        <ele>324.352900</ele>
        <time>2021-11-08T22:22:19.736Z</time>
      </trkpt>
      <trkpt lat="47.550908" lon="7.894308">
        <ele>325.452322</ele>
        <time>2021-11-08T22:22:30.208Z</time>
      </trkpt>
      <trkpt lat="47.550892" lon="7.893176">
        <ele>326.927111</ele>
        <time>2021-11-08T22:22:44.925Z</time>
      </trkpt>
      <trkpt lat="47.550904" lon="7.891725">
        <ele>330.434491</ele>
        <time>2021-11-08T22:23:14.687Z</time>
      </trkpt>
      <trkpt lat="47.550915" lon="7.890600">
        <ele>334.563051</ele>
        <time>2021-11-08T22:23:43.527Z</time>
      </trkpt>
      <trkpt lat="47.550833" lon="7.889069">
        <ele>340.523490</ele>
        <time>2021-11-08T22:24:26.161Z</time>
      </trkpt>
      <trkpt lat="47.550831" lon="7.888611">
        <ele>342.423162</ele>
        <time>2021-11-08T22:24:38.731Z</time>
      </trkpt>
      <trkpt lat="47.550789" lon="7.887816">
        <ele>345.730645</ele>
        <time>2021-11-08T22:24:59.249Z</time>
      </trkpt>
      <trkpt lat="47.550758" lon="7.887295">
        <ele>347.899964</ele>
        <time>2021-11-08T22:25:13.074Z</time>
      </trkpt>
      <trkpt lat="47.550677" lon="7.886476">
        <ele>350.954591</ele>
        <time>2021-11-08T22:25:34.464Z</time>
      </trkpt>
      <trkpt lat="47.550580" lon="7.885972">
        <ele>352.808629</ele>
        <time>2021-11-08T22:25:47.343Z</time>
      </trkpt>
      <trkpt lat="47.550548" lon="7.885799">
        <ele>353.443206</ele>
        <time>2021-11-08T22:25:51.792Z</time>
      </trkpt>
      <trkpt lat="47.550391" lon="7.885109">
        <ele>356.019155</ele>
        <time>2021-11-08T22:26:09.355Z</time>
      </trkpt>
      <trkpt lat="47.550332" lon="7.884727">
        <ele>357.405468</ele>
        <time>2021-11-08T22:26:18.099Z</time>
      </trkpt>
      <trkpt lat="47.550234" lon="7.883221">
        <ele>361.446660</ele>
        <time>2021-11-08T22:26:51.016Z</time>
      </trkpt>
      <trkpt lat="47.549927" lon="7.881490">
        <ele>366.046967</ele>
        <time>2021-11-08T22:27:23.279Z</time>
      </trkpt>
      <trkpt lat="47.549726" lon="7.880786">
        <ele>368.131021</ele>
        <time>2021-11-08T22:27:39.368Z</time>
      </trkpt>
      <trkpt lat="47.549327" lon="7.879547">
        <ele>371.873855</ele>
        <time>2021-11-08T22:28:09.188Z</time>
      </trkpt>
      <trkpt lat="47.549318" lon="7.879398">
        <ele>372.263387</ele>
        <time>2021-11-08T22:28:12.369Z</time>
      </trkpt>
      <trkpt lat="47.549140" lon="7.879391">
        <ele>372.858700</ele>
        <time>2021-11-08T22:28:19.138Z</time>
      </trkpt>
      <trkpt lat="47.549041" lon="7.879359">
        <ele>373.197469</ele>
        <time>2021-11-08T22:28:22.342Z</time>
      </trkpt>
      <trkpt lat="47.548718" lon="7.879258">
        <ele>374.301136</ele>
        <time>2021-11-08T22:28:32.902Z</time>
      </trkpt>
      <trkpt lat="47.548422" lon="7.878959">
        <ele>375.498874</ele>
        <time>2021-11-08T22:28:43.546Z</time>
      </trkpt>
      <trkpt lat="47.548234" lon="7.878638">
        <ele>376.457920</ele>
        <time>2021-11-08T22:28:51.889Z</time>
      </trkpt>
      <trkpt lat="47.547992" lon="7.877974">
        <ele>378.160792</ele>
        <time>2021-11-08T22:29:05.106Z</time>
      </trkpt>
      <trkpt lat="47.547574" lon="7.876801">
        <ele>377.247189</ele>
        <time>2021-11-08T22:29:18.709Z</time>
      </trkpt>
      <trkpt lat="47.547126" lon="7.875801">
        <ele>376.387222</ele>
        <time>2021-11-08T22:29:27.491Z</time>
      </trkpt>
      <trkpt lat="47.546309" lon="7.874154">
        <ele>369.797571</ele>
        <time>2021-11-08T22:29:40.680Z</time>
      </trkpt>
      <trkpt lat="47.546135" lon="7.873859">
        <ele>368.456465</ele>
        <time>2021-11-08T22:29:43.062Z</time>
      </trkpt>
      <trkpt lat="47.546077" lon="7.873763">
        <ele>368.015413</ele>
        <time>2021-11-08T22:29:43.873Z</time>
      </trkpt>
      <trkpt lat="47.545934" lon="7.873549">
        <ele>366.935362</ele>
        <time>2021-11-08T22:29:45.677Z</time>
      </trkpt>
      <trkpt lat="47.545746" lon="7.873302">
        <ele>365.298317</ele>
        <time>2021-11-08T22:29:47.966Z</time>
      </trkpt>
      <trkpt lat="47.545515" lon="7.873015">
        <ele>363.334216</ele>
        <time>2021-11-08T22:29:50.664Z</time>
      </trkpt>
      <trkpt lat="47.545478" lon="7.872968">
        <ele>363.016689</ele>
        <time>2021-11-08T22:29:51.106Z</time>
      </trkpt>
      <trkpt lat="47.545375" lon="7.872836">
        <ele>362.129427</ele>
        <time>2021-11-08T22:29:52.299Z</time>
      </trkpt>
      <trkpt lat="47.545131" lon="7.872664">
        <ele>360.369026</ele>
        <time>2021-11-08T22:29:54.758Z</time>
      </trkpt>
      <trkpt lat="47.544883" lon="7.872555">
        <ele>358.683739</ele>
        <time>2021-11-08T22:29:57.081Z</time>
      </trkpt>
      <trkpt lat="47.544390" lon="7.872423">
        <ele>355.439575</ele>
        <time>2021-11-08T22:30:01.621Z</time>
      </trkpt>
      <trkpt lat="47.543332" lon="7.872237">
        <ele>355.439575</ele>
        <time>2021-11-08T22:30:11.873Z</time>
      </trkpt>
      <trkpt lat="47.543312" lon="7.872216">
        <ele>355.439575</ele>
        <time>2021-11-08T22:30:12.117Z</time>
      </trkpt>
    </trkseg>
  </trk>
</gpx>